<?xml version="1.0" encoding="UTF-8" standalone="no" ?>
<gpx xmlns="http://www.topografix.com/GPX/1/1" xmlns:xsi="http://www.w3.org/2001/XMLSchema-instance" xsi:schemaLocation="http://www.topografix.com/GPX/1/1 http://www.topografix.com/GPX/1/1/gpx.xsd" version="1.1" creator="VisuGPX - https://www.visugpx.com">
  <metadata>
    <name>SC1306 Vélodrome de Roubaix</name>
  </metadata>
  <trk>
    <name><![CDATA[Vélodrome de Roubaix]]></name>
    <trkseg>
      <trkpt lat="50.50323" lon="3.46324">
        <ele>20.690527</ele>
        <time>2021-06-11T13:14:53.652Z</time>
      </trkpt>
      <trkpt lat="50.50325" lon="3.46304">
        <ele>20.690527</ele>
        <time>2021-06-11T13:14:55.168Z</time>
      </trkpt>
      <trkpt lat="50.50335" lon="3.46236">
        <ele>20.690527</ele>
        <time>2021-06-11T13:15:00.335Z</time>
      </trkpt>
      <trkpt lat="50.50345" lon="3.46155">
        <ele>20.604428</ele>
        <time>2021-06-11T13:15:06.098Z</time>
      </trkpt>
      <trkpt lat="50.50361" lon="3.46074">
        <ele>20.371088</ele>
        <time>2021-06-11T13:15:11.898Z</time>
      </trkpt>
      <trkpt lat="50.5041" lon="3.45851">
        <ele>19.724549</ele>
        <time>2021-06-11T13:15:27.937Z</time>
      </trkpt>
      <trkpt lat="50.50424" lon="3.45772">
        <ele>19.505213</ele>
        <time>2021-06-11T13:15:33.584Z</time>
      </trkpt>
      <trkpt lat="50.50433" lon="3.4572">
        <ele>19.359917</ele>
        <time>2021-06-11T13:15:37.339Z</time>
      </trkpt>
      <trkpt lat="50.50436" lon="3.45642">
        <ele>19.151289</ele>
        <time>2021-06-11T13:15:42.711Z</time>
      </trkpt>
      <trkpt lat="50.50437" lon="3.45631">
        <ele>19.092773</ele>
        <time>2021-06-11T13:15:43.362Z</time>
      </trkpt>
      <trkpt lat="50.5044" lon="3.45588">
        <ele>18.861387</ele>
        <time>2021-06-11T13:15:46.649Z</time>
      </trkpt>
      <trkpt lat="50.50441" lon="3.45573">
        <ele>18.779867</ele>
        <time>2021-06-11T13:15:47.571Z</time>
      </trkpt>
      <trkpt lat="50.50441" lon="3.45568">
        <ele>18.752631</ele>
        <time>2021-06-11T13:15:47.926Z</time>
      </trkpt>
      <trkpt lat="50.50443" lon="3.45552">
        <ele>18.665988</ele>
        <time>2021-06-11T13:15:49.009Z</time>
      </trkpt>
      <trkpt lat="50.50448" lon="3.45508">
        <ele>18.432362</ele>
        <time>2021-06-11T13:15:51.751Z</time>
      </trkpt>
      <trkpt lat="50.50447" lon="3.4549">
        <ele>18.333954</ele>
        <time>2021-06-11T13:15:52.899Z</time>
      </trkpt>
      <trkpt lat="50.50444" lon="3.45482">
        <ele>18.283728</ele>
        <time>2021-06-11T13:15:53.546Z</time>
      </trkpt>
      <trkpt lat="50.50448" lon="3.4547">
        <ele>18.212057</ele>
        <time>2021-06-11T13:15:54.332Z</time>
      </trkpt>
      <trkpt lat="50.50458" lon="3.45443">
        <ele>18.044981</ele>
        <time>2021-06-11T13:15:56.292Z</time>
      </trkpt>
      <trkpt lat="50.50468" lon="3.45372">
        <ele>17.659517</ele>
        <time>2021-06-11T13:16:00.842Z</time>
      </trkpt>
      <trkpt lat="50.50471" lon="3.45343">
        <ele>17.510504</ele>
        <time>2021-06-11T13:16:02.734Z</time>
      </trkpt>
      <trkpt lat="50.50473" lon="3.45332">
        <ele>17.456757</ele>
        <time>2021-06-11T13:16:03.377Z</time>
      </trkpt>
      <trkpt lat="50.50477" lon="3.45312">
        <ele>17.348127</ele>
        <time>2021-06-11T13:16:04.785Z</time>
      </trkpt>
      <trkpt lat="50.50513" lon="3.45201">
        <ele>16.722787</ele>
        <time>2021-06-11T13:16:12.719Z</time>
      </trkpt>
      <trkpt lat="50.50531" lon="3.45152">
        <ele>16.438104</ele>
        <time>2021-06-11T13:16:16.374Z</time>
      </trkpt>
      <trkpt lat="50.50539" lon="3.45133">
        <ele>16.321715</ele>
        <time>2021-06-11T13:16:17.822Z</time>
      </trkpt>
      <trkpt lat="50.50551" lon="3.45111">
        <ele>16.214764</ele>
        <time>2021-06-11T13:16:19.773Z</time>
      </trkpt>
      <trkpt lat="50.50599" lon="3.45026">
        <ele>16.037926</ele>
        <time>2021-06-11T13:16:27.751Z</time>
      </trkpt>
      <trkpt lat="50.50652" lon="3.44916">
        <ele>15.82407</ele>
        <time>2021-06-11T13:16:38.012Z</time>
      </trkpt>
      <trkpt lat="50.50661" lon="3.44894">
        <ele>15.790365</ele>
        <time>2021-06-11T13:16:39.823Z</time>
      </trkpt>
      <trkpt lat="50.50673" lon="3.44871">
        <ele>15.774811</ele>
        <time>2021-06-11T13:16:42.139Z</time>
      </trkpt>
      <trkpt lat="50.50707" lon="3.44823">
        <ele>15.738203</ele>
        <time>2021-06-11T13:16:47.315Z</time>
      </trkpt>
      <trkpt lat="50.51095" lon="3.44486">
        <ele>15.472802</ele>
        <time>2021-06-11T13:17:38.870Z</time>
      </trkpt>
      <trkpt lat="50.51116" lon="3.44468">
        <ele>15.468004</ele>
        <time>2021-06-11T13:17:41.920Z</time>
      </trkpt>
      <trkpt lat="50.51187" lon="3.44406">
        <ele>15.638573</ele>
        <time>2021-06-11T13:17:52.030Z</time>
      </trkpt>
      <trkpt lat="50.5119" lon="3.44403">
        <ele>15.648255</ele>
        <time>2021-06-11T13:17:52.664Z</time>
      </trkpt>
      <trkpt lat="50.51322" lon="3.4435">
        <ele>15.877881</ele>
        <time>2021-06-11T13:18:09.884Z</time>
      </trkpt>
      <trkpt lat="50.5134" lon="3.44349">
        <ele>15.8827</ele>
        <time>2021-06-11T13:18:12.238Z</time>
      </trkpt>
      <trkpt lat="50.51388" lon="3.44241">
        <ele>15.904452</ele>
        <time>2021-06-11T13:18:25.789Z</time>
      </trkpt>
      <trkpt lat="50.51392" lon="3.44233">
        <ele>15.906148</ele>
        <time>2021-06-11T13:18:26.810Z</time>
      </trkpt>
      <trkpt lat="50.51402" lon="3.44214">
        <ele>15.910156</ele>
        <time>2021-06-11T13:18:29.303Z</time>
      </trkpt>
      <trkpt lat="50.51428" lon="3.44162">
        <ele>15.895773</ele>
        <time>2021-06-11T13:18:35.914Z</time>
      </trkpt>
      <trkpt lat="50.51475" lon="3.44086">
        <ele>15.840397</ele>
        <time>2021-06-11T13:18:46.262Z</time>
      </trkpt>
      <trkpt lat="50.51515" lon="3.44047">
        <ele>15.802064</ele>
        <time>2021-06-11T13:18:53.706Z</time>
      </trkpt>
      <trkpt lat="50.51595" lon="3.43999">
        <ele>15.888934</ele>
        <time>2021-06-11T13:19:08.100Z</time>
      </trkpt>
      <trkpt lat="50.51583" lon="3.43897">
        <ele>16.070345</ele>
        <time>2021-06-11T13:19:19.447Z</time>
      </trkpt>
      <trkpt lat="50.51578" lon="3.43822">
        <ele>16.20355</ele>
        <time>2021-06-11T13:19:27.823Z</time>
      </trkpt>
      <trkpt lat="50.51579" lon="3.4378">
        <ele>16.263083</ele>
        <time>2021-06-11T13:19:32.488Z</time>
      </trkpt>
      <trkpt lat="50.51595" lon="3.43711">
        <ele>16.22783</ele>
        <time>2021-06-11T13:19:40.490Z</time>
      </trkpt>
      <trkpt lat="50.51685" lon="3.43587">
        <ele>16.137599</ele>
        <time>2021-06-11T13:19:59.255Z</time>
      </trkpt>
      <trkpt lat="50.51691" lon="3.43575">
        <ele>16.129903</ele>
        <time>2021-06-11T13:20:00.673Z</time>
      </trkpt>
      <trkpt lat="50.51679" lon="3.43556">
        <ele>16.022419</ele>
        <time>2021-06-11T13:20:02.570Z</time>
      </trkpt>
      <trkpt lat="50.51572" lon="3.43377">
        <ele>15.078491</ele>
        <time>2021-06-11T13:20:18.514Z</time>
      </trkpt>
      <trkpt lat="50.51559" lon="3.4334">
        <ele>14.997265</ele>
        <time>2021-06-11T13:20:21.465Z</time>
      </trkpt>
      <trkpt lat="50.51551" lon="3.43317">
        <ele>14.961686</ele>
        <time>2021-06-11T13:20:23.172Z</time>
      </trkpt>
      <trkpt lat="50.51545" lon="3.43295">
        <ele>14.928697</ele>
        <time>2021-06-11T13:20:24.962Z</time>
      </trkpt>
      <trkpt lat="50.51537" lon="3.43274">
        <ele>14.89592</ele>
        <time>2021-06-11T13:20:26.568Z</time>
      </trkpt>
      <trkpt lat="50.51531" lon="3.43248">
        <ele>14.858428</ele>
        <time>2021-06-11T13:20:28.614Z</time>
      </trkpt>
      <trkpt lat="50.51526" lon="3.43216">
        <ele>14.813976</ele>
        <time>2021-06-11T13:20:30.889Z</time>
      </trkpt>
      <trkpt lat="50.51526" lon="3.43141">
        <ele>14.712981</ele>
        <time>2021-06-11T13:20:36.387Z</time>
      </trkpt>
      <trkpt lat="50.51527" lon="3.43125">
        <ele>14.690579</ele>
        <time>2021-06-11T13:20:37.758Z</time>
      </trkpt>
      <trkpt lat="50.51528" lon="3.43112">
        <ele>14.673093</ele>
        <time>2021-06-11T13:20:38.609Z</time>
      </trkpt>
      <trkpt lat="50.51587" lon="3.42484">
        <ele>16.882644</ele>
        <time>2021-06-11T13:21:31.779Z</time>
      </trkpt>
      <trkpt lat="50.5159" lon="3.42448">
        <ele>17.354979</ele>
        <time>2021-06-11T13:21:35.715Z</time>
      </trkpt>
      <trkpt lat="50.51591" lon="3.42429">
        <ele>17.59984</ele>
        <time>2021-06-11T13:21:37.984Z</time>
      </trkpt>
      <trkpt lat="50.516" lon="3.42352">
        <ele>18.603706</ele>
        <time>2021-06-11T13:21:47.354Z</time>
      </trkpt>
      <trkpt lat="50.516" lon="3.4234">
        <ele>18.762106</ele>
        <time>2021-06-11T13:21:49.329Z</time>
      </trkpt>
      <trkpt lat="50.51598" lon="3.42329">
        <ele>18.90498</ele>
        <time>2021-06-11T13:21:51.041Z</time>
      </trkpt>
      <trkpt lat="50.51577" lon="3.42252">
        <ele>20.061588</ele>
        <time>2021-06-11T13:22:02.375Z</time>
      </trkpt>
      <trkpt lat="50.51559" lon="3.42188">
        <ele>21.317295</ele>
        <time>2021-06-11T13:22:12.428Z</time>
      </trkpt>
      <trkpt lat="50.51546" lon="3.4214">
        <ele>22.24441</ele>
        <time>2021-06-11T13:22:19.451Z</time>
      </trkpt>
      <trkpt lat="50.51541" lon="3.42124">
        <ele>22.570852</ele>
        <time>2021-06-11T13:22:22.607Z</time>
      </trkpt>
      <trkpt lat="50.5154" lon="3.42112">
        <ele>22.78255</ele>
        <time>2021-06-11T13:22:24.062Z</time>
      </trkpt>
      <trkpt lat="50.51536" lon="3.421">
        <ele>23.022378</ele>
        <time>2021-06-11T13:22:25.693Z</time>
      </trkpt>
      <trkpt lat="50.51538" lon="3.42097">
        <ele>23.078832</ele>
        <time>2021-06-11T13:22:26.073Z</time>
      </trkpt>
      <trkpt lat="50.51539" lon="3.42095">
        <ele>23.136259</ele>
        <time>2021-06-11T13:22:26.470Z</time>
      </trkpt>
      <trkpt lat="50.5154" lon="3.4209">
        <ele>23.227426</ele>
        <time>2021-06-11T13:22:27.137Z</time>
      </trkpt>
      <trkpt lat="50.5154" lon="3.42085">
        <ele>23.321054</ele>
        <time>2021-06-11T13:22:28.004Z</time>
      </trkpt>
      <trkpt lat="50.51539" lon="3.42082">
        <ele>23.378735</ele>
        <time>2021-06-11T13:22:28.560Z</time>
      </trkpt>
      <trkpt lat="50.51534" lon="3.42076">
        <ele>23.544638</ele>
        <time>2021-06-11T13:22:30.038Z</time>
      </trkpt>
      <trkpt lat="50.51532" lon="3.42076">
        <ele>23.604102</ele>
        <time>2021-06-11T13:22:30.480Z</time>
      </trkpt>
      <trkpt lat="50.51529" lon="3.42072">
        <ele>23.71243</ele>
        <time>2021-06-11T13:22:31.164Z</time>
      </trkpt>
      <trkpt lat="50.51525" lon="3.42065">
        <ele>23.892415</ele>
        <time>2021-06-11T13:22:32.279Z</time>
      </trkpt>
      <trkpt lat="50.51523" lon="3.42062">
        <ele>23.966845</ele>
        <time>2021-06-11T13:22:32.736Z</time>
      </trkpt>
      <trkpt lat="50.51521" lon="3.42059">
        <ele>24.045784</ele>
        <time>2021-06-11T13:22:33.230Z</time>
      </trkpt>
      <trkpt lat="50.51507" lon="3.42024">
        <ele>24.770013</ele>
        <time>2021-06-11T13:22:38.483Z</time>
      </trkpt>
      <trkpt lat="50.51499" lon="3.42004">
        <ele>24.897485</ele>
        <time>2021-06-11T13:22:40.851Z</time>
      </trkpt>
      <trkpt lat="50.51494" lon="3.41991">
        <ele>24.941515</ele>
        <time>2021-06-11T13:22:42.845Z</time>
      </trkpt>
      <trkpt lat="50.51492" lon="3.41986">
        <ele>24.960289</ele>
        <time>2021-06-11T13:22:43.648Z</time>
      </trkpt>
      <trkpt lat="50.51485" lon="3.41966">
        <ele>25.02775</ele>
        <time>2021-06-11T13:22:45.628Z</time>
      </trkpt>
      <trkpt lat="50.51481" lon="3.4195">
        <ele>25.07814</ele>
        <time>2021-06-11T13:22:47.093Z</time>
      </trkpt>
      <trkpt lat="50.51487" lon="3.41945">
        <ele>25.106493</ele>
        <time>2021-06-11T13:22:48.667Z</time>
      </trkpt>
      <trkpt lat="50.5151" lon="3.41926">
        <ele>25.22866</ele>
        <time>2021-06-11T13:22:53.413Z</time>
      </trkpt>
      <trkpt lat="50.51713" lon="3.41925">
        <ele>24.93652</ele>
        <time>2021-06-11T13:23:23.946Z</time>
      </trkpt>
      <trkpt lat="50.51727" lon="3.41926">
        <ele>24.842989</ele>
        <time>2021-06-11T13:23:25.838Z</time>
      </trkpt>
      <trkpt lat="50.51736" lon="3.41927">
        <ele>24.779019</ele>
        <time>2021-06-11T13:23:27.070Z</time>
      </trkpt>
      <trkpt lat="50.51872" lon="3.41918">
        <ele>23.86397</ele>
        <time>2021-06-11T13:23:45.909Z</time>
      </trkpt>
      <trkpt lat="50.5188" lon="3.41917">
        <ele>23.808105</ele>
        <time>2021-06-11T13:23:47.014Z</time>
      </trkpt>
      <trkpt lat="50.51886" lon="3.41916">
        <ele>23.767841</ele>
        <time>2021-06-11T13:23:47.912Z</time>
      </trkpt>
      <trkpt lat="50.51906" lon="3.41912">
        <ele>23.636453</ele>
        <time>2021-06-11T13:23:50.788Z</time>
      </trkpt>
      <trkpt lat="50.52017" lon="3.41913">
        <ele>23.582301</ele>
        <time>2021-06-11T13:24:08.206Z</time>
      </trkpt>
      <trkpt lat="50.52048" lon="3.41921">
        <ele>23.790088</ele>
        <time>2021-06-11T13:24:13.776Z</time>
      </trkpt>
      <trkpt lat="50.52079" lon="3.41929">
        <ele>23.994919</ele>
        <time>2021-06-11T13:24:19.855Z</time>
      </trkpt>
      <trkpt lat="50.52093" lon="3.41932">
        <ele>24.086968</ele>
        <time>2021-06-11T13:24:22.478Z</time>
      </trkpt>
      <trkpt lat="50.52105" lon="3.41935">
        <ele>24.166549</ele>
        <time>2021-06-11T13:24:25.202Z</time>
      </trkpt>
      <trkpt lat="50.52169" lon="3.4195">
        <ele>24.749231</ele>
        <time>2021-06-11T13:24:38.123Z</time>
      </trkpt>
      <trkpt lat="50.52246" lon="3.41966">
        <ele>25.738392</ele>
        <time>2021-06-11T13:24:54.416Z</time>
      </trkpt>
      <trkpt lat="50.52273" lon="3.41971">
        <ele>26.083309</ele>
        <time>2021-06-11T13:24:59.807Z</time>
      </trkpt>
      <trkpt lat="50.52365" lon="3.41989">
        <ele>27.053957</ele>
        <time>2021-06-11T13:25:18.139Z</time>
      </trkpt>
      <trkpt lat="50.52437" lon="3.42011">
        <ele>27.629112</ele>
        <time>2021-06-11T13:25:31.760Z</time>
      </trkpt>
      <trkpt lat="50.52521" lon="3.42029">
        <ele>28.164069</ele>
        <time>2021-06-11T13:25:47.155Z</time>
      </trkpt>
      <trkpt lat="50.52597" lon="3.42045">
        <ele>28.301547</ele>
        <time>2021-06-11T13:26:00.412Z</time>
      </trkpt>
      <trkpt lat="50.52752" lon="3.4208">
        <ele>28.421042</ele>
        <time>2021-06-11T13:26:25.343Z</time>
      </trkpt>
      <trkpt lat="50.52836" lon="3.42099">
        <ele>28.390981</ele>
        <time>2021-06-11T13:26:38.860Z</time>
      </trkpt>
      <trkpt lat="50.5289" lon="3.42111">
        <ele>28.333586</ele>
        <time>2021-06-11T13:26:47.824Z</time>
      </trkpt>
      <trkpt lat="50.53254" lon="3.42189">
        <ele>27.197772</ele>
        <time>2021-06-11T13:27:45.220Z</time>
      </trkpt>
      <trkpt lat="50.53265" lon="3.42192">
        <ele>27.069715</ele>
        <time>2021-06-11T13:27:46.675Z</time>
      </trkpt>
      <trkpt lat="50.53268" lon="3.42193">
        <ele>27.033426</ele>
        <time>2021-06-11T13:27:46.969Z</time>
      </trkpt>
      <trkpt lat="50.53342" lon="3.42208">
        <ele>26.134049</ele>
        <time>2021-06-11T13:27:53.926Z</time>
      </trkpt>
      <trkpt lat="50.53478" lon="3.42237">
        <ele>24.125735</ele>
        <time>2021-06-11T13:28:06.136Z</time>
      </trkpt>
      <trkpt lat="50.53576" lon="3.42263">
        <ele>22.583127</ele>
        <time>2021-06-11T13:28:15.273Z</time>
      </trkpt>
      <trkpt lat="50.53725" lon="3.42291">
        <ele>21.254828</ele>
        <time>2021-06-11T13:28:30.361Z</time>
      </trkpt>
      <trkpt lat="50.53826" lon="3.42315">
        <ele>20.568997</ele>
        <time>2021-06-11T13:28:40.855Z</time>
      </trkpt>
      <trkpt lat="50.53907" lon="3.42331">
        <ele>20.05758</ele>
        <time>2021-06-11T13:28:49.594Z</time>
      </trkpt>
      <trkpt lat="50.53965" lon="3.42346">
        <ele>19.705327</ele>
        <time>2021-06-11T13:28:55.602Z</time>
      </trkpt>
      <trkpt lat="50.53968" lon="3.42348">
        <ele>19.683295</ele>
        <time>2021-06-11T13:28:55.940Z</time>
      </trkpt>
      <trkpt lat="50.5398" lon="3.423">
        <ele>19.486137</ele>
        <time>2021-06-11T13:29:00.707Z</time>
      </trkpt>
      <trkpt lat="50.53985" lon="3.4228">
        <ele>19.406228</ele>
        <time>2021-06-11T13:29:02.683Z</time>
      </trkpt>
      <trkpt lat="50.53997" lon="3.42265">
        <ele>19.314501</ele>
        <time>2021-06-11T13:29:04.845Z</time>
      </trkpt>
      <trkpt lat="50.54024" lon="3.4224">
        <ele>19.128161</ele>
        <time>2021-06-11T13:29:09.414Z</time>
      </trkpt>
      <trkpt lat="50.54054" lon="3.42229">
        <ele>18.946606</ele>
        <time>2021-06-11T13:29:13.941Z</time>
      </trkpt>
      <trkpt lat="50.54068" lon="3.42229">
        <ele>18.871453</ele>
        <time>2021-06-11T13:29:16.071Z</time>
      </trkpt>
      <trkpt lat="50.54074" lon="3.4223">
        <ele>18.867005</ele>
        <time>2021-06-11T13:29:16.898Z</time>
      </trkpt>
      <trkpt lat="50.54079" lon="3.4223">
        <ele>18.863689</ele>
        <time>2021-06-11T13:29:17.636Z</time>
      </trkpt>
      <trkpt lat="50.54128" lon="3.42236">
        <ele>18.826436</ele>
        <time>2021-06-11T13:29:25.415Z</time>
      </trkpt>
      <trkpt lat="50.54162" lon="3.42227">
        <ele>18.800392</ele>
        <time>2021-06-11T13:29:30.807Z</time>
      </trkpt>
      <trkpt lat="50.54211" lon="3.42191">
        <ele>18.7596</ele>
        <time>2021-06-11T13:29:39.445Z</time>
      </trkpt>
      <trkpt lat="50.5421" lon="3.42175">
        <ele>18.751836</ele>
        <time>2021-06-11T13:29:40.718Z</time>
      </trkpt>
      <trkpt lat="50.54221" lon="3.42162">
        <ele>18.741496</ele>
        <time>2021-06-11T13:29:43.091Z</time>
      </trkpt>
      <trkpt lat="50.54311" lon="3.41984">
        <ele>19.426549</ele>
        <time>2021-06-11T13:30:09.162Z</time>
      </trkpt>
      <trkpt lat="50.5432" lon="3.41974">
        <ele>19.484439</ele>
        <time>2021-06-11T13:30:11.276Z</time>
      </trkpt>
      <trkpt lat="50.54334" lon="3.4196">
        <ele>19.562757</ele>
        <time>2021-06-11T13:30:14.116Z</time>
      </trkpt>
      <trkpt lat="50.54358" lon="3.41944">
        <ele>19.697481</ele>
        <time>2021-06-11T13:30:18.764Z</time>
      </trkpt>
      <trkpt lat="50.54417" lon="3.41925">
        <ele>20.021854</ele>
        <time>2021-06-11T13:30:29.516Z</time>
      </trkpt>
      <trkpt lat="50.54439" lon="3.41907">
        <ele>20.153228</ele>
        <time>2021-06-11T13:30:33.893Z</time>
      </trkpt>
      <trkpt lat="50.54448" lon="3.41892">
        <ele>20.225607</ele>
        <time>2021-06-11T13:30:36.331Z</time>
      </trkpt>
      <trkpt lat="50.54517" lon="3.41725">
        <ele>21.106909</ele>
        <time>2021-06-11T13:30:59.068Z</time>
      </trkpt>
      <trkpt lat="50.5453" lon="3.41694">
        <ele>21.313282</ele>
        <time>2021-06-11T13:31:03.406Z</time>
      </trkpt>
      <trkpt lat="50.5456" lon="3.4153">
        <ele>22.323543</ele>
        <time>2021-06-11T13:31:24.382Z</time>
      </trkpt>
      <trkpt lat="50.54707" lon="3.41187">
        <ele>25.901614</ele>
        <time>2021-06-11T13:32:19.584Z</time>
      </trkpt>
      <trkpt lat="50.54722" lon="3.41157">
        <ele>26.210244</ele>
        <time>2021-06-11T13:32:24.644Z</time>
      </trkpt>
      <trkpt lat="50.5476" lon="3.41105">
        <ele>26.845509</ele>
        <time>2021-06-11T13:32:34.460Z</time>
      </trkpt>
      <trkpt lat="50.54776" lon="3.41089">
        <ele>27.020436</ele>
        <time>2021-06-11T13:32:38.207Z</time>
      </trkpt>
      <trkpt lat="50.54794" lon="3.41076">
        <ele>27.095773</ele>
        <time>2021-06-11T13:32:41.868Z</time>
      </trkpt>
      <trkpt lat="50.54828" lon="3.4106">
        <ele>27.230082</ele>
        <time>2021-06-11T13:32:48.372Z</time>
      </trkpt>
      <trkpt lat="50.54933" lon="3.41026">
        <ele>27.637278</ele>
        <time>2021-06-11T13:33:06.706Z</time>
      </trkpt>
      <trkpt lat="50.54954" lon="3.41019">
        <ele>27.628764</ele>
        <time>2021-06-11T13:33:10.073Z</time>
      </trkpt>
      <trkpt lat="50.55128" lon="3.40966">
        <ele>26.952377</ele>
        <time>2021-06-11T13:33:36.562Z</time>
      </trkpt>
      <trkpt lat="50.55256" lon="3.40915">
        <ele>26.26272</ele>
        <time>2021-06-11T13:33:55.753Z</time>
      </trkpt>
      <trkpt lat="50.55329" lon="3.40904">
        <ele>26.321451</ele>
        <time>2021-06-11T13:34:06.631Z</time>
      </trkpt>
      <trkpt lat="50.55443" lon="3.40868">
        <ele>27.196624</ele>
        <time>2021-06-11T13:34:28.459Z</time>
      </trkpt>
      <trkpt lat="50.55459" lon="3.40859">
        <ele>27.322232</ele>
        <time>2021-06-11T13:34:31.963Z</time>
      </trkpt>
      <trkpt lat="50.55492" lon="3.40868">
        <ele>27.913827</ele>
        <time>2021-06-11T13:34:39.323Z</time>
      </trkpt>
      <trkpt lat="50.55504" lon="3.40862">
        <ele>28.19031</ele>
        <time>2021-06-11T13:34:42.284Z</time>
      </trkpt>
      <trkpt lat="50.55796" lon="3.40766">
        <ele>35.290913</ele>
        <time>2021-06-11T13:35:54.822Z</time>
      </trkpt>
      <trkpt lat="50.55926" lon="3.40715">
        <ele>38.305659</ele>
        <time>2021-06-11T13:36:25.584Z</time>
      </trkpt>
      <trkpt lat="50.55961" lon="3.40698">
        <ele>39.116243</ele>
        <time>2021-06-11T13:36:33.986Z</time>
      </trkpt>
      <trkpt lat="50.55968" lon="3.40696">
        <ele>39.275994</ele>
        <time>2021-06-11T13:36:35.671Z</time>
      </trkpt>
      <trkpt lat="50.56017" lon="3.40676">
        <ele>40.442615</ele>
        <time>2021-06-11T13:36:47.393Z</time>
      </trkpt>
      <trkpt lat="50.56024" lon="3.40673">
        <ele>40.633524</ele>
        <time>2021-06-11T13:36:49.195Z</time>
      </trkpt>
      <trkpt lat="50.56171" lon="3.40617">
        <ele>44.398355</ele>
        <time>2021-06-11T13:37:25.600Z</time>
      </trkpt>
      <trkpt lat="50.5625" lon="3.4059">
        <ele>46.719524</ele>
        <time>2021-06-11T13:37:46.621Z</time>
      </trkpt>
      <trkpt lat="50.56313" lon="3.40575">
        <ele>48.52252</ele>
        <time>2021-06-11T13:38:03.117Z</time>
      </trkpt>
      <trkpt lat="50.56434" lon="3.40535">
        <ele>51.05657</ele>
        <time>2021-06-11T13:38:33.296Z</time>
      </trkpt>
      <trkpt lat="50.56412" lon="3.40035">
        <ele>54.323064</ele>
        <time>2021-06-11T13:39:34.213Z</time>
      </trkpt>
      <trkpt lat="50.564" lon="3.39778">
        <ele>54.604122</ele>
        <time>2021-06-11T13:40:00.319Z</time>
      </trkpt>
      <trkpt lat="50.56405" lon="3.39732">
        <ele>54.60612</ele>
        <time>2021-06-11T13:40:04.887Z</time>
      </trkpt>
      <trkpt lat="50.56528" lon="3.39276">
        <ele>55.111551</ele>
        <time>2021-06-11T13:40:57.005Z</time>
      </trkpt>
      <trkpt lat="50.56566" lon="3.39285">
        <ele>55.522097</ele>
        <time>2021-06-11T13:41:02.635Z</time>
      </trkpt>
      <trkpt lat="50.56572" lon="3.39286">
        <ele>55.590325</ele>
        <time>2021-06-11T13:41:03.662Z</time>
      </trkpt>
      <trkpt lat="50.56588" lon="3.3929">
        <ele>55.768641</ele>
        <time>2021-06-11T13:41:06.296Z</time>
      </trkpt>
      <trkpt lat="50.56771" lon="3.39336">
        <ele>57.753285</ele>
        <time>2021-06-11T13:41:36.287Z</time>
      </trkpt>
      <trkpt lat="50.56801" lon="3.39345">
        <ele>58.070331</ele>
        <time>2021-06-11T13:41:40.804Z</time>
      </trkpt>
      <trkpt lat="50.56864" lon="3.39359">
        <ele>58.73515</ele>
        <time>2021-06-11T13:41:50.000Z</time>
      </trkpt>
      <trkpt lat="50.56984" lon="3.39373">
        <ele>59.436701</ele>
        <time>2021-06-11T13:42:06.458Z</time>
      </trkpt>
      <trkpt lat="50.57021" lon="3.39385">
        <ele>59.653822</ele>
        <time>2021-06-11T13:42:11.511Z</time>
      </trkpt>
      <trkpt lat="50.57131" lon="3.39439">
        <ele>60.330979</ele>
        <time>2021-06-11T13:42:26.831Z</time>
      </trkpt>
      <trkpt lat="50.57268" lon="3.39464">
        <ele>61.271786</ele>
        <time>2021-06-11T13:42:46.355Z</time>
      </trkpt>
      <trkpt lat="50.57273" lon="3.39465">
        <ele>61.317838</ele>
        <time>2021-06-11T13:42:47.193Z</time>
      </trkpt>
      <trkpt lat="50.57308" lon="3.39461">
        <ele>61.626716</ele>
        <time>2021-06-11T13:42:52.447Z</time>
      </trkpt>
      <trkpt lat="50.57486" lon="3.39435">
        <ele>62.803248</ele>
        <time>2021-06-11T13:43:18.925Z</time>
      </trkpt>
      <trkpt lat="50.57506" lon="3.39426">
        <ele>62.891738</ele>
        <time>2021-06-11T13:43:21.736Z</time>
      </trkpt>
      <trkpt lat="50.57541" lon="3.39409">
        <ele>63.052105</ele>
        <time>2021-06-11T13:43:26.457Z</time>
      </trkpt>
      <trkpt lat="50.57647" lon="3.39385">
        <ele>62.205593</ele>
        <time>2021-06-11T13:43:37.791Z</time>
      </trkpt>
      <trkpt lat="50.57696" lon="3.39395">
        <ele>61.500002</ele>
        <time>2021-06-11T13:43:42.264Z</time>
      </trkpt>
      <trkpt lat="50.57736" lon="3.39415">
        <ele>60.906094</ele>
        <time>2021-06-11T13:43:45.888Z</time>
      </trkpt>
      <trkpt lat="50.57822" lon="3.39482">
        <ele>58.252887</ele>
        <time>2021-06-11T13:43:53.973Z</time>
      </trkpt>
      <trkpt lat="50.57849" lon="3.39497">
        <ele>57.368971</ele>
        <time>2021-06-11T13:43:56.315Z</time>
      </trkpt>
      <trkpt lat="50.58256" lon="3.39525">
        <ele>43.423893</ele>
        <time>2021-06-11T13:44:28.770Z</time>
      </trkpt>
      <trkpt lat="50.58257" lon="3.39525">
        <ele>43.3572</ele>
        <time>2021-06-11T13:44:28.901Z</time>
      </trkpt>
      <trkpt lat="50.58438" lon="3.3954">
        <ele>37.547683</ele>
        <time>2021-06-11T13:44:43.578Z</time>
      </trkpt>
      <trkpt lat="50.58484" lon="3.39527">
        <ele>36.187398</ele>
        <time>2021-06-11T13:44:47.453Z</time>
      </trkpt>
      <trkpt lat="50.58533" lon="3.39506">
        <ele>34.824245</ele>
        <time>2021-06-11T13:44:51.715Z</time>
      </trkpt>
      <trkpt lat="50.58668" lon="3.3946">
        <ele>31.335222</ele>
        <time>2021-06-11T13:45:03.307Z</time>
      </trkpt>
      <trkpt lat="50.58887" lon="3.39326">
        <ele>27.432117</ele>
        <time>2021-06-11T13:45:24.098Z</time>
      </trkpt>
      <trkpt lat="50.58904" lon="3.39309">
        <ele>27.240513</ele>
        <time>2021-06-11T13:45:26.079Z</time>
      </trkpt>
      <trkpt lat="50.58909" lon="3.39304">
        <ele>27.183488</ele>
        <time>2021-06-11T13:45:26.610Z</time>
      </trkpt>
      <trkpt lat="50.59092" lon="3.39122">
        <ele>27.616061</ele>
        <time>2021-06-11T13:45:54.536Z</time>
      </trkpt>
      <trkpt lat="50.59211" lon="3.3904">
        <ele>30.275596</ele>
        <time>2021-06-11T13:46:18.874Z</time>
      </trkpt>
      <trkpt lat="50.59236" lon="3.39024">
        <ele>30.944007</ele>
        <time>2021-06-11T13:46:24.594Z</time>
      </trkpt>
      <trkpt lat="50.59362" lon="3.38944">
        <ele>34.564952</ele>
        <time>2021-06-11T13:46:54.117Z</time>
      </trkpt>
      <trkpt lat="50.59389" lon="3.38926">
        <ele>35.384089</ele>
        <time>2021-06-11T13:47:00.233Z</time>
      </trkpt>
      <trkpt lat="50.59405" lon="3.38917">
        <ele>35.8461</ele>
        <time>2021-06-11T13:47:03.622Z</time>
      </trkpt>
      <trkpt lat="50.59418" lon="3.38902">
        <ele>36.307747</ele>
        <time>2021-06-11T13:47:06.928Z</time>
      </trkpt>
      <trkpt lat="50.59451" lon="3.38861">
        <ele>37.444411</ele>
        <time>2021-06-11T13:47:15.199Z</time>
      </trkpt>
      <trkpt lat="50.5948" lon="3.38826">
        <ele>38.295476</ele>
        <time>2021-06-11T13:47:22.237Z</time>
      </trkpt>
      <trkpt lat="50.59491" lon="3.38813">
        <ele>38.615134</ele>
        <time>2021-06-11T13:47:24.952Z</time>
      </trkpt>
      <trkpt lat="50.595" lon="3.38801">
        <ele>38.887323</ele>
        <time>2021-06-11T13:47:27.234Z</time>
      </trkpt>
      <trkpt lat="50.5951" lon="3.38787">
        <ele>39.200577</ele>
        <time>2021-06-11T13:47:29.744Z</time>
      </trkpt>
      <trkpt lat="50.59572" lon="3.38708">
        <ele>41.049101</ele>
        <time>2021-06-11T13:47:44.866Z</time>
      </trkpt>
      <trkpt lat="50.5959" lon="3.38745">
        <ele>41.736254</ele>
        <time>2021-06-11T13:47:50.778Z</time>
      </trkpt>
      <trkpt lat="50.59592" lon="3.38749">
        <ele>41.806194</ele>
        <time>2021-06-11T13:47:51.358Z</time>
      </trkpt>
      <trkpt lat="50.59606" lon="3.38777">
        <ele>42.318277</ele>
        <time>2021-06-11T13:47:56.028Z</time>
      </trkpt>
      <trkpt lat="50.59629" lon="3.38815">
        <ele>43.066798</ele>
        <time>2021-06-11T13:48:02.617Z</time>
      </trkpt>
      <trkpt lat="50.5965" lon="3.38829">
        <ele>43.579361</ele>
        <time>2021-06-11T13:48:06.959Z</time>
      </trkpt>
      <trkpt lat="50.59665" lon="3.38831">
        <ele>43.905571</ele>
        <time>2021-06-11T13:48:10.039Z</time>
      </trkpt>
      <trkpt lat="50.59678" lon="3.38833">
        <ele>44.197808</ele>
        <time>2021-06-11T13:48:12.392Z</time>
      </trkpt>
      <trkpt lat="50.59773" lon="3.38818">
        <ele>45.779341</ele>
        <time>2021-06-11T13:48:29.868Z</time>
      </trkpt>
      <trkpt lat="50.59819" lon="3.38813">
        <ele>46.142087</ele>
        <time>2021-06-11T13:48:37.231Z</time>
      </trkpt>
      <trkpt lat="50.59892" lon="3.38804">
        <ele>46.708398</ele>
        <time>2021-06-11T13:48:46.318Z</time>
      </trkpt>
      <trkpt lat="50.59902" lon="3.38803">
        <ele>46.784641</ele>
        <time>2021-06-11T13:48:47.512Z</time>
      </trkpt>
      <trkpt lat="50.59911" lon="3.38802">
        <ele>46.85287</ele>
        <time>2021-06-11T13:48:48.407Z</time>
      </trkpt>
      <trkpt lat="50.60002" lon="3.38794">
        <ele>46.35998</ele>
        <time>2021-06-11T13:48:58.240Z</time>
      </trkpt>
      <trkpt lat="50.6002" lon="3.38792">
        <ele>46.254024</ele>
        <time>2021-06-11T13:49:00.033Z</time>
      </trkpt>
      <trkpt lat="50.60027" lon="3.38791">
        <ele>46.209997</ele>
        <time>2021-06-11T13:49:00.755Z</time>
      </trkpt>
      <trkpt lat="50.60033" lon="3.38791">
        <ele>46.177179</ele>
        <time>2021-06-11T13:49:01.301Z</time>
      </trkpt>
      <trkpt lat="50.60037" lon="3.38777">
        <ele>46.116885</ele>
        <time>2021-06-11T13:49:02.418Z</time>
      </trkpt>
      <trkpt lat="50.6004" lon="3.38768">
        <ele>46.079545</ele>
        <time>2021-06-11T13:49:03.058Z</time>
      </trkpt>
      <trkpt lat="50.60084" lon="3.38642">
        <ele>45.341641</ele>
        <time>2021-06-11T13:49:12.099Z</time>
      </trkpt>
      <trkpt lat="50.60085" lon="3.38639">
        <ele>45.321505</ele>
        <time>2021-06-11T13:49:12.357Z</time>
      </trkpt>
      <trkpt lat="50.6009" lon="3.38623">
        <ele>45.205022</ele>
        <time>2021-06-11T13:49:13.543Z</time>
      </trkpt>
      <trkpt lat="50.60096" lon="3.38609">
        <ele>45.102772</ele>
        <time>2021-06-11T13:49:14.545Z</time>
      </trkpt>
      <trkpt lat="50.60097" lon="3.38607">
        <ele>45.084086</ele>
        <time>2021-06-11T13:49:14.711Z</time>
      </trkpt>
      <trkpt lat="50.6011" lon="3.38583">
        <ele>44.87855</ele>
        <time>2021-06-11T13:49:16.720Z</time>
      </trkpt>
      <trkpt lat="50.60145" lon="3.38534">
        <ele>44.406403</ele>
        <time>2021-06-11T13:49:21.441Z</time>
      </trkpt>
      <trkpt lat="50.6016" lon="3.38516">
        <ele>44.21818</ele>
        <time>2021-06-11T13:49:23.184Z</time>
      </trkpt>
      <trkpt lat="50.60193" lon="3.38489">
        <ele>43.684766</ele>
        <time>2021-06-11T13:49:26.679Z</time>
      </trkpt>
      <trkpt lat="50.60236" lon="3.38453">
        <ele>42.675428</ele>
        <time>2021-06-11T13:49:31.068Z</time>
      </trkpt>
      <trkpt lat="50.60255" lon="3.38436">
        <ele>42.221181</ele>
        <time>2021-06-11T13:49:32.996Z</time>
      </trkpt>
      <trkpt lat="50.60269" lon="3.38421">
        <ele>41.865468</ele>
        <time>2021-06-11T13:49:34.505Z</time>
      </trkpt>
      <trkpt lat="50.6028" lon="3.38408">
        <ele>41.582958</ele>
        <time>2021-06-11T13:49:35.659Z</time>
      </trkpt>
      <trkpt lat="50.6032" lon="3.38365">
        <ele>40.590603</ele>
        <time>2021-06-11T13:49:39.749Z</time>
      </trkpt>
      <trkpt lat="50.60353" lon="3.3833">
        <ele>39.658193</ele>
        <time>2021-06-11T13:49:43.070Z</time>
      </trkpt>
      <trkpt lat="50.60398" lon="3.38283">
        <ele>38.284944</ele>
        <time>2021-06-11T13:49:47.570Z</time>
      </trkpt>
      <trkpt lat="50.60451" lon="3.3822">
        <ele>36.587386</ele>
        <time>2021-06-11T13:49:53.157Z</time>
      </trkpt>
      <trkpt lat="50.60482" lon="3.38189">
        <ele>35.679094</ele>
        <time>2021-06-11T13:49:56.274Z</time>
      </trkpt>
      <trkpt lat="50.60528" lon="3.38141">
        <ele>34.894312</ele>
        <time>2021-06-11T13:50:01.147Z</time>
      </trkpt>
      <trkpt lat="50.60547" lon="3.38121">
        <ele>34.56637</ele>
        <time>2021-06-11T13:50:03.218Z</time>
      </trkpt>
      <trkpt lat="50.60602" lon="3.38064">
        <ele>33.621362</ele>
        <time>2021-06-11T13:50:09.577Z</time>
      </trkpt>
      <trkpt lat="50.60618" lon="3.38046">
        <ele>33.337849</ele>
        <time>2021-06-11T13:50:11.656Z</time>
      </trkpt>
      <trkpt lat="50.60621" lon="3.38044">
        <ele>33.292746</ele>
        <time>2021-06-11T13:50:11.959Z</time>
      </trkpt>
      <trkpt lat="50.60642" lon="3.38023">
        <ele>33.009176</ele>
        <time>2021-06-11T13:50:14.492Z</time>
      </trkpt>
      <trkpt lat="50.60664" lon="3.38003">
        <ele>32.781677</ele>
        <time>2021-06-11T13:50:17.073Z</time>
      </trkpt>
      <trkpt lat="50.60726" lon="3.37947">
        <ele>32.131682</ele>
        <time>2021-06-11T13:50:24.516Z</time>
      </trkpt>
      <trkpt lat="50.60808" lon="3.37873">
        <ele>31.013786</ele>
        <time>2021-06-11T13:50:33.562Z</time>
      </trkpt>
      <trkpt lat="50.60824" lon="3.37858">
        <ele>30.646114</ele>
        <time>2021-06-11T13:50:35.282Z</time>
      </trkpt>
      <trkpt lat="50.60887" lon="3.37799">
        <ele>29.195225</ele>
        <time>2021-06-11T13:50:41.667Z</time>
      </trkpt>
      <trkpt lat="50.60953" lon="3.37754">
        <ele>27.724305</ele>
        <time>2021-06-11T13:50:47.840Z</time>
      </trkpt>
      <trkpt lat="50.60966" lon="3.37749">
        <ele>27.378781</ele>
        <time>2021-06-11T13:50:48.998Z</time>
      </trkpt>
      <trkpt lat="50.60972" lon="3.37748">
        <ele>27.225657</ele>
        <time>2021-06-11T13:50:49.530Z</time>
      </trkpt>
      <trkpt lat="50.60976" lon="3.37746">
        <ele>27.129694</ele>
        <time>2021-06-11T13:50:49.820Z</time>
      </trkpt>
      <trkpt lat="50.61009" lon="3.37742">
        <ele>26.295201</ele>
        <time>2021-06-11T13:50:52.668Z</time>
      </trkpt>
      <trkpt lat="50.61026" lon="3.37746">
        <ele>25.877338</ele>
        <time>2021-06-11T13:50:54.080Z</time>
      </trkpt>
      <trkpt lat="50.61103" lon="3.37792">
        <ele>23.791362</ele>
        <time>2021-06-11T13:51:01.021Z</time>
      </trkpt>
      <trkpt lat="50.61149" lon="3.37823">
        <ele>22.706898</ele>
        <time>2021-06-11T13:51:05.268Z</time>
      </trkpt>
      <trkpt lat="50.61156" lon="3.37827">
        <ele>22.566921</ele>
        <time>2021-06-11T13:51:05.875Z</time>
      </trkpt>
      <trkpt lat="50.61252" lon="3.37892">
        <ele>20.422852</ele>
        <time>2021-06-11T13:51:15.061Z</time>
      </trkpt>
      <trkpt lat="50.61258" lon="3.37896">
        <ele>20.289445</ele>
        <time>2021-06-11T13:51:15.658Z</time>
      </trkpt>
      <trkpt lat="50.61261" lon="3.37897">
        <ele>20.235768</ele>
        <time>2021-06-11T13:51:15.891Z</time>
      </trkpt>
      <trkpt lat="50.61264" lon="3.37901">
        <ele>20.152209</ele>
        <time>2021-06-11T13:51:16.259Z</time>
      </trkpt>
      <trkpt lat="50.61266" lon="3.37906">
        <ele>20.070158</ele>
        <time>2021-06-11T13:51:16.626Z</time>
      </trkpt>
      <trkpt lat="50.61268" lon="3.37912">
        <ele>19.993647</ele>
        <time>2021-06-11T13:51:16.960Z</time>
      </trkpt>
      <trkpt lat="50.61268" lon="3.37914">
        <ele>19.956615</ele>
        <time>2021-06-11T13:51:17.123Z</time>
      </trkpt>
      <trkpt lat="50.61271" lon="3.37922">
        <ele>19.843885</ele>
        <time>2021-06-11T13:51:17.626Z</time>
      </trkpt>
      <trkpt lat="50.61275" lon="3.37926">
        <ele>19.752934</ele>
        <time>2021-06-11T13:51:18.025Z</time>
      </trkpt>
      <trkpt lat="50.61279" lon="3.37929">
        <ele>19.708591</ele>
        <time>2021-06-11T13:51:18.446Z</time>
      </trkpt>
      <trkpt lat="50.61284" lon="3.3793">
        <ele>19.664624</ele>
        <time>2021-06-11T13:51:18.894Z</time>
      </trkpt>
      <trkpt lat="50.6129" lon="3.37929">
        <ele>19.61148</ele>
        <time>2021-06-11T13:51:19.413Z</time>
      </trkpt>
      <trkpt lat="50.61299" lon="3.3792">
        <ele>19.50618</ele>
        <time>2021-06-11T13:51:20.458Z</time>
      </trkpt>
      <trkpt lat="50.61302" lon="3.37912">
        <ele>19.452602</ele>
        <time>2021-06-11T13:51:20.992Z</time>
      </trkpt>
      <trkpt lat="50.61303" lon="3.37903">
        <ele>19.397955</ele>
        <time>2021-06-11T13:51:21.507Z</time>
      </trkpt>
      <trkpt lat="50.61303" lon="3.37894">
        <ele>19.342704</ele>
        <time>2021-06-11T13:51:22.082Z</time>
      </trkpt>
      <trkpt lat="50.6131" lon="3.37877">
        <ele>19.216751</ele>
        <time>2021-06-11T13:51:23.389Z</time>
      </trkpt>
      <trkpt lat="50.61313" lon="3.3787">
        <ele>19.169742</ele>
        <time>2021-06-11T13:51:23.865Z</time>
      </trkpt>
      <trkpt lat="50.61317" lon="3.37878">
        <ele>19.107151</ele>
        <time>2021-06-11T13:51:24.517Z</time>
      </trkpt>
      <trkpt lat="50.61321" lon="3.37878">
        <ele>19.068448</ele>
        <time>2021-06-11T13:51:24.883Z</time>
      </trkpt>
      <trkpt lat="50.61362" lon="3.37817">
        <ele>18.53881</ele>
        <time>2021-06-11T13:51:30.656Z</time>
      </trkpt>
      <trkpt lat="50.61482" lon="3.37643">
        <ele>17.61919</ele>
        <time>2021-06-11T13:51:47.974Z</time>
      </trkpt>
      <trkpt lat="50.61487" lon="3.37637">
        <ele>17.593859</ele>
        <time>2021-06-11T13:51:48.599Z</time>
      </trkpt>
      <trkpt lat="50.61502" lon="3.37618">
        <ele>17.516788</ele>
        <time>2021-06-11T13:51:50.920Z</time>
      </trkpt>
      <trkpt lat="50.61536" lon="3.37569">
        <ele>17.35012</ele>
        <time>2021-06-11T13:51:56.116Z</time>
      </trkpt>
      <trkpt lat="50.6154" lon="3.37564">
        <ele>17.346163</ele>
        <time>2021-06-11T13:51:56.682Z</time>
      </trkpt>
      <trkpt lat="50.61733" lon="3.37346">
        <ele>17.139722</ele>
        <time>2021-06-11T13:52:24.685Z</time>
      </trkpt>
      <trkpt lat="50.61737" lon="3.37342">
        <ele>17.133288</ele>
        <time>2021-06-11T13:52:25.380Z</time>
      </trkpt>
      <trkpt lat="50.61739" lon="3.3734">
        <ele>17.13027</ele>
        <time>2021-06-11T13:52:25.567Z</time>
      </trkpt>
      <trkpt lat="50.61863" lon="3.37201">
        <ele>16.872282</ele>
        <time>2021-06-11T13:52:42.781Z</time>
      </trkpt>
      <trkpt lat="50.61865" lon="3.37199">
        <ele>16.866337</ele>
        <time>2021-06-11T13:52:43.001Z</time>
      </trkpt>
      <trkpt lat="50.61895" lon="3.37169">
        <ele>16.777031</ele>
        <time>2021-06-11T13:52:47.069Z</time>
      </trkpt>
      <trkpt lat="50.61981" lon="3.37066">
        <ele>16.507593</ele>
        <time>2021-06-11T13:52:58.902Z</time>
      </trkpt>
      <trkpt lat="50.62017" lon="3.37031">
        <ele>16.404439</ele>
        <time>2021-06-11T13:53:03.876Z</time>
      </trkpt>
      <trkpt lat="50.62027" lon="3.37025">
        <ele>16.376984</ele>
        <time>2021-06-11T13:53:05.073Z</time>
      </trkpt>
      <trkpt lat="50.62033" lon="3.37022">
        <ele>16.363714</ele>
        <time>2021-06-11T13:53:05.615Z</time>
      </trkpt>
      <trkpt lat="50.62054" lon="3.37009">
        <ele>16.307069</ele>
        <time>2021-06-11T13:53:08.374Z</time>
      </trkpt>
      <trkpt lat="50.62064" lon="3.37007">
        <ele>16.282629</ele>
        <time>2021-06-11T13:53:09.416Z</time>
      </trkpt>
      <trkpt lat="50.62084" lon="3.36979">
        <ele>16.218662</ele>
        <time>2021-06-11T13:53:13.553Z</time>
      </trkpt>
      <trkpt lat="50.62075" lon="3.36965">
        <ele>16.188344</ele>
        <time>2021-06-11T13:53:14.817Z</time>
      </trkpt>
      <trkpt lat="50.62072" lon="3.36958">
        <ele>16.175374</ele>
        <time>2021-06-11T13:53:15.570Z</time>
      </trkpt>
      <trkpt lat="50.62052" lon="3.36915">
        <ele>16.10459</ele>
        <time>2021-06-11T13:53:19.289Z</time>
      </trkpt>
      <trkpt lat="50.62064" lon="3.36907">
        <ele>16.14148</ele>
        <time>2021-06-11T13:53:20.888Z</time>
      </trkpt>
      <trkpt lat="50.62067" lon="3.36905">
        <ele>16.148159</ele>
        <time>2021-06-11T13:53:21.170Z</time>
      </trkpt>
      <trkpt lat="50.62069" lon="3.36904">
        <ele>16.155341</ele>
        <time>2021-06-11T13:53:21.461Z</time>
      </trkpt>
      <trkpt lat="50.62075" lon="3.36903">
        <ele>16.169974</ele>
        <time>2021-06-11T13:53:22.012Z</time>
      </trkpt>
      <trkpt lat="50.62109" lon="3.36899">
        <ele>16.262007</ele>
        <time>2021-06-11T13:53:25.941Z</time>
      </trkpt>
      <trkpt lat="50.62171" lon="3.36825">
        <ele>16.470479</ele>
        <time>2021-06-11T13:53:36.146Z</time>
      </trkpt>
      <trkpt lat="50.62228" lon="3.36766">
        <ele>16.780213</ele>
        <time>2021-06-11T13:53:45.677Z</time>
      </trkpt>
      <trkpt lat="50.62284" lon="3.36709">
        <ele>17.274921</ele>
        <time>2021-06-11T13:53:55.351Z</time>
      </trkpt>
      <trkpt lat="50.62279" lon="3.3668">
        <ele>17.418666</ele>
        <time>2021-06-11T13:53:58.384Z</time>
      </trkpt>
      <trkpt lat="50.62276" lon="3.3665">
        <ele>17.56094</ele>
        <time>2021-06-11T13:54:01.116Z</time>
      </trkpt>
      <trkpt lat="50.62279" lon="3.36621">
        <ele>17.697669</ele>
        <time>2021-06-11T13:54:03.976Z</time>
      </trkpt>
      <trkpt lat="50.62361" lon="3.36415">
        <ele>18.577821</ele>
        <time>2021-06-11T13:54:24.668Z</time>
      </trkpt>
      <trkpt lat="50.62368" lon="3.36327">
        <ele>18.877927</ele>
        <time>2021-06-11T13:54:32.259Z</time>
      </trkpt>
      <trkpt lat="50.6237" lon="3.36261">
        <ele>19.163642</ele>
        <time>2021-06-11T13:54:38.142Z</time>
      </trkpt>
      <trkpt lat="50.62375" lon="3.36152">
        <ele>19.635897</ele>
        <time>2021-06-11T13:54:47.871Z</time>
      </trkpt>
      <trkpt lat="50.62381" lon="3.36091">
        <ele>19.90255</ele>
        <time>2021-06-11T13:54:53.274Z</time>
      </trkpt>
      <trkpt lat="50.62381" lon="3.3602">
        <ele>20.19731</ele>
        <time>2021-06-11T13:54:59.796Z</time>
      </trkpt>
      <trkpt lat="50.62375" lon="3.35975">
        <ele>20.366285</ele>
        <time>2021-06-11T13:55:04.137Z</time>
      </trkpt>
      <trkpt lat="50.62372" lon="3.35956">
        <ele>20.439655</ele>
        <time>2021-06-11T13:55:05.973Z</time>
      </trkpt>
      <trkpt lat="50.62359" lon="3.35879">
        <ele>20.738872</ele>
        <time>2021-06-11T13:55:13.264Z</time>
      </trkpt>
      <trkpt lat="50.6236" lon="3.3584">
        <ele>20.885179</ele>
        <time>2021-06-11T13:55:16.551Z</time>
      </trkpt>
      <trkpt lat="50.6237" lon="3.35803">
        <ele>21.037414</ele>
        <time>2021-06-11T13:55:19.855Z</time>
      </trkpt>
      <trkpt lat="50.6238" lon="3.35769">
        <ele>21.164018</ele>
        <time>2021-06-11T13:55:22.853Z</time>
      </trkpt>
      <trkpt lat="50.62351" lon="3.35721">
        <ele>21.243762</ele>
        <time>2021-06-11T13:55:27.932Z</time>
      </trkpt>
      <trkpt lat="50.62327" lon="3.35674">
        <ele>21.317159</ele>
        <time>2021-06-11T13:55:32.661Z</time>
      </trkpt>
      <trkpt lat="50.62305" lon="3.35604">
        <ele>21.41101</ele>
        <time>2021-06-11T13:55:38.869Z</time>
      </trkpt>
      <trkpt lat="50.62279" lon="3.35537">
        <ele>21.507946</ele>
        <time>2021-06-11T13:55:45.112Z</time>
      </trkpt>
      <trkpt lat="50.6226" lon="3.3549">
        <ele>21.593402</ele>
        <time>2021-06-11T13:55:51.167Z</time>
      </trkpt>
      <trkpt lat="50.62218" lon="3.354">
        <ele>21.765464</ele>
        <time>2021-06-11T13:56:03.112Z</time>
      </trkpt>
      <trkpt lat="50.62171" lon="3.35318">
        <ele>21.935085</ele>
        <time>2021-06-11T13:56:14.820Z</time>
      </trkpt>
      <trkpt lat="50.6217" lon="3.35317">
        <ele>21.941374</ele>
        <time>2021-06-11T13:56:15.340Z</time>
      </trkpt>
      <trkpt lat="50.62165" lon="3.35317">
        <ele>21.967033</ele>
        <time>2021-06-11T13:56:16.181Z</time>
      </trkpt>
      <trkpt lat="50.62159" lon="3.35325">
        <ele>22.010398</ele>
        <time>2021-06-11T13:56:17.584Z</time>
      </trkpt>
      <trkpt lat="50.62162" lon="3.35294">
        <ele>22.115953</ele>
        <time>2021-06-11T13:56:20.959Z</time>
      </trkpt>
      <trkpt lat="50.62171" lon="3.35239">
        <ele>22.308824</ele>
        <time>2021-06-11T13:56:27.486Z</time>
      </trkpt>
      <trkpt lat="50.62181" lon="3.35196">
        <ele>22.463039</ele>
        <time>2021-06-11T13:56:32.760Z</time>
      </trkpt>
      <trkpt lat="50.62208" lon="3.3512">
        <ele>22.757677</ele>
        <time>2021-06-11T13:56:43.140Z</time>
      </trkpt>
      <trkpt lat="50.6221" lon="3.35085">
        <ele>22.878868</ele>
        <time>2021-06-11T13:56:47.150Z</time>
      </trkpt>
      <trkpt lat="50.62202" lon="3.35057">
        <ele>22.946022</ele>
        <time>2021-06-11T13:56:50.301Z</time>
      </trkpt>
      <trkpt lat="50.62149" lon="3.34973">
        <ele>23.183956</ele>
        <time>2021-06-11T13:57:03.213Z</time>
      </trkpt>
      <trkpt lat="50.62144" lon="3.34965">
        <ele>23.20552</ele>
        <time>2021-06-11T13:57:04.634Z</time>
      </trkpt>
      <trkpt lat="50.62167" lon="3.34926">
        <ele>23.312251</ele>
        <time>2021-06-11T13:57:08.950Z</time>
      </trkpt>
      <trkpt lat="50.62214" lon="3.34848">
        <ele>23.394857</ele>
        <time>2021-06-11T13:57:17.797Z</time>
      </trkpt>
      <trkpt lat="50.62231" lon="3.34818">
        <ele>23.305649</ele>
        <time>2021-06-11T13:57:20.546Z</time>
      </trkpt>
      <trkpt lat="50.62274" lon="3.34744">
        <ele>23.081083</ele>
        <time>2021-06-11T13:57:27.210Z</time>
      </trkpt>
      <trkpt lat="50.6228" lon="3.34734">
        <ele>23.049504</ele>
        <time>2021-06-11T13:57:28.188Z</time>
      </trkpt>
      <trkpt lat="50.62288" lon="3.34721">
        <ele>23.010306</ele>
        <time>2021-06-11T13:57:29.357Z</time>
      </trkpt>
      <trkpt lat="50.62293" lon="3.3471">
        <ele>22.979024</ele>
        <time>2021-06-11T13:57:30.302Z</time>
      </trkpt>
      <trkpt lat="50.62315" lon="3.34673">
        <ele>22.865267</ele>
        <time>2021-06-11T13:57:33.739Z</time>
      </trkpt>
      <trkpt lat="50.62321" lon="3.34662">
        <ele>22.834824</ele>
        <time>2021-06-11T13:57:34.543Z</time>
      </trkpt>
      <trkpt lat="50.62372" lon="3.34579">
        <ele>22.455167</ele>
        <time>2021-06-11T13:57:42.539Z</time>
      </trkpt>
      <trkpt lat="50.62386" lon="3.34559">
        <ele>22.354738</ele>
        <time>2021-06-11T13:57:44.613Z</time>
      </trkpt>
      <trkpt lat="50.62399" lon="3.34537">
        <ele>22.257735</ele>
        <time>2021-06-11T13:57:46.484Z</time>
      </trkpt>
      <trkpt lat="50.62404" lon="3.3453">
        <ele>22.224804</ele>
        <time>2021-06-11T13:57:47.122Z</time>
      </trkpt>
      <trkpt lat="50.62444" lon="3.34458">
        <ele>21.908364</ele>
        <time>2021-06-11T13:57:53.448Z</time>
      </trkpt>
      <trkpt lat="50.62445" lon="3.34454">
        <ele>21.897048</ele>
        <time>2021-06-11T13:57:53.817Z</time>
      </trkpt>
      <trkpt lat="50.62449" lon="3.34448">
        <ele>21.899219</ele>
        <time>2021-06-11T13:57:54.435Z</time>
      </trkpt>
      <trkpt lat="50.62457" lon="3.34431">
        <ele>21.904614</ele>
        <time>2021-06-11T13:57:55.842Z</time>
      </trkpt>
      <trkpt lat="50.62478" lon="3.3438">
        <ele>21.920072</ele>
        <time>2021-06-11T13:58:00.321Z</time>
      </trkpt>
      <trkpt lat="50.62482" lon="3.34361">
        <ele>21.925048</ele>
        <time>2021-06-11T13:58:01.867Z</time>
      </trkpt>
      <trkpt lat="50.62491" lon="3.3434">
        <ele>21.931558</ele>
        <time>2021-06-11T13:58:03.932Z</time>
      </trkpt>
      <trkpt lat="50.62585" lon="3.34109">
        <ele>22.570225</ele>
        <time>2021-06-11T13:58:26.094Z</time>
      </trkpt>
      <trkpt lat="50.62719" lon="3.33662">
        <ele>25.817736</ele>
        <time>2021-06-11T13:59:14.545Z</time>
      </trkpt>
      <trkpt lat="50.62733" lon="3.3361">
        <ele>26.28739</ele>
        <time>2021-06-11T13:59:20.621Z</time>
      </trkpt>
      <trkpt lat="50.6274" lon="3.33583">
        <ele>26.531581</ele>
        <time>2021-06-11T13:59:23.896Z</time>
      </trkpt>
      <trkpt lat="50.62751" lon="3.33496">
        <ele>27.271333</ele>
        <time>2021-06-11T13:59:33.339Z</time>
      </trkpt>
      <trkpt lat="50.62765" lon="3.33105">
        <ele>29.046448</ele>
        <time>2021-06-11T14:00:09.860Z</time>
      </trkpt>
      <trkpt lat="50.62768" lon="3.33081">
        <ele>28.97364</ele>
        <time>2021-06-11T14:00:11.524Z</time>
      </trkpt>
      <trkpt lat="50.62771" lon="3.33057">
        <ele>28.900247</ele>
        <time>2021-06-11T14:00:13.166Z</time>
      </trkpt>
      <trkpt lat="50.62786" lon="3.32924">
        <ele>28.498461</ele>
        <time>2021-06-11T14:00:21.830Z</time>
      </trkpt>
      <trkpt lat="50.62786" lon="3.32918">
        <ele>28.480948</ele>
        <time>2021-06-11T14:00:22.157Z</time>
      </trkpt>
      <trkpt lat="50.62793" lon="3.32835">
        <ele>27.974432</ele>
        <time>2021-06-11T14:00:27.203Z</time>
      </trkpt>
      <trkpt lat="50.62802" lon="3.32741">
        <ele>27.128455</ele>
        <time>2021-06-11T14:00:32.827Z</time>
      </trkpt>
      <trkpt lat="50.62827" lon="3.3256">
        <ele>25.567279</ele>
        <time>2021-06-11T14:00:43.652Z</time>
      </trkpt>
      <trkpt lat="50.62844" lon="3.3248">
        <ele>24.995583</ele>
        <time>2021-06-11T14:00:48.797Z</time>
      </trkpt>
      <trkpt lat="50.62858" lon="3.32402">
        <ele>24.453265</ele>
        <time>2021-06-11T14:00:53.673Z</time>
      </trkpt>
      <trkpt lat="50.62894" lon="3.32192">
        <ele>23.843477</ele>
        <time>2021-06-11T14:01:08.527Z</time>
      </trkpt>
      <trkpt lat="50.62895" lon="3.32188">
        <ele>23.841219</ele>
        <time>2021-06-11T14:01:08.771Z</time>
      </trkpt>
      <trkpt lat="50.62905" lon="3.32157">
        <ele>23.820158</ele>
        <time>2021-06-11T14:01:11.489Z</time>
      </trkpt>
      <trkpt lat="50.62914" lon="3.32129">
        <ele>23.8011</ele>
        <time>2021-06-11T14:01:13.980Z</time>
      </trkpt>
      <trkpt lat="50.62914" lon="3.32127">
        <ele>23.799606</ele>
        <time>2021-06-11T14:01:14.192Z</time>
      </trkpt>
      <trkpt lat="50.62915" lon="3.32126">
        <ele>23.798523</ele>
        <time>2021-06-11T14:01:14.350Z</time>
      </trkpt>
      <trkpt lat="50.62923" lon="3.32098">
        <ele>23.780071</ele>
        <time>2021-06-11T14:01:16.710Z</time>
      </trkpt>
      <trkpt lat="50.62943" lon="3.32035">
        <ele>23.867357</ele>
        <time>2021-06-11T14:01:22.551Z</time>
      </trkpt>
      <trkpt lat="50.62962" lon="3.31982">
        <ele>24.080436</ele>
        <time>2021-06-11T14:01:27.858Z</time>
      </trkpt>
      <trkpt lat="50.63049" lon="3.31726">
        <ele>25.613421</ele>
        <time>2021-06-11T14:01:53.316Z</time>
      </trkpt>
      <trkpt lat="50.63132" lon="3.31484">
        <ele>28.522917</ele>
        <time>2021-06-11T14:02:23.995Z</time>
      </trkpt>
      <trkpt lat="50.63134" lon="3.31476">
        <ele>28.643974</ele>
        <time>2021-06-11T14:02:25.397Z</time>
      </trkpt>
      <trkpt lat="50.63172" lon="3.31365">
        <ele>30.452031</ele>
        <time>2021-06-11T14:02:41.602Z</time>
      </trkpt>
      <trkpt lat="50.63221" lon="3.31212">
        <ele>32.181734</ele>
        <time>2021-06-11T14:03:02.097Z</time>
      </trkpt>
      <trkpt lat="50.63245" lon="3.31126">
        <ele>32.923984</ele>
        <time>2021-06-11T14:03:11.377Z</time>
      </trkpt>
      <trkpt lat="50.6325" lon="3.31109">
        <ele>33.073407</ele>
        <time>2021-06-11T14:03:13.154Z</time>
      </trkpt>
      <trkpt lat="50.63253" lon="3.31097">
        <ele>33.175954</ele>
        <time>2021-06-11T14:03:14.164Z</time>
      </trkpt>
      <trkpt lat="50.63262" lon="3.31061">
        <ele>33.483936</ele>
        <time>2021-06-11T14:03:17.428Z</time>
      </trkpt>
      <trkpt lat="50.63288" lon="3.30957">
        <ele>32.868567</ele>
        <time>2021-06-11T14:03:24.908Z</time>
      </trkpt>
      <trkpt lat="50.6329" lon="3.30952">
        <ele>32.833889</ele>
        <time>2021-06-11T14:03:25.245Z</time>
      </trkpt>
      <trkpt lat="50.63319" lon="3.30826">
        <ele>31.993692</ele>
        <time>2021-06-11T14:03:33.277Z</time>
      </trkpt>
      <trkpt lat="50.63334" lon="3.30763">
        <ele>31.376536</ele>
        <time>2021-06-11T14:03:37.103Z</time>
      </trkpt>
      <trkpt lat="50.63381" lon="3.30602">
        <ele>29.101151</ele>
        <time>2021-06-11T14:03:46.950Z</time>
      </trkpt>
      <trkpt lat="50.63407" lon="3.30525">
        <ele>27.97042</ele>
        <time>2021-06-11T14:03:51.786Z</time>
      </trkpt>
      <trkpt lat="50.63433" lon="3.3046">
        <ele>26.900171</ele>
        <time>2021-06-11T14:03:55.962Z</time>
      </trkpt>
      <trkpt lat="50.63498" lon="3.30324">
        <ele>24.526378</ele>
        <time>2021-06-11T14:04:05.189Z</time>
      </trkpt>
      <trkpt lat="50.63509" lon="3.30299">
        <ele>24.14022</ele>
        <time>2021-06-11T14:04:06.858Z</time>
      </trkpt>
      <trkpt lat="50.63527" lon="3.30268">
        <ele>23.933488</ele>
        <time>2021-06-11T14:04:09.311Z</time>
      </trkpt>
      <trkpt lat="50.63579" lon="3.30178">
        <ele>23.326586</ele>
        <time>2021-06-11T14:04:16.838Z</time>
      </trkpt>
      <trkpt lat="50.63584" lon="3.3017">
        <ele>23.273754</ele>
        <time>2021-06-11T14:04:17.537Z</time>
      </trkpt>
      <trkpt lat="50.63589" lon="3.30162">
        <ele>23.22146</ele>
        <time>2021-06-11T14:04:18.438Z</time>
      </trkpt>
      <trkpt lat="50.63784" lon="3.29825">
        <ele>22.794495</ele>
        <time>2021-06-11T14:04:55.145Z</time>
      </trkpt>
      <trkpt lat="50.63786" lon="3.29821">
        <ele>22.772179</ele>
        <time>2021-06-11T14:04:55.598Z</time>
      </trkpt>
      <trkpt lat="50.63789" lon="3.29816">
        <ele>22.744101</ele>
        <time>2021-06-11T14:04:56.031Z</time>
      </trkpt>
      <trkpt lat="50.63812" lon="3.29774">
        <ele>22.506037</ele>
        <time>2021-06-11T14:04:59.421Z</time>
      </trkpt>
      <trkpt lat="50.63835" lon="3.29733">
        <ele>22.270915</ele>
        <time>2021-06-11T14:05:02.749Z</time>
      </trkpt>
      <trkpt lat="50.63912" lon="3.29602">
        <ele>21.808962</ele>
        <time>2021-06-11T14:05:13.621Z</time>
      </trkpt>
      <trkpt lat="50.63944" lon="3.29547">
        <ele>21.721896</ele>
        <time>2021-06-11T14:05:18.714Z</time>
      </trkpt>
      <trkpt lat="50.63945" lon="3.29544">
        <ele>21.717641</ele>
        <time>2021-06-11T14:05:19.002Z</time>
      </trkpt>
      <trkpt lat="50.64011" lon="3.29432">
        <ele>21.977169</ele>
        <time>2021-06-11T14:05:32.602Z</time>
      </trkpt>
      <trkpt lat="50.64043" lon="3.29374">
        <ele>22.659863</ele>
        <time>2021-06-11T14:05:40.892Z</time>
      </trkpt>
      <trkpt lat="50.64059" lon="3.29347">
        <ele>22.986195</ele>
        <time>2021-06-11T14:05:44.935Z</time>
      </trkpt>
      <trkpt lat="50.64084" lon="3.29303">
        <ele>23.510103</ele>
        <time>2021-06-11T14:05:51.503Z</time>
      </trkpt>
      <trkpt lat="50.64137" lon="3.29213">
        <ele>24.501877</ele>
        <time>2021-06-11T14:06:04.630Z</time>
      </trkpt>
      <trkpt lat="50.64149" lon="3.2919">
        <ele>24.714804</ele>
        <time>2021-06-11T14:06:07.713Z</time>
      </trkpt>
      <trkpt lat="50.64156" lon="3.29178">
        <ele>24.830464</ele>
        <time>2021-06-11T14:06:09.154Z</time>
      </trkpt>
      <trkpt lat="50.64162" lon="3.29168">
        <ele>24.9337</ele>
        <time>2021-06-11T14:06:10.599Z</time>
      </trkpt>
      <trkpt lat="50.6421" lon="3.29085">
        <ele>25.738818</ele>
        <time>2021-06-11T14:06:21.438Z</time>
      </trkpt>
      <trkpt lat="50.6422" lon="3.29067">
        <ele>25.907377</ele>
        <time>2021-06-11T14:06:23.759Z</time>
      </trkpt>
      <trkpt lat="50.64251" lon="3.29012">
        <ele>26.241954</ele>
        <time>2021-06-11T14:06:30.415Z</time>
      </trkpt>
      <trkpt lat="50.64261" lon="3.28997">
        <ele>26.297473</ele>
        <time>2021-06-11T14:06:32.365Z</time>
      </trkpt>
      <trkpt lat="50.643" lon="3.28928">
        <ele>26.531697</ele>
        <time>2021-06-11T14:06:40.035Z</time>
      </trkpt>
      <trkpt lat="50.64377" lon="3.28795">
        <ele>26.920976</ele>
        <time>2021-06-11T14:06:54.278Z</time>
      </trkpt>
      <trkpt lat="50.64379" lon="3.2879">
        <ele>26.929566</ele>
        <time>2021-06-11T14:06:54.790Z</time>
      </trkpt>
      <trkpt lat="50.64384" lon="3.28781">
        <ele>26.944559</ele>
        <time>2021-06-11T14:06:55.718Z</time>
      </trkpt>
      <trkpt lat="50.64389" lon="3.28764">
        <ele>26.968342</ele>
        <time>2021-06-11T14:06:57.128Z</time>
      </trkpt>
      <trkpt lat="50.64391" lon="3.2875">
        <ele>26.987352</ele>
        <time>2021-06-11T14:06:58.292Z</time>
      </trkpt>
      <trkpt lat="50.64391" lon="3.28748">
        <ele>26.989467</ele>
        <time>2021-06-11T14:06:58.413Z</time>
      </trkpt>
      <trkpt lat="50.64393" lon="3.28729">
        <ele>27.015203</ele>
        <time>2021-06-11T14:07:00.013Z</time>
      </trkpt>
      <trkpt lat="50.644" lon="3.2859">
        <ele>27.19615</ele>
        <time>2021-06-11T14:07:10.946Z</time>
      </trkpt>
      <trkpt lat="50.64402" lon="3.28583">
        <ele>27.205031</ele>
        <time>2021-06-11T14:07:11.515Z</time>
      </trkpt>
      <trkpt lat="50.64403" lon="3.28577">
        <ele>27.212902</ele>
        <time>2021-06-11T14:07:12.009Z</time>
      </trkpt>
      <trkpt lat="50.64406" lon="3.28562">
        <ele>27.239056</ele>
        <time>2021-06-11T14:07:13.374Z</time>
      </trkpt>
      <trkpt lat="50.64411" lon="3.28545">
        <ele>27.274218</ele>
        <time>2021-06-11T14:07:14.926Z</time>
      </trkpt>
      <trkpt lat="50.64414" lon="3.28532">
        <ele>27.299235</ele>
        <time>2021-06-11T14:07:16.049Z</time>
      </trkpt>
      <trkpt lat="50.64412" lon="3.28526">
        <ele>27.311072</ele>
        <time>2021-06-11T14:07:16.581Z</time>
      </trkpt>
      <trkpt lat="50.64401" lon="3.28519">
        <ele>27.344331</ele>
        <time>2021-06-11T14:07:18.142Z</time>
      </trkpt>
      <trkpt lat="50.64366" lon="3.28457">
        <ele>27.496827</ele>
        <time>2021-06-11T14:07:24.874Z</time>
      </trkpt>
      <trkpt lat="50.64335" lon="3.28404">
        <ele>27.629037</ele>
        <time>2021-06-11T14:07:30.746Z</time>
      </trkpt>
      <trkpt lat="50.64318" lon="3.28376">
        <ele>27.700581</ele>
        <time>2021-06-11T14:07:33.934Z</time>
      </trkpt>
      <trkpt lat="50.64316" lon="3.28373">
        <ele>27.70866</ele>
        <time>2021-06-11T14:07:34.288Z</time>
      </trkpt>
      <trkpt lat="50.64311" lon="3.28366">
        <ele>27.728774</ele>
        <time>2021-06-11T14:07:35.150Z</time>
      </trkpt>
      <trkpt lat="50.64304" lon="3.28358">
        <ele>27.749586</ele>
        <time>2021-06-11T14:07:36.253Z</time>
      </trkpt>
      <trkpt lat="50.64291" lon="3.28353">
        <ele>27.777247</ele>
        <time>2021-06-11T14:07:38.007Z</time>
      </trkpt>
      <trkpt lat="50.64267" lon="3.28347">
        <ele>27.82595</ele>
        <time>2021-06-11T14:07:41.006Z</time>
      </trkpt>
      <trkpt lat="50.64251" lon="3.28341">
        <ele>27.859828</ele>
        <time>2021-06-11T14:07:43.134Z</time>
      </trkpt>
      <trkpt lat="50.64227" lon="3.28313">
        <ele>27.920477</ele>
        <time>2021-06-11T14:07:46.963Z</time>
      </trkpt>
      <trkpt lat="50.64153" lon="3.28219">
        <ele>28.11121</ele>
        <time>2021-06-11T14:07:58.531Z</time>
      </trkpt>
      <trkpt lat="50.64154" lon="3.28216">
        <ele>28.11645</ele>
        <time>2021-06-11T14:07:58.973Z</time>
      </trkpt>
      <trkpt lat="50.64236" lon="3.28057">
        <ele>28.373505</ele>
        <time>2021-06-11T14:08:20.627Z</time>
      </trkpt>
      <trkpt lat="50.64246" lon="3.2804">
        <ele>28.40252</ele>
        <time>2021-06-11T14:08:23.162Z</time>
      </trkpt>
      <trkpt lat="50.64252" lon="3.28022">
        <ele>28.428426</ele>
        <time>2021-06-11T14:08:25.446Z</time>
      </trkpt>
      <trkpt lat="50.64269" lon="3.28027">
        <ele>28.465064</ele>
        <time>2021-06-11T14:08:28.473Z</time>
      </trkpt>
      <trkpt lat="50.64307" lon="3.28036">
        <ele>28.633559</ele>
        <time>2021-06-11T14:08:35.202Z</time>
      </trkpt>
      <trkpt lat="50.6433" lon="3.28045">
        <ele>28.736334</ele>
        <time>2021-06-11T14:08:39.353Z</time>
      </trkpt>
      <trkpt lat="50.64335" lon="3.28046">
        <ele>28.755309</ele>
        <time>2021-06-11T14:08:40.143Z</time>
      </trkpt>
      <trkpt lat="50.64349" lon="3.28052">
        <ele>28.820258</ele>
        <time>2021-06-11T14:08:42.728Z</time>
      </trkpt>
      <trkpt lat="50.6436" lon="3.28058">
        <ele>28.870009</ele>
        <time>2021-06-11T14:08:44.793Z</time>
      </trkpt>
      <trkpt lat="50.64381" lon="3.28008">
        <ele>29.036392</ele>
        <time>2021-06-11T14:08:51.582Z</time>
      </trkpt>
      <trkpt lat="50.644" lon="3.27964">
        <ele>29.184647</ele>
        <time>2021-06-11T14:08:57.613Z</time>
      </trkpt>
      <trkpt lat="50.64409" lon="3.27941">
        <ele>29.261111</ele>
        <time>2021-06-11T14:09:00.603Z</time>
      </trkpt>
      <trkpt lat="50.64416" lon="3.27931">
        <ele>29.307225</ele>
        <time>2021-06-11T14:09:02.240Z</time>
      </trkpt>
      <trkpt lat="50.64417" lon="3.2793">
        <ele>29.313357</ele>
        <time>2021-06-11T14:09:02.463Z</time>
      </trkpt>
      <trkpt lat="50.6442" lon="3.27927">
        <ele>29.32975</ele>
        <time>2021-06-11T14:09:03.086Z</time>
      </trkpt>
      <trkpt lat="50.64412" lon="3.27815">
        <ele>29.688343</ele>
        <time>2021-06-11T14:09:12.818Z</time>
      </trkpt>
      <trkpt lat="50.64409" lon="3.27769">
        <ele>29.837194</ele>
        <time>2021-06-11T14:09:16.731Z</time>
      </trkpt>
      <trkpt lat="50.64407" lon="3.27713">
        <ele>30.015844</ele>
        <time>2021-06-11T14:09:21.490Z</time>
      </trkpt>
      <trkpt lat="50.64406" lon="3.27699">
        <ele>30.060219</ele>
        <time>2021-06-11T14:09:22.749Z</time>
      </trkpt>
      <trkpt lat="50.64405" lon="3.27669">
        <ele>30.152746</ele>
        <time>2021-06-11T14:09:25.288Z</time>
      </trkpt>
      <trkpt lat="50.64404" lon="3.2763">
        <ele>30.229686</ele>
        <time>2021-06-11T14:09:28.645Z</time>
      </trkpt>
      <trkpt lat="50.64403" lon="3.27617">
        <ele>30.255407</ele>
        <time>2021-06-11T14:09:29.764Z</time>
      </trkpt>
      <trkpt lat="50.644" lon="3.27573">
        <ele>30.34173</ele>
        <time>2021-06-11T14:09:33.423Z</time>
      </trkpt>
      <trkpt lat="50.64395" lon="3.27526">
        <ele>30.434341</ele>
        <time>2021-06-11T14:09:37.321Z</time>
      </trkpt>
      <trkpt lat="50.64388" lon="3.27479">
        <ele>30.529916</ele>
        <time>2021-06-11T14:09:41.342Z</time>
      </trkpt>
      <trkpt lat="50.64386" lon="3.27445">
        <ele>30.594889</ele>
        <time>2021-06-11T14:09:44.088Z</time>
      </trkpt>
      <trkpt lat="50.64387" lon="3.27417">
        <ele>30.649672</ele>
        <time>2021-06-11T14:09:46.330Z</time>
      </trkpt>
      <trkpt lat="50.64395" lon="3.27383">
        <ele>30.678429</ele>
        <time>2021-06-11T14:09:49.191Z</time>
      </trkpt>
      <trkpt lat="50.64408" lon="3.27343">
        <ele>30.556656</ele>
        <time>2021-06-11T14:09:52.532Z</time>
      </trkpt>
      <trkpt lat="50.64456" lon="3.27215">
        <ele>30.156683</ele>
        <time>2021-06-11T14:10:03.074Z</time>
      </trkpt>
      <trkpt lat="50.64467" lon="3.27189">
        <ele>30.072034</ele>
        <time>2021-06-11T14:10:05.079Z</time>
      </trkpt>
      <trkpt lat="50.64488" lon="3.27153">
        <ele>29.941882</ele>
        <time>2021-06-11T14:10:08.048Z</time>
      </trkpt>
      <trkpt lat="50.64531" lon="3.2708">
        <ele>29.354697</ele>
        <time>2021-06-11T14:10:14.157Z</time>
      </trkpt>
      <trkpt lat="50.64554" lon="3.27042">
        <ele>29.043847</ele>
        <time>2021-06-11T14:10:17.407Z</time>
      </trkpt>
      <trkpt lat="50.64572" lon="3.27013">
        <ele>28.809151</ele>
        <time>2021-06-11T14:10:19.847Z</time>
      </trkpt>
      <trkpt lat="50.64594" lon="3.26973">
        <ele>28.494272</ele>
        <time>2021-06-11T14:10:23.234Z</time>
      </trkpt>
      <trkpt lat="50.64617" lon="3.26908">
        <ele>28.189065</ele>
        <time>2021-06-11T14:10:28.089Z</time>
      </trkpt>
      <trkpt lat="50.6464" lon="3.26847">
        <ele>28.026142</ele>
        <time>2021-06-11T14:10:32.768Z</time>
      </trkpt>
      <trkpt lat="50.64656" lon="3.26801">
        <ele>27.90638</ele>
        <time>2021-06-11T14:10:36.346Z</time>
      </trkpt>
      <trkpt lat="50.64674" lon="3.26729">
        <ele>27.728757</ele>
        <time>2021-06-11T14:10:42.165Z</time>
      </trkpt>
      <trkpt lat="50.64696" lon="3.26613">
        <ele>27.636204</ele>
        <time>2021-06-11T14:10:51.320Z</time>
      </trkpt>
      <trkpt lat="50.64703" lon="3.26594">
        <ele>27.640472</ele>
        <time>2021-06-11T14:10:53.061Z</time>
      </trkpt>
      <trkpt lat="50.64723" lon="3.26538">
        <ele>27.652725</ele>
        <time>2021-06-11T14:10:57.879Z</time>
      </trkpt>
      <trkpt lat="50.64729" lon="3.26525">
        <ele>27.655846</ele>
        <time>2021-06-11T14:10:59.079Z</time>
      </trkpt>
      <trkpt lat="50.64735" lon="3.26515">
        <ele>27.658549</ele>
        <time>2021-06-11T14:11:00.099Z</time>
      </trkpt>
      <trkpt lat="50.64762" lon="3.26474">
        <ele>27.669788</ele>
        <time>2021-06-11T14:11:04.539Z</time>
      </trkpt>
      <trkpt lat="50.64775" lon="3.26458">
        <ele>27.674732</ele>
        <time>2021-06-11T14:11:06.581Z</time>
      </trkpt>
      <trkpt lat="50.64797" lon="3.2642">
        <ele>27.737831</ele>
        <time>2021-06-11T14:11:10.559Z</time>
      </trkpt>
      <trkpt lat="50.64808" lon="3.26388">
        <ele>27.788364</ele>
        <time>2021-06-11T14:11:13.298Z</time>
      </trkpt>
      <trkpt lat="50.64825" lon="3.26247">
        <ele>27.990321</ele>
        <time>2021-06-11T14:11:24.724Z</time>
      </trkpt>
      <trkpt lat="50.64824" lon="3.2623">
        <ele>28.013346</ele>
        <time>2021-06-11T14:11:26.126Z</time>
      </trkpt>
      <trkpt lat="50.64826" lon="3.26212">
        <ele>28.039136</ele>
        <time>2021-06-11T14:11:27.605Z</time>
      </trkpt>
      <trkpt lat="50.6483" lon="3.26176">
        <ele>28.10405</ele>
        <time>2021-06-11T14:11:30.710Z</time>
      </trkpt>
      <trkpt lat="50.64839" lon="3.261">
        <ele>28.299267</ele>
        <time>2021-06-11T14:11:37.215Z</time>
      </trkpt>
      <trkpt lat="50.64852" lon="3.25979">
        <ele>28.609237</ele>
        <time>2021-06-11T14:11:47.622Z</time>
      </trkpt>
      <trkpt lat="50.64866" lon="3.25866">
        <ele>28.821411</ele>
        <time>2021-06-11T14:11:57.253Z</time>
      </trkpt>
      <trkpt lat="50.64879" lon="3.25756">
        <ele>28.903048</ele>
        <time>2021-06-11T14:12:06.612Z</time>
      </trkpt>
      <trkpt lat="50.64897" lon="3.25626">
        <ele>28.98262</ele>
        <time>2021-06-11T14:12:16.287Z</time>
      </trkpt>
      <trkpt lat="50.64914" lon="3.25529">
        <ele>28.674363</ele>
        <time>2021-06-11T14:12:22.943Z</time>
      </trkpt>
      <trkpt lat="50.64919" lon="3.25497">
        <ele>28.570814</ele>
        <time>2021-06-11T14:12:25.149Z</time>
      </trkpt>
      <trkpt lat="50.64933" lon="3.25427">
        <ele>28.344112</ele>
        <time>2021-06-11T14:12:29.985Z</time>
      </trkpt>
      <trkpt lat="50.64969" lon="3.25291">
        <ele>28.013498</ele>
        <time>2021-06-11T14:12:40.002Z</time>
      </trkpt>
      <trkpt lat="50.64979" lon="3.25248">
        <ele>27.947157</ele>
        <time>2021-06-11T14:12:43.141Z</time>
      </trkpt>
      <trkpt lat="50.64985" lon="3.25227">
        <ele>27.91319</ele>
        <time>2021-06-11T14:12:44.983Z</time>
      </trkpt>
      <trkpt lat="50.65002" lon="3.25155">
        <ele>27.802842</ele>
        <time>2021-06-11T14:12:50.500Z</time>
      </trkpt>
      <trkpt lat="50.65023" lon="3.25113">
        <ele>27.725491</ele>
        <time>2021-06-11T14:12:54.520Z</time>
      </trkpt>
      <trkpt lat="50.65039" lon="3.25083">
        <ele>27.661561</ele>
        <time>2021-06-11T14:12:57.510Z</time>
      </trkpt>
      <trkpt lat="50.65044" lon="3.2507">
        <ele>27.633723</ele>
        <time>2021-06-11T14:12:58.610Z</time>
      </trkpt>
      <trkpt lat="50.65057" lon="3.25045">
        <ele>27.57696</ele>
        <time>2021-06-11T14:13:01.090Z</time>
      </trkpt>
      <trkpt lat="50.65076" lon="3.25005">
        <ele>27.489833</ele>
        <time>2021-06-11T14:13:04.779Z</time>
      </trkpt>
      <trkpt lat="50.65085" lon="3.24991">
        <ele>27.453338</ele>
        <time>2021-06-11T14:13:06.267Z</time>
      </trkpt>
      <trkpt lat="50.65108" lon="3.24949">
        <ele>27.35833</ele>
        <time>2021-06-11T14:13:10.107Z</time>
      </trkpt>
      <trkpt lat="50.65115" lon="3.2493">
        <ele>27.31927</ele>
        <time>2021-06-11T14:13:11.620Z</time>
      </trkpt>
      <trkpt lat="50.65158" lon="3.24845">
        <ele>27.057638</ele>
        <time>2021-06-11T14:13:18.743Z</time>
      </trkpt>
      <trkpt lat="50.65212" lon="3.24726">
        <ele>26.592507</ele>
        <time>2021-06-11T14:13:28.407Z</time>
      </trkpt>
      <trkpt lat="50.65225" lon="3.24696">
        <ele>26.475227</ele>
        <time>2021-06-11T14:13:30.792Z</time>
      </trkpt>
      <trkpt lat="50.65219" lon="3.2469">
        <ele>26.437851</ele>
        <time>2021-06-11T14:13:31.638Z</time>
      </trkpt>
      <trkpt lat="50.65217" lon="3.24687">
        <ele>26.422253</ele>
        <time>2021-06-11T14:13:32.006Z</time>
      </trkpt>
      <trkpt lat="50.65231" lon="3.24666">
        <ele>26.324376</ele>
        <time>2021-06-11T14:13:34.808Z</time>
      </trkpt>
      <trkpt lat="50.65483" lon="3.24399">
        <ele>26.553624</ele>
        <time>2021-06-11T14:14:24.025Z</time>
      </trkpt>
      <trkpt lat="50.655" lon="3.24381">
        <ele>26.611954</ele>
        <time>2021-06-11T14:14:27.667Z</time>
      </trkpt>
      <trkpt lat="50.65517" lon="3.24364">
        <ele>26.670715</ele>
        <time>2021-06-11T14:14:31.406Z</time>
      </trkpt>
      <trkpt lat="50.65721" lon="3.24142">
        <ele>29.467694</ele>
        <time>2021-06-11T14:15:20.609Z</time>
      </trkpt>
      <trkpt lat="50.65731" lon="3.24129">
        <ele>29.669101</ele>
        <time>2021-06-11T14:15:23.585Z</time>
      </trkpt>
      <trkpt lat="50.65743" lon="3.24114">
        <ele>29.8868</ele>
        <time>2021-06-11T14:15:26.659Z</time>
      </trkpt>
      <trkpt lat="50.65834" lon="3.24022">
        <ele>31.496717</ele>
        <time>2021-06-11T14:15:49.783Z</time>
      </trkpt>
      <trkpt lat="50.65851" lon="3.24021">
        <ele>31.773585</ele>
        <time>2021-06-11T14:15:53.529Z</time>
      </trkpt>
      <trkpt lat="50.65858" lon="3.24013">
        <ele>31.91307</ele>
        <time>2021-06-11T14:15:55.377Z</time>
      </trkpt>
      <trkpt lat="50.65864" lon="3.24007">
        <ele>32.026334</ele>
        <time>2021-06-11T14:15:56.874Z</time>
      </trkpt>
      <trkpt lat="50.65872" lon="3.23989">
        <ele>32.256511</ele>
        <time>2021-06-11T14:15:59.333Z</time>
      </trkpt>
      <trkpt lat="50.6591" lon="3.23913">
        <ele>33.246298</ele>
        <time>2021-06-11T14:16:09.482Z</time>
      </trkpt>
      <trkpt lat="50.65914" lon="3.23905">
        <ele>33.354336</ele>
        <time>2021-06-11T14:16:10.706Z</time>
      </trkpt>
      <trkpt lat="50.65943" lon="3.23846">
        <ele>34.110799</ele>
        <time>2021-06-11T14:16:18.940Z</time>
      </trkpt>
      <trkpt lat="50.65999" lon="3.23736">
        <ele>35.118066</ele>
        <time>2021-06-11T14:16:33.885Z</time>
      </trkpt>
      <trkpt lat="50.66021" lon="3.23691">
        <ele>35.49597</ele>
        <time>2021-06-11T14:16:39.357Z</time>
      </trkpt>
      <trkpt lat="50.66031" lon="3.23664">
        <ele>35.698497</ele>
        <time>2021-06-11T14:16:42.047Z</time>
      </trkpt>
      <trkpt lat="50.66033" lon="3.23654">
        <ele>35.773221</ele>
        <time>2021-06-11T14:16:43.188Z</time>
      </trkpt>
      <trkpt lat="50.66038" lon="3.23632">
        <ele>35.923648</ele>
        <time>2021-06-11T14:16:45.013Z</time>
      </trkpt>
      <trkpt lat="50.66039" lon="3.23629">
        <ele>35.94738</ele>
        <time>2021-06-11T14:16:45.317Z</time>
      </trkpt>
      <trkpt lat="50.66041" lon="3.23617">
        <ele>36.032892</ele>
        <time>2021-06-11T14:16:46.524Z</time>
      </trkpt>
      <trkpt lat="50.66045" lon="3.23607">
        <ele>36.107987</ele>
        <time>2021-06-11T14:16:47.328Z</time>
      </trkpt>
      <trkpt lat="50.66104" lon="3.23449">
        <ele>36.521848</ele>
        <time>2021-06-11T14:17:02.439Z</time>
      </trkpt>
      <trkpt lat="50.66107" lon="3.23436">
        <ele>36.548593</ele>
        <time>2021-06-11T14:17:03.358Z</time>
      </trkpt>
      <trkpt lat="50.66108" lon="3.23429">
        <ele>36.561873</ele>
        <time>2021-06-11T14:17:03.873Z</time>
      </trkpt>
      <trkpt lat="50.66112" lon="3.23406">
        <ele>36.608869</ele>
        <time>2021-06-11T14:17:05.962Z</time>
      </trkpt>
      <trkpt lat="50.66114" lon="3.23392">
        <ele>36.635501</ele>
        <time>2021-06-11T14:17:06.976Z</time>
      </trkpt>
      <trkpt lat="50.66116" lon="3.23382">
        <ele>36.656198</ele>
        <time>2021-06-11T14:17:07.675Z</time>
      </trkpt>
      <trkpt lat="50.66123" lon="3.23312">
        <ele>36.917586</ele>
        <time>2021-06-11T14:17:13.541Z</time>
      </trkpt>
      <trkpt lat="50.66123" lon="3.23302">
        <ele>36.97997</ele>
        <time>2021-06-11T14:17:14.485Z</time>
      </trkpt>
      <trkpt lat="50.66124" lon="3.23293">
        <ele>37.0366</ele>
        <time>2021-06-11T14:17:15.375Z</time>
      </trkpt>
      <trkpt lat="50.66125" lon="3.23261">
        <ele>37.235926</ele>
        <time>2021-06-11T14:17:17.706Z</time>
      </trkpt>
      <trkpt lat="50.66125" lon="3.23256">
        <ele>37.266231</ele>
        <time>2021-06-11T14:17:18.237Z</time>
      </trkpt>
      <trkpt lat="50.66124" lon="3.23244">
        <ele>37.345486</ele>
        <time>2021-06-11T14:17:19.495Z</time>
      </trkpt>
      <trkpt lat="50.66123" lon="3.23228">
        <ele>37.444745</ele>
        <time>2021-06-11T14:17:21.039Z</time>
      </trkpt>
      <trkpt lat="50.66119" lon="3.23189">
        <ele>37.696152</ele>
        <time>2021-06-11T14:17:24.696Z</time>
      </trkpt>
      <trkpt lat="50.6612" lon="3.23128">
        <ele>38.079406</ele>
        <time>2021-06-11T14:17:31.154Z</time>
      </trkpt>
      <trkpt lat="50.66131" lon="3.23026">
        <ele>38.886299</ele>
        <time>2021-06-11T14:17:41.900Z</time>
      </trkpt>
      <trkpt lat="50.66136" lon="3.22995">
        <ele>39.243753</ele>
        <time>2021-06-11T14:17:45.394Z</time>
      </trkpt>
      <trkpt lat="50.66142" lon="3.22973">
        <ele>39.517694</ele>
        <time>2021-06-11T14:17:47.868Z</time>
      </trkpt>
      <trkpt lat="50.66144" lon="3.2297">
        <ele>39.564122</ele>
        <time>2021-06-11T14:17:48.431Z</time>
      </trkpt>
      <trkpt lat="50.66145" lon="3.22969">
        <ele>39.588733</ele>
        <time>2021-06-11T14:17:48.636Z</time>
      </trkpt>
      <trkpt lat="50.66148" lon="3.22967">
        <ele>39.635134</ele>
        <time>2021-06-11T14:17:49.030Z</time>
      </trkpt>
      <trkpt lat="50.66148" lon="3.22965">
        <ele>39.657918</ele>
        <time>2021-06-11T14:17:49.232Z</time>
      </trkpt>
      <trkpt lat="50.66149" lon="3.22963">
        <ele>39.681528</ele>
        <time>2021-06-11T14:17:49.486Z</time>
      </trkpt>
      <trkpt lat="50.66147" lon="3.22948">
        <ele>39.853796</ele>
        <time>2021-06-11T14:17:50.976Z</time>
      </trkpt>
      <trkpt lat="50.66146" lon="3.22947">
        <ele>39.87665</ele>
        <time>2021-06-11T14:17:51.247Z</time>
      </trkpt>
      <trkpt lat="50.66145" lon="3.22946">
        <ele>39.899621</ele>
        <time>2021-06-11T14:17:51.472Z</time>
      </trkpt>
      <trkpt lat="50.66144" lon="3.22945">
        <ele>39.920541</ele>
        <time>2021-06-11T14:17:51.679Z</time>
      </trkpt>
      <trkpt lat="50.66143" lon="3.22944">
        <ele>39.944141</ele>
        <time>2021-06-11T14:17:51.906Z</time>
      </trkpt>
      <trkpt lat="50.6614" lon="3.22943">
        <ele>40.000715</ele>
        <time>2021-06-11T14:17:52.538Z</time>
      </trkpt>
      <trkpt lat="50.66132" lon="3.22934">
        <ele>40.171739</ele>
        <time>2021-06-11T14:17:54.101Z</time>
      </trkpt>
      <trkpt lat="50.66125" lon="3.22918">
        <ele>40.393488</ele>
        <time>2021-06-11T14:17:56.325Z</time>
      </trkpt>
      <trkpt lat="50.66118" lon="3.229">
        <ele>40.632453</ele>
        <time>2021-06-11T14:17:59.093Z</time>
      </trkpt>
      <trkpt lat="50.66114" lon="3.22891">
        <ele>40.743893</ele>
        <time>2021-06-11T14:18:00.103Z</time>
      </trkpt>
      <trkpt lat="50.66113" lon="3.22887">
        <ele>40.799639</ele>
        <time>2021-06-11T14:18:00.628Z</time>
      </trkpt>
      <trkpt lat="50.66107" lon="3.2287">
        <ele>41.011268</ele>
        <time>2021-06-11T14:18:02.773Z</time>
      </trkpt>
      <trkpt lat="50.66102" lon="3.22849">
        <ele>41.26987</ele>
        <time>2021-06-11T14:18:05.806Z</time>
      </trkpt>
      <trkpt lat="50.661" lon="3.22835">
        <ele>41.42339</ele>
        <time>2021-06-11T14:18:07.217Z</time>
      </trkpt>
      <trkpt lat="50.66097" lon="3.22809">
        <ele>41.713081</ele>
        <time>2021-06-11T14:18:10.437Z</time>
      </trkpt>
      <trkpt lat="50.66094" lon="3.22786">
        <ele>41.891396</ele>
        <time>2021-06-11T14:18:13.316Z</time>
      </trkpt>
      <trkpt lat="50.66091" lon="3.22756">
        <ele>42.128507</ele>
        <time>2021-06-11T14:18:16.811Z</time>
      </trkpt>
      <trkpt lat="50.66088" lon="3.22704">
        <ele>42.526602</ele>
        <time>2021-06-11T14:18:22.739Z</time>
      </trkpt>
      <trkpt lat="50.66088" lon="3.22693">
        <ele>42.608189</ele>
        <time>2021-06-11T14:18:24.242Z</time>
      </trkpt>
      <trkpt lat="50.66072" lon="3.22466">
        <ele>43.414062</ele>
        <time>2021-06-11T14:18:44.511Z</time>
      </trkpt>
      <trkpt lat="50.6607" lon="3.22448">
        <ele>43.281403</ele>
        <time>2021-06-11T14:18:45.963Z</time>
      </trkpt>
      <trkpt lat="50.66063" lon="3.22397">
        <ele>42.905707</ele>
        <time>2021-06-11T14:18:49.023Z</time>
      </trkpt>
      <trkpt lat="50.66062" lon="3.22385">
        <ele>42.819437</ele>
        <time>2021-06-11T14:18:49.783Z</time>
      </trkpt>
      <trkpt lat="50.66061" lon="3.22378">
        <ele>42.76549</ele>
        <time>2021-06-11T14:18:50.187Z</time>
      </trkpt>
      <trkpt lat="50.66061" lon="3.2237">
        <ele>42.712264</ele>
        <time>2021-06-11T14:18:50.573Z</time>
      </trkpt>
      <trkpt lat="50.66061" lon="3.22361">
        <ele>42.643909</ele>
        <time>2021-06-11T14:18:51.046Z</time>
      </trkpt>
      <trkpt lat="50.66067" lon="3.22329">
        <ele>42.407901</ele>
        <time>2021-06-11T14:18:53.119Z</time>
      </trkpt>
      <trkpt lat="50.66079" lon="3.22291">
        <ele>42.102172</ele>
        <time>2021-06-11T14:18:55.428Z</time>
      </trkpt>
      <trkpt lat="50.66084" lon="3.22274">
        <ele>41.961658</ele>
        <time>2021-06-11T14:18:56.568Z</time>
      </trkpt>
      <trkpt lat="50.66087" lon="3.22263">
        <ele>41.87646</ele>
        <time>2021-06-11T14:18:57.174Z</time>
      </trkpt>
      <trkpt lat="50.66089" lon="3.22255">
        <ele>41.814111</ele>
        <time>2021-06-11T14:18:57.566Z</time>
      </trkpt>
      <trkpt lat="50.66093" lon="3.22225">
        <ele>41.500827</ele>
        <time>2021-06-11T14:18:59.493Z</time>
      </trkpt>
      <trkpt lat="50.66093" lon="3.22211">
        <ele>41.364603</ele>
        <time>2021-06-11T14:19:00.201Z</time>
      </trkpt>
      <trkpt lat="50.66094" lon="3.22193">
        <ele>41.186159</ele>
        <time>2021-06-11T14:19:01.107Z</time>
      </trkpt>
      <trkpt lat="50.66096" lon="3.22171">
        <ele>40.961939</ele>
        <time>2021-06-11T14:19:02.480Z</time>
      </trkpt>
      <trkpt lat="50.66096" lon="3.22159">
        <ele>40.839046</ele>
        <time>2021-06-11T14:19:03.140Z</time>
      </trkpt>
      <trkpt lat="50.66099" lon="3.22135">
        <ele>40.603313</ele>
        <time>2021-06-11T14:19:04.385Z</time>
      </trkpt>
      <trkpt lat="50.66138" lon="3.21922">
        <ele>38.714785</ele>
        <time>2021-06-11T14:19:18.009Z</time>
      </trkpt>
      <trkpt lat="50.66144" lon="3.21892">
        <ele>38.570901</ele>
        <time>2021-06-11T14:19:20.178Z</time>
      </trkpt>
      <trkpt lat="50.66145" lon="3.21889">
        <ele>38.556121</ele>
        <time>2021-06-11T14:19:20.399Z</time>
      </trkpt>
      <trkpt lat="50.66146" lon="3.21884">
        <ele>38.531981</ele>
        <time>2021-06-11T14:19:20.767Z</time>
      </trkpt>
      <trkpt lat="50.66147" lon="3.21878">
        <ele>38.50242</ele>
        <time>2021-06-11T14:19:21.206Z</time>
      </trkpt>
      <trkpt lat="50.66153" lon="3.2185">
        <ele>38.369167</ele>
        <time>2021-06-11T14:19:23.227Z</time>
      </trkpt>
      <trkpt lat="50.66157" lon="3.21831">
        <ele>38.275706</ele>
        <time>2021-06-11T14:19:24.633Z</time>
      </trkpt>
      <trkpt lat="50.66163" lon="3.21802">
        <ele>38.13912</ele>
        <time>2021-06-11T14:19:26.702Z</time>
      </trkpt>
      <trkpt lat="50.66165" lon="3.21799">
        <ele>38.119855</ele>
        <time>2021-06-11T14:19:26.960Z</time>
      </trkpt>
      <trkpt lat="50.66167" lon="3.21795">
        <ele>38.096326</ele>
        <time>2021-06-11T14:19:27.323Z</time>
      </trkpt>
      <trkpt lat="50.66174" lon="3.21788">
        <ele>38.038352</ele>
        <time>2021-06-11T14:19:28.184Z</time>
      </trkpt>
      <trkpt lat="50.66229" lon="3.21738">
        <ele>37.539965</ele>
        <time>2021-06-11T14:19:34.638Z</time>
      </trkpt>
      <trkpt lat="50.6624" lon="3.21728">
        <ele>37.422253</ele>
        <time>2021-06-11T14:19:35.920Z</time>
      </trkpt>
      <trkpt lat="50.66246" lon="3.21723">
        <ele>37.364472</ele>
        <time>2021-06-11T14:19:36.524Z</time>
      </trkpt>
      <trkpt lat="50.66275" lon="3.21696">
        <ele>37.042866</ele>
        <time>2021-06-11T14:19:39.790Z</time>
      </trkpt>
      <trkpt lat="50.66283" lon="3.21689">
        <ele>36.960089</ele>
        <time>2021-06-11T14:19:40.596Z</time>
      </trkpt>
      <trkpt lat="50.66309" lon="3.21666">
        <ele>36.679354</ele>
        <time>2021-06-11T14:19:43.562Z</time>
      </trkpt>
      <trkpt lat="50.66315" lon="3.2166">
        <ele>36.606293</ele>
        <time>2021-06-11T14:19:44.263Z</time>
      </trkpt>
      <trkpt lat="50.66332" lon="3.21645">
        <ele>36.427986</ele>
        <time>2021-06-11T14:19:46.257Z</time>
      </trkpt>
      <trkpt lat="50.66389" lon="3.21593">
        <ele>35.915515</ele>
        <time>2021-06-11T14:19:52.747Z</time>
      </trkpt>
      <trkpt lat="50.664" lon="3.21583">
        <ele>35.8571</ele>
        <time>2021-06-11T14:19:54.183Z</time>
      </trkpt>
      <trkpt lat="50.66404" lon="3.21579">
        <ele>35.836388</ele>
        <time>2021-06-11T14:19:54.616Z</time>
      </trkpt>
      <trkpt lat="50.66408" lon="3.21576">
        <ele>35.817251</ele>
        <time>2021-06-11T14:19:55.010Z</time>
      </trkpt>
      <trkpt lat="50.66451" lon="3.21537">
        <ele>35.597373</ele>
        <time>2021-06-11T14:20:00.132Z</time>
      </trkpt>
      <trkpt lat="50.66459" lon="3.2153">
        <ele>35.557043</ele>
        <time>2021-06-11T14:20:01.133Z</time>
      </trkpt>
      <trkpt lat="50.66466" lon="3.21523">
        <ele>35.517863</ele>
        <time>2021-06-11T14:20:02.065Z</time>
      </trkpt>
      <trkpt lat="50.66476" lon="3.21514">
        <ele>35.468327</ele>
        <time>2021-06-11T14:20:03.281Z</time>
      </trkpt>
      <trkpt lat="50.6648" lon="3.21509">
        <ele>35.44499</ele>
        <time>2021-06-11T14:20:03.867Z</time>
      </trkpt>
      <trkpt lat="50.66489" lon="3.21501">
        <ele>35.399128</ele>
        <time>2021-06-11T14:20:05.051Z</time>
      </trkpt>
      <trkpt lat="50.66494" lon="3.21497">
        <ele>35.374503</ele>
        <time>2021-06-11T14:20:05.682Z</time>
      </trkpt>
      <trkpt lat="50.66594" lon="3.21406">
        <ele>35.227029</ele>
        <time>2021-06-11T14:20:19.753Z</time>
      </trkpt>
      <trkpt lat="50.66603" lon="3.21397">
        <ele>35.229418</ele>
        <time>2021-06-11T14:20:21.092Z</time>
      </trkpt>
      <trkpt lat="50.66606" lon="3.21392">
        <ele>35.230373</ele>
        <time>2021-06-11T14:20:21.630Z</time>
      </trkpt>
      <trkpt lat="50.66638" lon="3.21323">
        <ele>35.242386</ele>
        <time>2021-06-11T14:20:28.127Z</time>
      </trkpt>
      <trkpt lat="50.66645" lon="3.21307">
        <ele>35.24512</ele>
        <time>2021-06-11T14:20:29.614Z</time>
      </trkpt>
      <trkpt lat="50.66651" lon="3.21292">
        <ele>35.247628</ele>
        <time>2021-06-11T14:20:30.936Z</time>
      </trkpt>
      <trkpt lat="50.66653" lon="3.21285">
        <ele>35.248806</ele>
        <time>2021-06-11T14:20:31.547Z</time>
      </trkpt>
      <trkpt lat="50.66655" lon="3.21279">
        <ele>35.247382</ele>
        <time>2021-06-11T14:20:31.995Z</time>
      </trkpt>
      <trkpt lat="50.66659" lon="3.21266">
        <ele>35.208858</ele>
        <time>2021-06-11T14:20:33.107Z</time>
      </trkpt>
      <trkpt lat="50.66661" lon="3.21259">
        <ele>35.189772</ele>
        <time>2021-06-11T14:20:33.635Z</time>
      </trkpt>
      <trkpt lat="50.66663" lon="3.21253">
        <ele>35.173623</ele>
        <time>2021-06-11T14:20:34.083Z</time>
      </trkpt>
      <trkpt lat="50.66666" lon="3.21242">
        <ele>35.141295</ele>
        <time>2021-06-11T14:20:34.970Z</time>
      </trkpt>
      <trkpt lat="50.66723" lon="3.21131">
        <ele>34.761265</ele>
        <time>2021-06-11T14:20:44.738Z</time>
      </trkpt>
      <trkpt lat="50.66729" lon="3.21119">
        <ele>34.720212</ele>
        <time>2021-06-11T14:20:45.822Z</time>
      </trkpt>
      <trkpt lat="50.66735" lon="3.21108">
        <ele>34.682287</ele>
        <time>2021-06-11T14:20:46.788Z</time>
      </trkpt>
      <trkpt lat="50.66742" lon="3.21117">
        <ele>34.647408</ele>
        <time>2021-06-11T14:20:47.612Z</time>
      </trkpt>
      <trkpt lat="50.66782" lon="3.21186">
        <ele>34.381241</ele>
        <time>2021-06-11T14:20:53.884Z</time>
      </trkpt>
      <trkpt lat="50.66788" lon="3.21197">
        <ele>34.336776</ele>
        <time>2021-06-11T14:20:54.811Z</time>
      </trkpt>
      <trkpt lat="50.66793" lon="3.21204">
        <ele>34.306968</ele>
        <time>2021-06-11T14:20:55.406Z</time>
      </trkpt>
      <trkpt lat="50.66804" lon="3.21217">
        <ele>34.240452</ele>
        <time>2021-06-11T14:20:56.902Z</time>
      </trkpt>
      <trkpt lat="50.6681" lon="3.2122">
        <ele>34.210544</ele>
        <time>2021-06-11T14:20:57.499Z</time>
      </trkpt>
      <trkpt lat="50.66812" lon="3.21212">
        <ele>34.184987</ele>
        <time>2021-06-11T14:20:58.074Z</time>
      </trkpt>
      <trkpt lat="50.66817" lon="3.21192">
        <ele>34.120356</ele>
        <time>2021-06-11T14:20:59.382Z</time>
      </trkpt>
      <trkpt lat="50.66828" lon="3.21141">
        <ele>33.953959</ele>
        <time>2021-06-11T14:21:02.927Z</time>
      </trkpt>
      <trkpt lat="50.66839" lon="3.21087">
        <ele>33.777744</ele>
        <time>2021-06-11T14:21:06.844Z</time>
      </trkpt>
      <trkpt lat="50.66845" lon="3.21063">
        <ele>33.701244</ele>
        <time>2021-06-11T14:21:08.595Z</time>
      </trkpt>
      <trkpt lat="50.66852" lon="3.21055">
        <ele>33.659635</ele>
        <time>2021-06-11T14:21:09.699Z</time>
      </trkpt>
      <trkpt lat="50.66868" lon="3.21034">
        <ele>33.653263</ele>
        <time>2021-06-11T14:21:12.065Z</time>
      </trkpt>
      <trkpt lat="50.66874" lon="3.21026">
        <ele>33.669988</ele>
        <time>2021-06-11T14:21:12.942Z</time>
      </trkpt>
      <trkpt lat="50.66884" lon="3.21013">
        <ele>33.696417</ele>
        <time>2021-06-11T14:21:14.784Z</time>
      </trkpt>
      <trkpt lat="50.66896" lon="3.20998">
        <ele>33.726992</ele>
        <time>2021-06-11T14:21:16.763Z</time>
      </trkpt>
      <trkpt lat="50.66904" lon="3.20986">
        <ele>33.748746</ele>
        <time>2021-06-11T14:21:18.101Z</time>
      </trkpt>
      <trkpt lat="50.66916" lon="3.20971">
        <ele>33.779176</ele>
        <time>2021-06-11T14:21:20.067Z</time>
      </trkpt>
      <trkpt lat="50.66932" lon="3.20944">
        <ele>33.827801</ele>
        <time>2021-06-11T14:21:22.956Z</time>
      </trkpt>
      <trkpt lat="50.66938" lon="3.20936">
        <ele>33.843896</ele>
        <time>2021-06-11T14:21:23.905Z</time>
      </trkpt>
      <trkpt lat="50.66939" lon="3.20937">
        <ele>33.846368</ele>
        <time>2021-06-11T14:21:24.036Z</time>
      </trkpt>
      <trkpt lat="50.66946" lon="3.20937">
        <ele>33.860364</ele>
        <time>2021-06-11T14:21:24.907Z</time>
      </trkpt>
      <trkpt lat="50.66947" lon="3.20936">
        <ele>33.862765</ele>
        <time>2021-06-11T14:21:25.051Z</time>
      </trkpt>
      <trkpt lat="50.66948" lon="3.20935">
        <ele>33.865713</ele>
        <time>2021-06-11T14:21:25.271Z</time>
      </trkpt>
      <trkpt lat="50.66949" lon="3.2092">
        <ele>33.884913</ele>
        <time>2021-06-11T14:21:26.344Z</time>
      </trkpt>
      <trkpt lat="50.66948" lon="3.20918">
        <ele>33.887894</ele>
        <time>2021-06-11T14:21:26.521Z</time>
      </trkpt>
      <trkpt lat="50.66952" lon="3.2091">
        <ele>33.901519</ele>
        <time>2021-06-11T14:21:27.373Z</time>
      </trkpt>
      <trkpt lat="50.66983" lon="3.20856">
        <ele>34.013298</ele>
        <time>2021-06-11T14:21:33.137Z</time>
      </trkpt>
      <trkpt lat="50.66993" lon="3.20843">
        <ele>34.150868</ele>
        <time>2021-06-11T14:21:34.903Z</time>
      </trkpt>
      <trkpt lat="50.67005" lon="3.20828">
        <ele>34.318282</ele>
        <time>2021-06-11T14:21:37.116Z</time>
      </trkpt>
      <trkpt lat="50.67013" lon="3.2082">
        <ele>34.418095</ele>
        <time>2021-06-11T14:21:38.800Z</time>
      </trkpt>
      <trkpt lat="50.6702" lon="3.20812">
        <ele>34.514868</ele>
        <time>2021-06-11T14:21:40.109Z</time>
      </trkpt>
      <trkpt lat="50.67041" lon="3.20791">
        <ele>34.776379</ele>
        <time>2021-06-11T14:21:44.003Z</time>
      </trkpt>
      <trkpt lat="50.67051" lon="3.20781">
        <ele>34.907401</ele>
        <time>2021-06-11T14:21:45.994Z</time>
      </trkpt>
      <trkpt lat="50.6706" lon="3.20766">
        <ele>35.044714</ele>
        <time>2021-06-11T14:21:47.985Z</time>
      </trkpt>
      <trkpt lat="50.67063" lon="3.20756">
        <ele>35.118279</ele>
        <time>2021-06-11T14:21:49.053Z</time>
      </trkpt>
      <trkpt lat="50.67066" lon="3.20749">
        <ele>35.178631</ele>
        <time>2021-06-11T14:21:50.221Z</time>
      </trkpt>
      <trkpt lat="50.67075" lon="3.20721">
        <ele>35.391495</ele>
        <time>2021-06-11T14:21:53.148Z</time>
      </trkpt>
      <trkpt lat="50.67077" lon="3.20717">
        <ele>35.422524</ele>
        <time>2021-06-11T14:21:53.599Z</time>
      </trkpt>
      <trkpt lat="50.67086" lon="3.20688">
        <ele>35.640806</ele>
        <time>2021-06-11T14:21:57.022Z</time>
      </trkpt>
      <trkpt lat="50.67096" lon="3.20659">
        <ele>35.871303</ele>
        <time>2021-06-11T14:22:00.059Z</time>
      </trkpt>
      <trkpt lat="50.67098" lon="3.20654">
        <ele>35.91091</ele>
        <time>2021-06-11T14:22:00.684Z</time>
      </trkpt>
      <trkpt lat="50.67101" lon="3.2065">
        <ele>35.949846</ele>
        <time>2021-06-11T14:22:01.436Z</time>
      </trkpt>
      <trkpt lat="50.67107" lon="3.20643">
        <ele>36.040194</ele>
        <time>2021-06-11T14:22:02.512Z</time>
      </trkpt>
      <trkpt lat="50.67137" lon="3.20618">
        <ele>36.441011</ele>
        <time>2021-06-11T14:22:07.800Z</time>
      </trkpt>
      <trkpt lat="50.67144" lon="3.20611">
        <ele>36.541569</ele>
        <time>2021-06-11T14:22:08.991Z</time>
      </trkpt>
      <trkpt lat="50.67171" lon="3.2059">
        <ele>36.895802</ele>
        <time>2021-06-11T14:22:14.075Z</time>
      </trkpt>
      <trkpt lat="50.6719" lon="3.20575">
        <ele>37.143882</ele>
        <time>2021-06-11T14:22:17.421Z</time>
      </trkpt>
      <trkpt lat="50.67197" lon="3.20569">
        <ele>37.234371</ele>
        <time>2021-06-11T14:22:19.031Z</time>
      </trkpt>
      <trkpt lat="50.67201" lon="3.20564">
        <ele>37.300674</ele>
        <time>2021-06-11T14:22:19.897Z</time>
      </trkpt>
      <trkpt lat="50.67206" lon="3.20558">
        <ele>37.367878</ele>
        <time>2021-06-11T14:22:20.717Z</time>
      </trkpt>
      <trkpt lat="50.6721" lon="3.20551">
        <ele>37.439992</ele>
        <time>2021-06-11T14:22:21.629Z</time>
      </trkpt>
      <trkpt lat="50.67236" lon="3.20507">
        <ele>37.892317</ele>
        <time>2021-06-11T14:22:27.806Z</time>
      </trkpt>
      <trkpt lat="50.67239" lon="3.20503">
        <ele>37.931341</ele>
        <time>2021-06-11T14:22:28.286Z</time>
      </trkpt>
      <trkpt lat="50.67243" lon="3.20496">
        <ele>38.008047</ele>
        <time>2021-06-11T14:22:29.384Z</time>
      </trkpt>
      <trkpt lat="50.67266" lon="3.20463">
        <ele>38.050487</ele>
        <time>2021-06-11T14:22:33.519Z</time>
      </trkpt>
      <trkpt lat="50.67271" lon="3.20457">
        <ele>38.053143</ele>
        <time>2021-06-11T14:22:34.482Z</time>
      </trkpt>
      <trkpt lat="50.67301" lon="3.20426">
        <ele>38.068177</ele>
        <time>2021-06-11T14:22:39.026Z</time>
      </trkpt>
      <trkpt lat="50.67307" lon="3.20419">
        <ele>38.071578</ele>
        <time>2021-06-11T14:22:39.938Z</time>
      </trkpt>
      <trkpt lat="50.67321" lon="3.20405">
        <ele>38.078352</ele>
        <time>2021-06-11T14:22:41.705Z</time>
      </trkpt>
      <trkpt lat="50.67348" lon="3.20379">
        <ele>38.091766</ele>
        <time>2021-06-11T14:22:45.412Z</time>
      </trkpt>
      <trkpt lat="50.67363" lon="3.20365">
        <ele>38.099154</ele>
        <time>2021-06-11T14:22:47.347Z</time>
      </trkpt>
      <trkpt lat="50.67368" lon="3.20359">
        <ele>38.101791</ele>
        <time>2021-06-11T14:22:48.022Z</time>
      </trkpt>
      <trkpt lat="50.67398" lon="3.2033">
        <ele>38.049202</ele>
        <time>2021-06-11T14:22:51.771Z</time>
      </trkpt>
      <trkpt lat="50.6743" lon="3.20313">
        <ele>37.611276</ele>
        <time>2021-06-11T14:22:55.101Z</time>
      </trkpt>
      <trkpt lat="50.67434" lon="3.20312">
        <ele>37.553025</ele>
        <time>2021-06-11T14:22:55.536Z</time>
      </trkpt>
      <trkpt lat="50.67445" lon="3.20309">
        <ele>37.414962</ele>
        <time>2021-06-11T14:22:56.544Z</time>
      </trkpt>
      <trkpt lat="50.67456" lon="3.20307">
        <ele>37.271644</ele>
        <time>2021-06-11T14:22:57.572Z</time>
      </trkpt>
      <trkpt lat="50.67481" lon="3.20298">
        <ele>36.939049</ele>
        <time>2021-06-11T14:23:00.037Z</time>
      </trkpt>
      <trkpt lat="50.67489" lon="3.20291">
        <ele>36.812247</ele>
        <time>2021-06-11T14:23:00.934Z</time>
      </trkpt>
      <trkpt lat="50.67496" lon="3.20285">
        <ele>36.713082</ele>
        <time>2021-06-11T14:23:01.693Z</time>
      </trkpt>
      <trkpt lat="50.67526" lon="3.20255">
        <ele>36.253255</ele>
        <time>2021-06-11T14:23:04.905Z</time>
      </trkpt>
      <trkpt lat="50.6753" lon="3.20251">
        <ele>36.190597</ele>
        <time>2021-06-11T14:23:05.352Z</time>
      </trkpt>
      <trkpt lat="50.67535" lon="3.20245">
        <ele>36.115147</ele>
        <time>2021-06-11T14:23:05.910Z</time>
      </trkpt>
      <trkpt lat="50.67541" lon="3.20258">
        <ele>35.982776</ele>
        <time>2021-06-11T14:23:06.771Z</time>
      </trkpt>
      <trkpt lat="50.67567" lon="3.20312">
        <ele>35.3301</ele>
        <time>2021-06-11T14:23:10.581Z</time>
      </trkpt>
      <trkpt lat="50.67609" lon="3.20377">
        <ele>34.371783</ele>
        <time>2021-06-11T14:23:15.965Z</time>
      </trkpt>
      <trkpt lat="50.67615" lon="3.20387">
        <ele>34.227634</ele>
        <time>2021-06-11T14:23:16.705Z</time>
      </trkpt>
      <trkpt lat="50.6765" lon="3.20442">
        <ele>33.411571</ele>
        <time>2021-06-11T14:23:21.318Z</time>
      </trkpt>
      <trkpt lat="50.67664" lon="3.20463">
        <ele>33.095877</ele>
        <time>2021-06-11T14:23:23.117Z</time>
      </trkpt>
      <trkpt lat="50.67668" lon="3.20469">
        <ele>33.007842</ele>
        <time>2021-06-11T14:23:23.595Z</time>
      </trkpt>
      <trkpt lat="50.67733" lon="3.2057">
        <ele>32.105969</ele>
        <time>2021-06-11T14:23:31.960Z</time>
      </trkpt>
      <trkpt lat="50.67737" lon="3.20577">
        <ele>32.050501</ele>
        <time>2021-06-11T14:23:32.515Z</time>
      </trkpt>
      <trkpt lat="50.67802" lon="3.20677">
        <ele>31.227205</ele>
        <time>2021-06-11T14:23:41.971Z</time>
      </trkpt>
      <trkpt lat="50.67814" lon="3.20698">
        <ele>31.255374</ele>
        <time>2021-06-11T14:23:44.334Z</time>
      </trkpt>
      <trkpt lat="50.6784" lon="3.20745">
        <ele>31.398758</ele>
        <time>2021-06-11T14:23:49.246Z</time>
      </trkpt>
      <trkpt lat="50.67846" lon="3.20754">
        <ele>31.428681</ele>
        <time>2021-06-11T14:23:50.099Z</time>
      </trkpt>
      <trkpt lat="50.67851" lon="3.20747">
        <ele>31.453066</ele>
        <time>2021-06-11T14:23:51.550Z</time>
      </trkpt>
      <trkpt lat="50.67855" lon="3.20743">
        <ele>31.470527</ele>
        <time>2021-06-11T14:23:52.564Z</time>
      </trkpt>
      <trkpt lat="50.67965" lon="3.20623">
        <ele>31.951857</ele>
        <time>2021-06-11T14:24:10.211Z</time>
      </trkpt>
      <trkpt lat="50.67967" lon="3.20621">
        <ele>31.959167</ele>
        <time>2021-06-11T14:24:11.100Z</time>
      </trkpt>
      <trkpt lat="50.67945" lon="3.20585">
        <ele>32.068366</ele>
        <time>2021-06-11T14:24:16.477Z</time>
      </trkpt>
      <trkpt lat="50.67894" lon="3.20504">
        <ele>32.324537</ele>
        <time>2021-06-11T14:24:28.873Z</time>
      </trkpt>
      <trkpt lat="50.67857" lon="3.20445">
        <ele>32.465416</ele>
        <time>2021-06-11T14:24:37.904Z</time>
      </trkpt>
      <trkpt lat="50.67838" lon="3.20475">
        <ele>32.408637</ele>
        <time>2021-06-11T14:25:01.579Z</time>
      </trkpt>
      <trkpt lat="50.67857" lon="3.20445">
        <ele>32.351858</ele>
        <time>2021-06-11T14:25:25.905Z</time>
      </trkpt>
      <trkpt lat="50.67894" lon="3.20504">
        <ele>32.241464</ele>
        <time>2021-06-11T14:25:33.891Z</time>
      </trkpt>
      <trkpt lat="50.67945" lon="3.20585">
        <ele>32.027559</ele>
        <time>2021-06-11T14:25:45.189Z</time>
      </trkpt>
      <trkpt lat="50.67967" lon="3.20621">
        <ele>31.693194</ele>
        <time>2021-06-11T14:25:49.945Z</time>
      </trkpt>
      <trkpt lat="50.67965" lon="3.20623">
        <ele>31.670809</ele>
        <time>2021-06-11T14:25:50.085Z</time>
      </trkpt>
      <trkpt lat="50.67855" lon="3.20743">
        <ele>30.228694</ele>
        <time>2021-06-11T14:26:02.935Z</time>
      </trkpt>
      <trkpt lat="50.67851" lon="3.20747">
        <ele>30.176687</ele>
        <time>2021-06-11T14:26:03.315Z</time>
      </trkpt>
      <trkpt lat="50.67846" lon="3.20754">
        <ele>30.126913</ele>
        <time>2021-06-11T14:26:03.849Z</time>
      </trkpt>
      <trkpt lat="50.67856" lon="3.20771">
        <ele>30.022363</ele>
        <time>2021-06-11T14:26:05.315Z</time>
      </trkpt>
      <trkpt lat="50.67889" lon="3.20814">
        <ele>29.725852</ele>
        <time>2021-06-11T14:26:09.380Z</time>
      </trkpt>
      <trkpt lat="50.67904" lon="3.20835">
        <ele>29.581521</ele>
        <time>2021-06-11T14:26:11.288Z</time>
      </trkpt>
      <trkpt lat="50.67922" lon="3.20862">
        <ele>29.410858</ele>
        <time>2021-06-11T14:26:13.669Z</time>
      </trkpt>
      <trkpt lat="50.67914" lon="3.20866">
        <ele>29.353181</ele>
        <time>2021-06-11T14:26:14.901Z</time>
      </trkpt>
      <trkpt lat="50.67906" lon="3.20868">
        <ele>29.297278</ele>
        <time>2021-06-11T14:26:16.151Z</time>
      </trkpt>
      <trkpt lat="50.67895" lon="3.20873">
        <ele>29.216618</ele>
        <time>2021-06-11T14:26:18.002Z</time>
      </trkpt>
      <trkpt lat="50.67889" lon="3.20874">
        <ele>29.172964</ele>
        <time>2021-06-11T14:26:18.760Z</time>
      </trkpt>
      <trkpt lat="50.67884" lon="3.20873">
        <ele>29.140622</ele>
        <time>2021-06-11T14:26:19.437Z</time>
      </trkpt>
      <trkpt lat="50.67877" lon="3.20871">
        <ele>29.092608</ele>
        <time>2021-06-11T14:26:20.508Z</time>
      </trkpt>
      <trkpt lat="50.67858" lon="3.20869">
        <ele>28.957587</ele>
        <time>2021-06-11T14:26:23.764Z</time>
      </trkpt>
      <trkpt lat="50.67702" lon="3.20858">
        <ele>30.981533</ele>
        <time>2021-06-11T14:26:56.265Z</time>
      </trkpt>
      <trkpt lat="50.677" lon="3.20858">
        <ele>31.009177</ele>
        <time>2021-06-11T14:26:56.843Z</time>
      </trkpt>
      <trkpt lat="50.67679" lon="3.20856">
        <ele>31.291494</ele>
        <time>2021-06-11T14:27:01.643Z</time>
      </trkpt>
      <trkpt lat="50.67669" lon="3.20853">
        <ele>31.438308</ele>
        <time>2021-06-11T14:27:04.159Z</time>
      </trkpt>
      <trkpt lat="50.67607" lon="3.20849">
        <ele>32.3556</ele>
        <time>2021-06-11T14:27:17.414Z</time>
      </trkpt>
      <trkpt lat="50.676" lon="3.20848">
        <ele>32.46599</ele>
        <time>2021-06-11T14:27:19.083Z</time>
      </trkpt>
      <trkpt lat="50.67539" lon="3.20842">
        <ele>33.379439</ele>
        <time>2021-06-11T14:27:31.450Z</time>
      </trkpt>
      <trkpt lat="50.67534" lon="3.20842">
        <ele>33.450955</ele>
        <time>2021-06-11T14:27:32.793Z</time>
      </trkpt>
      <trkpt lat="50.67536" lon="3.20858">
        <ele>33.603069</ele>
        <time>2021-06-11T14:27:34.977Z</time>
      </trkpt>
      <trkpt lat="50.67537" lon="3.20865">
        <ele>33.667436</ele>
        <time>2021-06-11T14:27:35.613Z</time>
      </trkpt>
      <trkpt lat="50.67538" lon="3.20883">
        <ele>33.838733</ele>
        <time>2021-06-11T14:27:37.787Z</time>
      </trkpt>
      <trkpt lat="50.67538" lon="3.20899">
        <ele>33.996461</ele>
        <time>2021-06-11T14:27:40.172Z</time>
      </trkpt>
      <trkpt lat="50.67538" lon="3.20922">
        <ele>34.100771</ele>
        <time>2021-06-11T14:27:42.913Z</time>
      </trkpt>
      <trkpt lat="50.67539" lon="3.20973">
        <ele>34.203414</ele>
        <time>2021-06-11T14:27:49.619Z</time>
      </trkpt>
      <trkpt lat="50.67539" lon="3.20983">
        <ele>34.221607</ele>
        <time>2021-06-11T14:27:50.517Z</time>
      </trkpt>
      <trkpt lat="50.67543" lon="3.21017">
        <ele>34.289571</ele>
        <time>2021-06-11T14:27:54.531Z</time>
      </trkpt>
      <trkpt lat="50.67542" lon="3.21019">
        <ele>34.294192</ele>
        <time>2021-06-11T14:27:54.762Z</time>
      </trkpt>
      <trkpt lat="50.67542" lon="3.21021">
        <ele>34.299596</ele>
        <time>2021-06-11T14:27:55.289Z</time>
      </trkpt>
      <trkpt lat="50.67535" lon="3.21029">
        <ele>34.324471</ele>
        <time>2021-06-11T14:27:56.373Z</time>
      </trkpt>
      <trkpt lat="50.67489" lon="3.21064">
        <ele>34.484004</ele>
        <time>2021-06-11T14:28:04.322Z</time>
      </trkpt>
      <trkpt lat="50.67484" lon="3.21068">
        <ele>34.502335</ele>
        <time>2021-06-11T14:28:05.186Z</time>
      </trkpt>
      <trkpt lat="50.67479" lon="3.21072">
        <ele>34.520783</ele>
        <time>2021-06-11T14:28:06.119Z</time>
      </trkpt>
      <trkpt lat="50.67445" lon="3.21098">
        <ele>34.629751</ele>
        <time>2021-06-11T14:28:12.000Z</time>
      </trkpt>
      <trkpt lat="50.67413" lon="3.21122">
        <ele>34.504849</ele>
        <time>2021-06-11T14:28:17.932Z</time>
      </trkpt>
      <trkpt lat="50.67365" lon="3.21157">
        <ele>34.319189</ele>
        <time>2021-06-11T14:28:26.217Z</time>
      </trkpt>
      <trkpt lat="50.6736" lon="3.21161">
        <ele>34.298009</ele>
        <time>2021-06-11T14:28:27.150Z</time>
      </trkpt>
      <trkpt lat="50.6735" lon="3.21169">
        <ele>34.259317</ele>
        <time>2021-06-11T14:28:28.931Z</time>
      </trkpt>
      <trkpt lat="50.67333" lon="3.21182">
        <ele>34.192135</ele>
        <time>2021-06-11T14:28:31.718Z</time>
      </trkpt>
      <trkpt lat="50.67247" lon="3.21246">
        <ele>33.745904</ele>
        <time>2021-06-11T14:28:45.446Z</time>
      </trkpt>
      <trkpt lat="50.67094" lon="3.21361">
        <ele>32.692966</ele>
        <time>2021-06-11T14:29:10.201Z</time>
      </trkpt>
      <trkpt lat="50.67071" lon="3.21379">
        <ele>32.523452</ele>
        <time>2021-06-11T14:29:13.999Z</time>
      </trkpt>
      <trkpt lat="50.67013" lon="3.21423">
        <ele>32.109779</ele>
        <time>2021-06-11T14:29:23.228Z</time>
      </trkpt>
      <trkpt lat="50.66971" lon="3.21454">
        <ele>31.81297</ele>
        <time>2021-06-11T14:29:29.876Z</time>
      </trkpt>
      <trkpt lat="50.66965" lon="3.21457">
        <ele>31.77201</ele>
        <time>2021-06-11T14:29:30.765Z</time>
      </trkpt>
      <trkpt lat="50.66967" lon="3.21467">
        <ele>31.73087</ele>
        <time>2021-06-11T14:29:31.460Z</time>
      </trkpt>
      <trkpt lat="50.66998" lon="3.216">
        <ele>31.304884</ele>
        <time>2021-06-11T14:29:40.872Z</time>
      </trkpt>
      <trkpt lat="50.67" lon="3.21608">
        <ele>31.279615</ele>
        <time>2021-06-11T14:29:41.438Z</time>
      </trkpt>
      <trkpt lat="50.66996" lon="3.21611">
        <ele>31.257665</ele>
        <time>2021-06-11T14:29:42.111Z</time>
      </trkpt>
      <trkpt lat="50.66929" lon="3.21659">
        <ele>30.909081</ele>
        <time>2021-06-11T14:29:53.322Z</time>
      </trkpt>
      <trkpt lat="50.66923" lon="3.21663">
        <ele>30.880967</ele>
        <time>2021-06-11T14:29:54.260Z</time>
      </trkpt>
      <trkpt lat="50.66927" lon="3.21678">
        <ele>30.852671</ele>
        <time>2021-06-11T14:29:55.855Z</time>
      </trkpt>
      <trkpt lat="50.66936" lon="3.21713">
        <ele>30.795786</ele>
        <time>2021-06-11T14:29:59.491Z</time>
      </trkpt>
      <trkpt lat="50.66942" lon="3.21736">
        <ele>30.758032</ele>
        <time>2021-06-11T14:30:01.924Z</time>
      </trkpt>
      <trkpt lat="50.66953" lon="3.21778">
        <ele>30.689273</ele>
        <time>2021-06-11T14:30:06.345Z</time>
      </trkpt>
      <trkpt lat="50.66955" lon="3.21786">
        <ele>30.67684</ele>
        <time>2021-06-11T14:30:07.269Z</time>
      </trkpt>
      <trkpt lat="50.66954" lon="3.21787">
        <ele>30.6743</ele>
        <time>2021-06-11T14:30:07.415Z</time>
      </trkpt>
      <trkpt lat="50.6695" lon="3.21799">
        <ele>30.65347</ele>
        <time>2021-06-11T14:30:08.805Z</time>
      </trkpt>
      <trkpt lat="50.6695" lon="3.21801">
        <ele>30.65096</ele>
        <time>2021-06-11T14:30:08.948Z</time>
      </trkpt>
      <trkpt lat="50.66943" lon="3.21803">
        <ele>30.633852</ele>
        <time>2021-06-11T14:30:09.999Z</time>
      </trkpt>
      <trkpt lat="50.66923" lon="3.21814">
        <ele>30.584114</ele>
        <time>2021-06-11T14:30:13.354Z</time>
      </trkpt>
      <trkpt lat="50.66872" lon="3.21859">
        <ele>30.445552</ele>
        <time>2021-06-11T14:30:22.444Z</time>
      </trkpt>
      <trkpt lat="50.66863" lon="3.21867">
        <ele>30.442939</ele>
        <time>2021-06-11T14:30:24.223Z</time>
      </trkpt>
      <trkpt lat="50.66857" lon="3.21873">
        <ele>30.441094</ele>
        <time>2021-06-11T14:30:25.067Z</time>
      </trkpt>
      <trkpt lat="50.66848" lon="3.21881">
        <ele>30.438631</ele>
        <time>2021-06-11T14:30:26.120Z</time>
      </trkpt>
      <trkpt lat="50.66837" lon="3.21891">
        <ele>30.435265</ele>
        <time>2021-06-11T14:30:27.670Z</time>
      </trkpt>
      <trkpt lat="50.66831" lon="3.21886">
        <ele>30.433653</ele>
        <time>2021-06-11T14:30:28.777Z</time>
      </trkpt>
      <trkpt lat="50.66812" lon="3.21903">
        <ele>30.428037</ele>
        <time>2021-06-11T14:30:32.197Z</time>
      </trkpt>
      <trkpt lat="50.66773" lon="3.21967">
        <ele>30.413573</ele>
        <time>2021-06-11T14:30:41.527Z</time>
      </trkpt>
      <trkpt lat="50.66734" lon="3.22104">
        <ele>30.346321</ele>
        <time>2021-06-11T14:30:57.054Z</time>
      </trkpt>
      <trkpt lat="50.66713" lon="3.22164">
        <ele>30.289812</ele>
        <time>2021-06-11T14:31:03.915Z</time>
      </trkpt>
      <trkpt lat="50.66681" lon="3.22188">
        <ele>30.243971</ele>
        <time>2021-06-11T14:31:09.447Z</time>
      </trkpt>
      <trkpt lat="50.66679" lon="3.22196">
        <ele>30.236936</ele>
        <time>2021-06-11T14:31:10.282Z</time>
      </trkpt>
      <trkpt lat="50.66674" lon="3.22233">
        <ele>30.205823</ele>
        <time>2021-06-11T14:31:14.026Z</time>
      </trkpt>
      <trkpt lat="50.66671" lon="3.2225">
        <ele>30.191058</ele>
        <time>2021-06-11T14:31:15.792Z</time>
      </trkpt>
      <trkpt lat="50.66676" lon="3.22259">
        <ele>30.181674</ele>
        <time>2021-06-11T14:31:16.877Z</time>
      </trkpt>
      <trkpt lat="50.66693" lon="3.223">
        <ele>30.164715</ele>
        <time>2021-06-11T14:31:21.770Z</time>
      </trkpt>
      <trkpt lat="50.66672" lon="3.22446">
        <ele>30.158952</ele>
        <time>2021-06-11T14:31:36.520Z</time>
      </trkpt>
      <trkpt lat="50.66634" lon="3.22642">
        <ele>30.515935</ele>
        <time>2021-06-11T14:31:59.010Z</time>
      </trkpt>
      <trkpt lat="50.66629" lon="3.22663">
        <ele>30.597043</ele>
        <time>2021-06-11T14:32:00.811Z</time>
      </trkpt>
      <trkpt lat="50.66626" lon="3.22672">
        <ele>30.632629</ele>
        <time>2021-06-11T14:32:01.605Z</time>
      </trkpt>
      <trkpt lat="50.66623" lon="3.22674">
        <ele>30.649445</ele>
        <time>2021-06-11T14:32:02.145Z</time>
      </trkpt>
      <trkpt lat="50.66601" lon="3.22683">
        <ele>30.780813</ele>
        <time>2021-06-11T14:32:05.022Z</time>
      </trkpt>
      <trkpt lat="50.66596" lon="3.22687">
        <ele>30.812585</ele>
        <time>2021-06-11T14:32:05.850Z</time>
      </trkpt>
      <trkpt lat="50.66585" lon="3.22695">
        <ele>30.881032</ele>
        <time>2021-06-11T14:32:07.570Z</time>
      </trkpt>
      <trkpt lat="50.66579" lon="3.22699">
        <ele>30.914854</ele>
        <time>2021-06-11T14:32:08.393Z</time>
      </trkpt>
      <trkpt lat="50.6656" lon="3.22714">
        <ele>31.034093</ele>
        <time>2021-06-11T14:32:11.289Z</time>
      </trkpt>
      <trkpt lat="50.66509" lon="3.22753">
        <ele>31.678008</ele>
        <time>2021-06-11T14:32:20.343Z</time>
      </trkpt>
      <trkpt lat="50.66499" lon="3.22762">
        <ele>31.854107</ele>
        <time>2021-06-11T14:32:22.035Z</time>
      </trkpt>
      <trkpt lat="50.66492" lon="3.22771">
        <ele>31.993814</ele>
        <time>2021-06-11T14:32:23.725Z</time>
      </trkpt>
      <trkpt lat="50.66482" lon="3.22783">
        <ele>32.195193</ele>
        <time>2021-06-11T14:32:25.804Z</time>
      </trkpt>
      <trkpt lat="50.66477" lon="3.22787">
        <ele>32.274261</ele>
        <time>2021-06-11T14:32:26.638Z</time>
      </trkpt>
      <trkpt lat="50.66464" lon="3.22789">
        <ele>32.471719</ele>
        <time>2021-06-11T14:32:28.613Z</time>
      </trkpt>
      <trkpt lat="50.6646" lon="3.22787">
        <ele>32.539562</ele>
        <time>2021-06-11T14:32:29.426Z</time>
      </trkpt>
      <trkpt lat="50.66459" lon="3.22786">
        <ele>32.558334</ele>
        <time>2021-06-11T14:32:29.710Z</time>
      </trkpt>
      <trkpt lat="50.66458" lon="3.22785">
        <ele>32.578794</ele>
        <time>2021-06-11T14:32:29.972Z</time>
      </trkpt>
      <trkpt lat="50.66457" lon="3.22785">
        <ele>32.59965</ele>
        <time>2021-06-11T14:32:30.237Z</time>
      </trkpt>
      <trkpt lat="50.66455" lon="3.22784">
        <ele>32.619763</ele>
        <time>2021-06-11T14:32:30.502Z</time>
      </trkpt>
      <trkpt lat="50.66449" lon="3.2279">
        <ele>32.737879</ele>
        <time>2021-06-11T14:32:31.843Z</time>
      </trkpt>
      <trkpt lat="50.66448" lon="3.22792">
        <ele>32.75849</ele>
        <time>2021-06-11T14:32:32.083Z</time>
      </trkpt>
      <trkpt lat="50.66448" lon="3.22793">
        <ele>32.774776</ele>
        <time>2021-06-11T14:32:32.247Z</time>
      </trkpt>
      <trkpt lat="50.66445" lon="3.22797">
        <ele>32.831017</ele>
        <time>2021-06-11T14:32:32.884Z</time>
      </trkpt>
      <trkpt lat="50.66437" lon="3.22806">
        <ele>32.975491</ele>
        <time>2021-06-11T14:32:34.211Z</time>
      </trkpt>
      <trkpt lat="50.66433" lon="3.2281">
        <ele>33.048943</ele>
        <time>2021-06-11T14:32:34.962Z</time>
      </trkpt>
      <trkpt lat="50.66428" lon="3.22815">
        <ele>33.147212</ele>
        <time>2021-06-11T14:32:36.274Z</time>
      </trkpt>
      <trkpt lat="50.66326" lon="3.22873">
        <ele>34.989754</ele>
        <time>2021-06-11T14:32:55.850Z</time>
      </trkpt>
      <trkpt lat="50.66316" lon="3.22877">
        <ele>35.177257</ele>
        <time>2021-06-11T14:32:57.874Z</time>
      </trkpt>
      <trkpt lat="50.66293" lon="3.22891">
        <ele>35.626815</ele>
        <time>2021-06-11T14:33:02.659Z</time>
      </trkpt>
      <trkpt lat="50.66264" lon="3.22907">
        <ele>36.212058</ele>
        <time>2021-06-11T14:33:08.268Z</time>
      </trkpt>
      <trkpt lat="50.66258" lon="3.2291">
        <ele>36.326698</ele>
        <time>2021-06-11T14:33:09.404Z</time>
      </trkpt>
      <trkpt lat="50.66234" lon="3.22922">
        <ele>36.788799</ele>
        <time>2021-06-11T14:33:13.796Z</time>
      </trkpt>
      <trkpt lat="50.66204" lon="3.22935">
        <ele>37.274083</ele>
        <time>2021-06-11T14:33:18.861Z</time>
      </trkpt>
      <trkpt lat="50.66182" lon="3.22943">
        <ele>37.334504</ele>
        <time>2021-06-11T14:33:22.237Z</time>
      </trkpt>
      <trkpt lat="50.66171" lon="3.22946">
        <ele>37.365955</ele>
        <time>2021-06-11T14:33:24.228Z</time>
      </trkpt>
      <trkpt lat="50.66157" lon="3.22948">
        <ele>37.403155</ele>
        <time>2021-06-11T14:33:25.900Z</time>
      </trkpt>
      <trkpt lat="50.6615" lon="3.22948">
        <ele>37.421947</ele>
        <time>2021-06-11T14:33:26.977Z</time>
      </trkpt>
      <trkpt lat="50.66146" lon="3.22947">
        <ele>37.431299</ele>
        <time>2021-06-11T14:33:27.537Z</time>
      </trkpt>
      <trkpt lat="50.66145" lon="3.22946">
        <ele>37.434795</ele>
        <time>2021-06-11T14:33:27.755Z</time>
      </trkpt>
      <trkpt lat="50.66144" lon="3.22945">
        <ele>37.437979</ele>
        <time>2021-06-11T14:33:27.955Z</time>
      </trkpt>
      <trkpt lat="50.66143" lon="3.22944">
        <ele>37.441571</ele>
        <time>2021-06-11T14:33:28.177Z</time>
      </trkpt>
      <trkpt lat="50.66142" lon="3.22944">
        <ele>37.445077</ele>
        <time>2021-06-11T14:33:28.374Z</time>
      </trkpt>
      <trkpt lat="50.66133" lon="3.22955">
        <ele>37.473752</ele>
        <time>2021-06-11T14:33:29.837Z</time>
      </trkpt>
      <trkpt lat="50.66133" lon="3.22957">
        <ele>37.477336</ele>
        <time>2021-06-11T14:33:30.009Z</time>
      </trkpt>
      <trkpt lat="50.66133" lon="3.22959">
        <ele>37.480739</ele>
        <time>2021-06-11T14:33:30.153Z</time>
      </trkpt>
      <trkpt lat="50.66134" lon="3.22961">
        <ele>37.484236</ele>
        <time>2021-06-11T14:33:30.300Z</time>
      </trkpt>
      <trkpt lat="50.66134" lon="3.22967">
        <ele>37.494365</ele>
        <time>2021-06-11T14:33:30.634Z</time>
      </trkpt>
      <trkpt lat="50.66133" lon="3.22993">
        <ele>37.538673</ele>
        <time>2021-06-11T14:33:33.142Z</time>
      </trkpt>
      <trkpt lat="50.66131" lon="3.23026">
        <ele>37.595543</ele>
        <time>2021-06-11T14:33:35.444Z</time>
      </trkpt>
      <trkpt lat="50.6612" lon="3.23128">
        <ele>37.676289</ele>
        <time>2021-06-11T14:33:42.356Z</time>
      </trkpt>
      <trkpt lat="50.66119" lon="3.23189">
        <ele>37.435388</ele>
        <time>2021-06-11T14:33:45.995Z</time>
      </trkpt>
      <trkpt lat="50.66123" lon="3.23228">
        <ele>37.277363</ele>
        <time>2021-06-11T14:33:48.545Z</time>
      </trkpt>
      <trkpt lat="50.66124" lon="3.23244">
        <ele>37.214973</ele>
        <time>2021-06-11T14:33:49.506Z</time>
      </trkpt>
      <trkpt lat="50.66125" lon="3.23256">
        <ele>37.165155</ele>
        <time>2021-06-11T14:33:50.258Z</time>
      </trkpt>
      <trkpt lat="50.66125" lon="3.23261">
        <ele>37.146107</ele>
        <time>2021-06-11T14:33:50.531Z</time>
      </trkpt>
      <trkpt lat="50.66124" lon="3.23293">
        <ele>37.020817</ele>
        <time>2021-06-11T14:33:52.982Z</time>
      </trkpt>
      <trkpt lat="50.66123" lon="3.23302">
        <ele>36.985222</ele>
        <time>2021-06-11T14:33:53.531Z</time>
      </trkpt>
      <trkpt lat="50.66123" lon="3.23312">
        <ele>36.946009</ele>
        <time>2021-06-11T14:33:54.150Z</time>
      </trkpt>
      <trkpt lat="50.66116" lon="3.23382">
        <ele>36.663918</ele>
        <time>2021-06-11T14:33:59.104Z</time>
      </trkpt>
      <trkpt lat="50.66114" lon="3.23392">
        <ele>36.621553</ele>
        <time>2021-06-11T14:34:00.052Z</time>
      </trkpt>
      <trkpt lat="50.66112" lon="3.23406">
        <ele>36.589865</ele>
        <time>2021-06-11T14:34:01.113Z</time>
      </trkpt>
      <trkpt lat="50.66108" lon="3.23429">
        <ele>36.535916</ele>
        <time>2021-06-11T14:34:02.752Z</time>
      </trkpt>
      <trkpt lat="50.66107" lon="3.23436">
        <ele>36.52067</ele>
        <time>2021-06-11T14:34:03.272Z</time>
      </trkpt>
      <trkpt lat="50.66104" lon="3.23449">
        <ele>36.489968</ele>
        <time>2021-06-11T14:34:04.465Z</time>
      </trkpt>
      <trkpt lat="50.66045" lon="3.23607">
        <ele>36.081847</ele>
        <time>2021-06-11T14:34:17.252Z</time>
      </trkpt>
      <trkpt lat="50.66041" lon="3.23617">
        <ele>36.056726</ele>
        <time>2021-06-11T14:34:18.147Z</time>
      </trkpt>
      <trkpt lat="50.66039" lon="3.23629">
        <ele>36.028118</ele>
        <time>2021-06-11T14:34:18.965Z</time>
      </trkpt>
      <trkpt lat="50.66038" lon="3.23632">
        <ele>36.020179</ele>
        <time>2021-06-11T14:34:19.210Z</time>
      </trkpt>
      <trkpt lat="50.66033" lon="3.23654">
        <ele>35.921751</ele>
        <time>2021-06-11T14:34:20.819Z</time>
      </trkpt>
      <trkpt lat="50.66031" lon="3.23664">
        <ele>35.833516</ele>
        <time>2021-06-11T14:34:21.492Z</time>
      </trkpt>
      <trkpt lat="50.66021" lon="3.23691">
        <ele>35.59437</ele>
        <time>2021-06-11T14:34:23.498Z</time>
      </trkpt>
      <trkpt lat="50.65999" lon="3.23736">
        <ele>35.148135</ele>
        <time>2021-06-11T14:34:27.029Z</time>
      </trkpt>
      <trkpt lat="50.65943" lon="3.23846">
        <ele>34.040213</ele>
        <time>2021-06-11T14:34:35.298Z</time>
      </trkpt>
      <trkpt lat="50.65914" lon="3.23905">
        <ele>33.367543</ele>
        <time>2021-06-11T14:34:39.497Z</time>
      </trkpt>
      <trkpt lat="50.6591" lon="3.23913">
        <ele>33.259265</ele>
        <time>2021-06-11T14:34:40.108Z</time>
      </trkpt>
      <trkpt lat="50.65872" lon="3.23989">
        <ele>32.267271</ele>
        <time>2021-06-11T14:34:45.717Z</time>
      </trkpt>
      <trkpt lat="50.65864" lon="3.24007">
        <ele>32.036582</ele>
        <time>2021-06-11T14:34:47.066Z</time>
      </trkpt>
      <trkpt lat="50.65858" lon="3.24013">
        <ele>31.923065</ele>
        <time>2021-06-11T14:34:48.018Z</time>
      </trkpt>
      <trkpt lat="50.65851" lon="3.24021">
        <ele>31.78327</ele>
        <time>2021-06-11T14:34:49.113Z</time>
      </trkpt>
      <trkpt lat="50.65844" lon="3.24023">
        <ele>31.676686</ele>
        <time>2021-06-11T14:34:49.658Z</time>
      </trkpt>
      <trkpt lat="50.65765" lon="3.241">
        <ele>30.250419</ele>
        <time>2021-06-11T14:34:58.252Z</time>
      </trkpt>
      <trkpt lat="50.65755" lon="3.24111">
        <ele>30.07612</ele>
        <time>2021-06-11T14:34:59.322Z</time>
      </trkpt>
      <trkpt lat="50.65746" lon="3.24121">
        <ele>29.92717</ele>
        <time>2021-06-11T14:35:00.279Z</time>
      </trkpt>
      <trkpt lat="50.65742" lon="3.24126">
        <ele>29.847746</ele>
        <time>2021-06-11T14:35:00.830Z</time>
      </trkpt>
      <trkpt lat="50.65734" lon="3.24137">
        <ele>29.696039</ele>
        <time>2021-06-11T14:35:01.858Z</time>
      </trkpt>
      <trkpt lat="50.65721" lon="3.24152">
        <ele>29.477721</ele>
        <time>2021-06-11T14:35:03.192Z</time>
      </trkpt>
      <trkpt lat="50.65542" lon="3.24344">
        <ele>26.930018</ele>
        <time>2021-06-11T14:35:23.941Z</time>
      </trkpt>
      <trkpt lat="50.65517" lon="3.24371">
        <ele>26.619769</ele>
        <time>2021-06-11T14:35:26.981Z</time>
      </trkpt>
      <trkpt lat="50.65503" lon="3.24387">
        <ele>26.446211</ele>
        <time>2021-06-11T14:35:28.783Z</time>
      </trkpt>
      <trkpt lat="50.65317" lon="3.24582">
        <ele>25.90108</ele>
        <time>2021-06-11T14:35:53.135Z</time>
      </trkpt>
      <trkpt lat="50.65285" lon="3.24616">
        <ele>26.012121</ele>
        <time>2021-06-11T14:35:58.253Z</time>
      </trkpt>
      <trkpt lat="50.6528" lon="3.24622">
        <ele>26.030354</ele>
        <time>2021-06-11T14:35:59.146Z</time>
      </trkpt>
      <trkpt lat="50.65256" lon="3.2465">
        <ele>26.113738</ele>
        <time>2021-06-11T14:36:04.296Z</time>
      </trkpt>
      <trkpt lat="50.6523" lon="3.24687">
        <ele>26.213541</ele>
        <time>2021-06-11T14:36:10.589Z</time>
      </trkpt>
      <trkpt lat="50.65225" lon="3.24696">
        <ele>26.235984</ele>
        <time>2021-06-11T14:36:12.071Z</time>
      </trkpt>
      <trkpt lat="50.65212" lon="3.24726">
        <ele>26.324446</ele>
        <time>2021-06-11T14:36:15.323Z</time>
      </trkpt>
      <trkpt lat="50.65158" lon="3.24845">
        <ele>26.928927</ele>
        <time>2021-06-11T14:36:28.690Z</time>
      </trkpt>
      <trkpt lat="50.65115" lon="3.2493">
        <ele>27.379372</ele>
        <time>2021-06-11T14:36:38.429Z</time>
      </trkpt>
      <trkpt lat="50.65109" lon="3.24938">
        <ele>27.431196</ele>
        <time>2021-06-11T14:36:39.482Z</time>
      </trkpt>
      <trkpt lat="50.65082" lon="3.24989">
        <ele>27.519943</ele>
        <time>2021-06-11T14:36:44.790Z</time>
      </trkpt>
      <trkpt lat="50.65076" lon="3.25005">
        <ele>27.539498</ele>
        <time>2021-06-11T14:36:46.319Z</time>
      </trkpt>
      <trkpt lat="50.65057" lon="3.25045">
        <ele>27.589745</ele>
        <time>2021-06-11T14:36:50.210Z</time>
      </trkpt>
      <trkpt lat="50.65044" lon="3.2507">
        <ele>27.622481</ele>
        <time>2021-06-11T14:36:52.570Z</time>
      </trkpt>
      <trkpt lat="50.65035" lon="3.25079">
        <ele>27.639006</ele>
        <time>2021-06-11T14:36:53.868Z</time>
      </trkpt>
      <trkpt lat="50.6501" lon="3.25126">
        <ele>27.701543</ele>
        <time>2021-06-11T14:36:58.563Z</time>
      </trkpt>
      <trkpt lat="50.64995" lon="3.25154">
        <ele>27.738083</ele>
        <time>2021-06-11T14:37:01.231Z</time>
      </trkpt>
      <trkpt lat="50.64977" lon="3.25241">
        <ele>27.919377</ele>
        <time>2021-06-11T14:37:08.438Z</time>
      </trkpt>
      <trkpt lat="50.64979" lon="3.25248">
        <ele>27.936964</ele>
        <time>2021-06-11T14:37:08.975Z</time>
      </trkpt>
      <trkpt lat="50.64969" lon="3.25291">
        <ele>28.033725</ele>
        <time>2021-06-11T14:37:12.951Z</time>
      </trkpt>
      <trkpt lat="50.64933" lon="3.25427">
        <ele>28.341793</ele>
        <time>2021-06-11T14:37:25.253Z</time>
      </trkpt>
      <trkpt lat="50.64919" lon="3.25497">
        <ele>28.534906</ele>
        <time>2021-06-11T14:37:31.731Z</time>
      </trkpt>
      <trkpt lat="50.64914" lon="3.25529">
        <ele>28.623194</ele>
        <time>2021-06-11T14:37:34.704Z</time>
      </trkpt>
      <trkpt lat="50.64897" lon="3.25626">
        <ele>28.886022</ele>
        <time>2021-06-11T14:37:43.352Z</time>
      </trkpt>
      <trkpt lat="50.64879" lon="3.25756">
        <ele>28.993735</ele>
        <time>2021-06-11T14:37:53.809Z</time>
      </trkpt>
      <trkpt lat="50.64866" lon="3.25866">
        <ele>28.801721</ele>
        <time>2021-06-11T14:38:01.514Z</time>
      </trkpt>
      <trkpt lat="50.64852" lon="3.25979">
        <ele>28.605334</ele>
        <time>2021-06-11T14:38:09.362Z</time>
      </trkpt>
      <trkpt lat="50.64839" lon="3.261">
        <ele>28.323281</ele>
        <time>2021-06-11T14:38:17.749Z</time>
      </trkpt>
      <trkpt lat="50.6483" lon="3.26176">
        <ele>28.14527</ele>
        <time>2021-06-11T14:38:23.053Z</time>
      </trkpt>
      <trkpt lat="50.64826" lon="3.26212">
        <ele>28.060438</ele>
        <time>2021-06-11T14:38:25.594Z</time>
      </trkpt>
      <trkpt lat="50.64824" lon="3.2623">
        <ele>28.018166</ele>
        <time>2021-06-11T14:38:26.892Z</time>
      </trkpt>
      <trkpt lat="50.64819" lon="3.26254">
        <ele>27.960699</ele>
        <time>2021-06-11T14:38:28.586Z</time>
      </trkpt>
      <trkpt lat="50.64808" lon="3.26366">
        <ele>27.854536</ele>
        <time>2021-06-11T14:38:36.835Z</time>
      </trkpt>
      <trkpt lat="50.64793" lon="3.26414">
        <ele>27.807759</ele>
        <time>2021-06-11T14:38:40.775Z</time>
      </trkpt>
      <trkpt lat="50.64781" lon="3.26438">
        <ele>27.781086</ele>
        <time>2021-06-11T14:38:43.057Z</time>
      </trkpt>
      <trkpt lat="50.64759" lon="3.26468">
        <ele>27.740521</ele>
        <time>2021-06-11T14:38:46.403Z</time>
      </trkpt>
      <trkpt lat="50.64745" lon="3.26488">
        <ele>27.714915</ele>
        <time>2021-06-11T14:38:48.594Z</time>
      </trkpt>
      <trkpt lat="50.64726" lon="3.2652">
        <ele>27.698893</ele>
        <time>2021-06-11T14:38:51.911Z</time>
      </trkpt>
      <trkpt lat="50.64712" lon="3.26549">
        <ele>27.695695</ele>
        <time>2021-06-11T14:38:54.661Z</time>
      </trkpt>
      <trkpt lat="50.64696" lon="3.26599">
        <ele>27.690873</ele>
        <time>2021-06-11T14:38:58.844Z</time>
      </trkpt>
      <trkpt lat="50.64696" lon="3.26613">
        <ele>27.689586</ele>
        <time>2021-06-11T14:38:59.960Z</time>
      </trkpt>
      <trkpt lat="50.64674" lon="3.26729">
        <ele>27.679084</ele>
        <time>2021-06-11T14:39:08.934Z</time>
      </trkpt>
      <trkpt lat="50.64656" lon="3.26801">
        <ele>27.848978</ele>
        <time>2021-06-11T14:39:14.752Z</time>
      </trkpt>
      <trkpt lat="50.6464" lon="3.26847">
        <ele>28.027863</ele>
        <time>2021-06-11T14:39:19.129Z</time>
      </trkpt>
      <trkpt lat="50.64617" lon="3.26908">
        <ele>28.271214</ele>
        <time>2021-06-11T14:39:25.427Z</time>
      </trkpt>
      <trkpt lat="50.64594" lon="3.26973">
        <ele>28.524241</ele>
        <time>2021-06-11T14:39:31.945Z</time>
      </trkpt>
      <trkpt lat="50.64572" lon="3.27013">
        <ele>28.750257</ele>
        <time>2021-06-11T14:39:36.931Z</time>
      </trkpt>
      <trkpt lat="50.64554" lon="3.27042">
        <ele>28.984849</ele>
        <time>2021-06-11T14:39:40.821Z</time>
      </trkpt>
      <trkpt lat="50.64531" lon="3.2708">
        <ele>29.295562</ele>
        <time>2021-06-11T14:39:45.969Z</time>
      </trkpt>
      <trkpt lat="50.64488" lon="3.27153">
        <ele>29.882489</ele>
        <time>2021-06-11T14:39:55.727Z</time>
      </trkpt>
      <trkpt lat="50.64467" lon="3.27189">
        <ele>30.167869</ele>
        <time>2021-06-11T14:40:00.455Z</time>
      </trkpt>
      <trkpt lat="50.64456" lon="3.27215">
        <ele>30.323952</ele>
        <time>2021-06-11T14:40:03.403Z</time>
      </trkpt>
      <trkpt lat="50.64408" lon="3.27343">
        <ele>30.487456</ele>
        <time>2021-06-11T14:40:15.464Z</time>
      </trkpt>
      <trkpt lat="50.64395" lon="3.27383">
        <ele>30.537235</ele>
        <time>2021-06-11T14:40:18.983Z</time>
      </trkpt>
      <trkpt lat="50.64387" lon="3.27417">
        <ele>30.576553</ele>
        <time>2021-06-11T14:40:21.555Z</time>
      </trkpt>
      <trkpt lat="50.64386" lon="3.27445">
        <ele>30.607292</ele>
        <time>2021-06-11T14:40:23.555Z</time>
      </trkpt>
      <trkpt lat="50.64388" lon="3.27479">
        <ele>30.592046</ele>
        <time>2021-06-11T14:40:25.869Z</time>
      </trkpt>
      <trkpt lat="50.64395" lon="3.27526">
        <ele>30.471905</ele>
        <time>2021-06-11T14:40:29.290Z</time>
      </trkpt>
      <trkpt lat="50.644" lon="3.27573">
        <ele>30.35549</ele>
        <time>2021-06-11T14:40:32.602Z</time>
      </trkpt>
      <trkpt lat="50.64403" lon="3.27617">
        <ele>30.246979</ele>
        <time>2021-06-11T14:40:35.658Z</time>
      </trkpt>
      <trkpt lat="50.64404" lon="3.2763">
        <ele>30.214646</ele>
        <time>2021-06-11T14:40:36.558Z</time>
      </trkpt>
      <trkpt lat="50.64405" lon="3.27669">
        <ele>30.11793</ele>
        <time>2021-06-11T14:40:39.232Z</time>
      </trkpt>
      <trkpt lat="50.64406" lon="3.27699">
        <ele>30.044741</ele>
        <time>2021-06-11T14:40:41.248Z</time>
      </trkpt>
      <trkpt lat="50.64407" lon="3.27713">
        <ele>30.010598</ele>
        <time>2021-06-11T14:40:42.153Z</time>
      </trkpt>
      <trkpt lat="50.64409" lon="3.27769">
        <ele>29.854893</ele>
        <time>2021-06-11T14:40:45.951Z</time>
      </trkpt>
      <trkpt lat="50.64412" lon="3.27815">
        <ele>29.704735</ele>
        <time>2021-06-11T14:40:49.145Z</time>
      </trkpt>
      <trkpt lat="50.6442" lon="3.27927">
        <ele>29.342994</ele>
        <time>2021-06-11T14:40:56.670Z</time>
      </trkpt>
      <trkpt lat="50.64417" lon="3.2793">
        <ele>29.326457</ele>
        <time>2021-06-11T14:40:57.137Z</time>
      </trkpt>
      <trkpt lat="50.64416" lon="3.27931">
        <ele>29.320272</ele>
        <time>2021-06-11T14:40:57.298Z</time>
      </trkpt>
      <trkpt lat="50.64409" lon="3.27941">
        <ele>29.273753</ele>
        <time>2021-06-11T14:40:58.677Z</time>
      </trkpt>
      <trkpt lat="50.644" lon="3.27964">
        <ele>29.18735</ele>
        <time>2021-06-11T14:41:01.239Z</time>
      </trkpt>
      <trkpt lat="50.64381" lon="3.28008">
        <ele>29.01578</ele>
        <time>2021-06-11T14:41:06.328Z</time>
      </trkpt>
      <trkpt lat="50.6436" lon="3.28058">
        <ele>28.868416</ele>
        <time>2021-06-11T14:41:12.001Z</time>
      </trkpt>
      <trkpt lat="50.64349" lon="3.28052">
        <ele>28.824353</ele>
        <time>2021-06-11T14:41:13.678Z</time>
      </trkpt>
      <trkpt lat="50.64335" lon="3.28046">
        <ele>28.766828</ele>
        <time>2021-06-11T14:41:15.958Z</time>
      </trkpt>
      <trkpt lat="50.6433" lon="3.28045">
        <ele>28.750022</ele>
        <time>2021-06-11T14:41:16.578Z</time>
      </trkpt>
      <trkpt lat="50.64307" lon="3.28036">
        <ele>28.658995</ele>
        <time>2021-06-11T14:41:20.127Z</time>
      </trkpt>
      <trkpt lat="50.64269" lon="3.28027">
        <ele>28.509761</ele>
        <time>2021-06-11T14:41:25.959Z</time>
      </trkpt>
      <trkpt lat="50.64252" lon="3.28022">
        <ele>28.443089</ele>
        <time>2021-06-11T14:41:28.573Z</time>
      </trkpt>
      <trkpt lat="50.64246" lon="3.2804">
        <ele>28.392599</ele>
        <time>2021-06-11T14:41:30.544Z</time>
      </trkpt>
      <trkpt lat="50.64236" lon="3.28057">
        <ele>28.336049</ele>
        <time>2021-06-11T14:41:32.793Z</time>
      </trkpt>
      <trkpt lat="50.64154" lon="3.28216">
        <ele>28.121875</ele>
        <time>2021-06-11T14:41:53.267Z</time>
      </trkpt>
      <trkpt lat="50.64153" lon="3.28219">
        <ele>28.117636</ele>
        <time>2021-06-11T14:41:53.689Z</time>
      </trkpt>
      <trkpt lat="50.64227" lon="3.28313">
        <ele>27.93769</ele>
        <time>2021-06-11T14:42:04.604Z</time>
      </trkpt>
      <trkpt lat="50.64251" lon="3.28341">
        <ele>27.870274</ele>
        <time>2021-06-11T14:42:07.940Z</time>
      </trkpt>
      <trkpt lat="50.64267" lon="3.28347">
        <ele>27.832616</ele>
        <time>2021-06-11T14:42:09.820Z</time>
      </trkpt>
      <trkpt lat="50.64291" lon="3.28353">
        <ele>27.778478</ele>
        <time>2021-06-11T14:42:12.544Z</time>
      </trkpt>
      <trkpt lat="50.64304" lon="3.28358">
        <ele>27.747731</ele>
        <time>2021-06-11T14:42:14.079Z</time>
      </trkpt>
      <trkpt lat="50.64311" lon="3.28366">
        <ele>27.728873</ele>
        <time>2021-06-11T14:42:14.988Z</time>
      </trkpt>
      <trkpt lat="50.64316" lon="3.28373">
        <ele>27.713278</ele>
        <time>2021-06-11T14:42:15.806Z</time>
      </trkpt>
      <trkpt lat="50.64318" lon="3.28376">
        <ele>27.707014</ele>
        <time>2021-06-11T14:42:16.133Z</time>
      </trkpt>
      <trkpt lat="50.64335" lon="3.28404">
        <ele>27.651546</ele>
        <time>2021-06-11T14:42:18.847Z</time>
      </trkpt>
      <trkpt lat="50.64366" lon="3.28457">
        <ele>27.528593</ele>
        <time>2021-06-11T14:42:23.899Z</time>
      </trkpt>
      <trkpt lat="50.64401" lon="3.28519">
        <ele>27.381833</ele>
        <time>2021-06-11T14:42:29.746Z</time>
      </trkpt>
      <trkpt lat="50.64412" lon="3.28526">
        <ele>27.349824</ele>
        <time>2021-06-11T14:42:30.959Z</time>
      </trkpt>
      <trkpt lat="50.64407" lon="3.28529">
        <ele>27.335422</ele>
        <time>2021-06-11T14:42:31.541Z</time>
      </trkpt>
      <trkpt lat="50.64405" lon="3.28541">
        <ele>27.313691</ele>
        <time>2021-06-11T14:42:32.397Z</time>
      </trkpt>
      <trkpt lat="50.64402" lon="3.28554">
        <ele>27.289016</ele>
        <time>2021-06-11T14:42:33.383Z</time>
      </trkpt>
      <trkpt lat="50.64399" lon="3.28576">
        <ele>27.249437</ele>
        <time>2021-06-11T14:42:34.900Z</time>
      </trkpt>
      <trkpt lat="50.64398" lon="3.28583">
        <ele>27.236302</ele>
        <time>2021-06-11T14:42:35.445Z</time>
      </trkpt>
      <trkpt lat="50.644" lon="3.2859">
        <ele>27.223541</ele>
        <time>2021-06-11T14:42:35.951Z</time>
      </trkpt>
      <trkpt lat="50.64393" lon="3.28729">
        <ele>27.014273</ele>
        <time>2021-06-11T14:42:46.084Z</time>
      </trkpt>
      <trkpt lat="50.64391" lon="3.28748">
        <ele>26.987588</ele>
        <time>2021-06-11T14:42:47.490Z</time>
      </trkpt>
      <trkpt lat="50.64391" lon="3.2875">
        <ele>26.985394</ele>
        <time>2021-06-11T14:42:47.621Z</time>
      </trkpt>
      <trkpt lat="50.64389" lon="3.28764">
        <ele>26.965683</ele>
        <time>2021-06-11T14:42:48.692Z</time>
      </trkpt>
      <trkpt lat="50.64384" lon="3.28781">
        <ele>26.941023</ele>
        <time>2021-06-11T14:42:50.024Z</time>
      </trkpt>
      <trkpt lat="50.64379" lon="3.2879">
        <ele>26.925476</ele>
        <time>2021-06-11T14:42:50.841Z</time>
      </trkpt>
      <trkpt lat="50.64377" lon="3.28795">
        <ele>26.91657</ele>
        <time>2021-06-11T14:42:51.333Z</time>
      </trkpt>
      <trkpt lat="50.643" lon="3.28928">
        <ele>26.552782</ele>
        <time>2021-06-11T14:43:04.184Z</time>
      </trkpt>
      <trkpt lat="50.64261" lon="3.28997">
        <ele>26.227904</ele>
        <time>2021-06-11T14:43:10.581Z</time>
      </trkpt>
      <trkpt lat="50.64251" lon="3.29012">
        <ele>26.150897</ele>
        <time>2021-06-11T14:43:12.030Z</time>
      </trkpt>
      <trkpt lat="50.6422" lon="3.29067">
        <ele>25.892105</ele>
        <time>2021-06-11T14:43:16.807Z</time>
      </trkpt>
      <trkpt lat="50.6421" lon="3.29085">
        <ele>25.809708</ele>
        <time>2021-06-11T14:43:18.237Z</time>
      </trkpt>
      <trkpt lat="50.64162" lon="3.29168">
        <ele>24.952554</ele>
        <time>2021-06-11T14:43:25.169Z</time>
      </trkpt>
      <trkpt lat="50.64156" lon="3.29178">
        <ele>24.833387</ele>
        <time>2021-06-11T14:43:26.031Z</time>
      </trkpt>
      <trkpt lat="50.64149" lon="3.2919">
        <ele>24.699877</ele>
        <time>2021-06-11T14:43:27.090Z</time>
      </trkpt>
      <trkpt lat="50.64137" lon="3.29213">
        <ele>24.45409</ele>
        <time>2021-06-11T14:43:28.851Z</time>
      </trkpt>
      <trkpt lat="50.64084" lon="3.29303">
        <ele>23.43874</ele>
        <time>2021-06-11T14:43:35.972Z</time>
      </trkpt>
      <trkpt lat="50.64059" lon="3.29347">
        <ele>23.000006</ele>
        <time>2021-06-11T14:43:39.354Z</time>
      </trkpt>
      <trkpt lat="50.64043" lon="3.29374">
        <ele>22.728873</ele>
        <time>2021-06-11T14:43:41.466Z</time>
      </trkpt>
      <trkpt lat="50.64011" lon="3.29432">
        <ele>22.161657</ele>
        <time>2021-06-11T14:43:45.936Z</time>
      </trkpt>
      <trkpt lat="50.63945" lon="3.29544">
        <ele>21.469255</ele>
        <time>2021-06-11T14:43:55.907Z</time>
      </trkpt>
      <trkpt lat="50.63944" lon="3.29547">
        <ele>21.483208</ele>
        <time>2021-06-11T14:43:56.161Z</time>
      </trkpt>
      <trkpt lat="50.63912" lon="3.29602">
        <ele>21.768717</ele>
        <time>2021-06-11T14:44:02.344Z</time>
      </trkpt>
      <trkpt lat="50.63835" lon="3.29733">
        <ele>22.438889</ele>
        <time>2021-06-11T14:44:19.963Z</time>
      </trkpt>
      <trkpt lat="50.63812" lon="3.29774">
        <ele>22.566146</ele>
        <time>2021-06-11T14:44:25.476Z</time>
      </trkpt>
      <trkpt lat="50.63789" lon="3.29816">
        <ele>22.694995</ele>
        <time>2021-06-11T14:44:30.949Z</time>
      </trkpt>
      <trkpt lat="50.63786" lon="3.29821">
        <ele>22.710192</ele>
        <time>2021-06-11T14:44:31.544Z</time>
      </trkpt>
      <trkpt lat="50.63784" lon="3.29825">
        <ele>22.72227</ele>
        <time>2021-06-11T14:44:31.889Z</time>
      </trkpt>
      <trkpt lat="50.63589" lon="3.30162">
        <ele>22.9789</ele>
        <time>2021-06-11T14:45:04.306Z</time>
      </trkpt>
      <trkpt lat="50.63584" lon="3.3017">
        <ele>23.062665</ele>
        <time>2021-06-11T14:45:05.032Z</time>
      </trkpt>
      <trkpt lat="50.63579" lon="3.30178">
        <ele>23.147291</ele>
        <time>2021-06-11T14:45:05.978Z</time>
      </trkpt>
      <trkpt lat="50.63527" lon="3.30268">
        <ele>24.119428</ele>
        <time>2021-06-11T14:45:17.961Z</time>
      </trkpt>
      <trkpt lat="50.63509" lon="3.30299">
        <ele>24.450572</ele>
        <time>2021-06-11T14:45:22.408Z</time>
      </trkpt>
      <trkpt lat="50.63498" lon="3.30324">
        <ele>24.691417</ele>
        <time>2021-06-11T14:45:26.061Z</time>
      </trkpt>
      <trkpt lat="50.63433" lon="3.3046">
        <ele>26.83789</ele>
        <time>2021-06-11T14:45:47.167Z</time>
      </trkpt>
      <trkpt lat="50.63407" lon="3.30525">
        <ele>27.932016</ele>
        <time>2021-06-11T14:45:56.592Z</time>
      </trkpt>
      <trkpt lat="50.63381" lon="3.30602">
        <ele>29.159362</ele>
        <time>2021-06-11T14:46:06.838Z</time>
      </trkpt>
      <trkpt lat="50.63334" lon="3.30763">
        <ele>31.275988</ele>
        <time>2021-06-11T14:46:27.647Z</time>
      </trkpt>
      <trkpt lat="50.63319" lon="3.30826">
        <ele>32.081045</ele>
        <time>2021-06-11T14:46:35.207Z</time>
      </trkpt>
      <trkpt lat="50.6329" lon="3.30952">
        <ele>32.79736</ele>
        <time>2021-06-11T14:46:48.862Z</time>
      </trkpt>
      <trkpt lat="50.63288" lon="3.30957">
        <ele>32.81512</ele>
        <time>2021-06-11T14:46:49.424Z</time>
      </trkpt>
      <trkpt lat="50.63262" lon="3.31061">
        <ele>33.176399</ele>
        <time>2021-06-11T14:46:59.234Z</time>
      </trkpt>
      <trkpt lat="50.63253" lon="3.31097">
        <ele>33.300705</ele>
        <time>2021-06-11T14:47:01.874Z</time>
      </trkpt>
      <trkpt lat="50.6325" lon="3.31109">
        <ele>33.342095</ele>
        <time>2021-06-11T14:47:02.825Z</time>
      </trkpt>
      <trkpt lat="50.63245" lon="3.31126">
        <ele>33.312443</ele>
        <time>2021-06-11T14:47:04.007Z</time>
      </trkpt>
      <trkpt lat="50.63221" lon="3.31212">
        <ele>32.277377</ele>
        <time>2021-06-11T14:47:09.672Z</time>
      </trkpt>
      <trkpt lat="50.63172" lon="3.31365">
        <ele>30.376977</ele>
        <time>2021-06-11T14:47:19.120Z</time>
      </trkpt>
      <trkpt lat="50.63134" lon="3.31476">
        <ele>28.693429</ele>
        <time>2021-06-11T14:47:25.884Z</time>
      </trkpt>
      <trkpt lat="50.63132" lon="3.31484">
        <ele>28.578642</ele>
        <time>2021-06-11T14:47:26.296Z</time>
      </trkpt>
      <trkpt lat="50.63049" lon="3.31726">
        <ele>25.615338</ele>
        <time>2021-06-11T14:47:41.997Z</time>
      </trkpt>
      <trkpt lat="50.62962" lon="3.31982">
        <ele>24.11085</ele>
        <time>2021-06-11T14:48:01.150Z</time>
      </trkpt>
      <trkpt lat="50.62943" lon="3.32035">
        <ele>23.935632</ele>
        <time>2021-06-11T14:48:05.198Z</time>
      </trkpt>
      <trkpt lat="50.62923" lon="3.32098">
        <ele>23.732326</ele>
        <time>2021-06-11T14:48:10.101Z</time>
      </trkpt>
      <trkpt lat="50.62915" lon="3.32126">
        <ele>23.644843</ele>
        <time>2021-06-11T14:48:12.325Z</time>
      </trkpt>
      <trkpt lat="50.62914" lon="3.32127">
        <ele>23.643035</ele>
        <time>2021-06-11T14:48:12.440Z</time>
      </trkpt>
      <trkpt lat="50.62914" lon="3.32129">
        <ele>23.648408</ele>
        <time>2021-06-11T14:48:12.604Z</time>
      </trkpt>
      <trkpt lat="50.62905" lon="3.32157">
        <ele>23.716935</ele>
        <time>2021-06-11T14:48:14.868Z</time>
      </trkpt>
      <trkpt lat="50.62895" lon="3.32188">
        <ele>23.792666</ele>
        <time>2021-06-11T14:48:17.391Z</time>
      </trkpt>
      <trkpt lat="50.62894" lon="3.32192">
        <ele>23.800788</ele>
        <time>2021-06-11T14:48:17.711Z</time>
      </trkpt>
      <trkpt lat="50.62858" lon="3.32402">
        <ele>24.318544</ele>
        <time>2021-06-11T14:48:36.158Z</time>
      </trkpt>
      <trkpt lat="50.62844" lon="3.3248">
        <ele>24.948216</ele>
        <time>2021-06-11T14:48:44.186Z</time>
      </trkpt>
      <trkpt lat="50.62827" lon="3.3256">
        <ele>25.611999</ele>
        <time>2021-06-11T14:48:52.662Z</time>
      </trkpt>
      <trkpt lat="50.62802" lon="3.32741">
        <ele>27.101873</ele>
        <time>2021-06-11T14:49:12.407Z</time>
      </trkpt>
      <trkpt lat="50.62793" lon="3.32835">
        <ele>27.897254</ele>
        <time>2021-06-11T14:49:22.326Z</time>
      </trkpt>
      <trkpt lat="50.62786" lon="3.32918">
        <ele>28.595929</ele>
        <time>2021-06-11T14:49:30.724Z</time>
      </trkpt>
      <trkpt lat="50.62786" lon="3.32924">
        <ele>28.645082</ele>
        <time>2021-06-11T14:49:31.436Z</time>
      </trkpt>
      <trkpt lat="50.62771" lon="3.33057">
        <ele>28.882093</ele>
        <time>2021-06-11T14:49:43.753Z</time>
      </trkpt>
      <trkpt lat="50.62768" lon="3.33081">
        <ele>28.889102</ele>
        <time>2021-06-11T14:49:45.888Z</time>
      </trkpt>
      <trkpt lat="50.62765" lon="3.33105">
        <ele>28.896055</ele>
        <time>2021-06-11T14:49:47.956Z</time>
      </trkpt>
      <trkpt lat="50.62751" lon="3.33496">
        <ele>27.298709</ele>
        <time>2021-06-11T14:50:12.815Z</time>
      </trkpt>
      <trkpt lat="50.6274" lon="3.33583">
        <ele>26.590163</ele>
        <time>2021-06-11T14:50:17.978Z</time>
      </trkpt>
      <trkpt lat="50.62733" lon="3.3361">
        <ele>26.344092</ele>
        <time>2021-06-11T14:50:19.636Z</time>
      </trkpt>
      <trkpt lat="50.62719" lon="3.33662">
        <ele>25.870821</ele>
        <time>2021-06-11T14:50:22.887Z</time>
      </trkpt>
      <trkpt lat="50.62585" lon="3.34109">
        <ele>22.533158</ele>
        <time>2021-06-11T14:50:53.202Z</time>
      </trkpt>
      <trkpt lat="50.62491" lon="3.3434">
        <ele>21.883974</ele>
        <time>2021-06-11T14:51:12.479Z</time>
      </trkpt>
      <trkpt lat="50.62482" lon="3.34361">
        <ele>21.900406</ele>
        <time>2021-06-11T14:51:14.304Z</time>
      </trkpt>
      <trkpt lat="50.62478" lon="3.34368">
        <ele>21.90695</ele>
        <time>2021-06-11T14:51:15.041Z</time>
      </trkpt>
      <trkpt lat="50.6244" lon="3.34454">
        <ele>21.973757</ele>
        <time>2021-06-11T14:51:23.090Z</time>
      </trkpt>
      <trkpt lat="50.624" lon="3.34526">
        <ele>22.121208</ele>
        <time>2021-06-11T14:51:31.556Z</time>
      </trkpt>
      <trkpt lat="50.62395" lon="3.34534">
        <ele>22.161305</ele>
        <time>2021-06-11T14:51:32.528Z</time>
      </trkpt>
      <trkpt lat="50.62383" lon="3.34555">
        <ele>22.26478</ele>
        <time>2021-06-11T14:51:35.277Z</time>
      </trkpt>
      <trkpt lat="50.62335" lon="3.34627">
        <ele>22.646295</ele>
        <time>2021-06-11T14:51:44.223Z</time>
      </trkpt>
      <trkpt lat="50.62318" lon="3.34659">
        <ele>22.802009</ele>
        <time>2021-06-11T14:51:47.538Z</time>
      </trkpt>
      <trkpt lat="50.62312" lon="3.34669">
        <ele>22.848603</ele>
        <time>2021-06-11T14:51:48.887Z</time>
      </trkpt>
      <trkpt lat="50.6229" lon="3.34708">
        <ele>23.037653</ele>
        <time>2021-06-11T14:51:53.375Z</time>
      </trkpt>
      <trkpt lat="50.62284" lon="3.34718">
        <ele>23.103385</ele>
        <time>2021-06-11T14:51:54.613Z</time>
      </trkpt>
      <trkpt lat="50.62278" lon="3.34729">
        <ele>23.182016</ele>
        <time>2021-06-11T14:51:55.959Z</time>
      </trkpt>
      <trkpt lat="50.62268" lon="3.34746">
        <ele>23.29591</ele>
        <time>2021-06-11T14:51:58.045Z</time>
      </trkpt>
      <trkpt lat="50.62229" lon="3.34813">
        <ele>23.758395</ele>
        <time>2021-06-11T14:52:06.532Z</time>
      </trkpt>
      <trkpt lat="50.622" lon="3.34861">
        <ele>24.089917</ele>
        <time>2021-06-11T14:52:12.697Z</time>
      </trkpt>
      <trkpt lat="50.62142" lon="3.34961">
        <ele>24.879166</ele>
        <time>2021-06-11T14:52:24.666Z</time>
      </trkpt>
      <trkpt lat="50.62119" lon="3.34995">
        <ele>25.220618</ele>
        <time>2021-06-11T14:52:29.816Z</time>
      </trkpt>
      <trkpt lat="50.62119" lon="3.34996">
        <ele>25.230039</ele>
        <time>2021-06-11T14:52:29.957Z</time>
      </trkpt>
      <trkpt lat="50.62112" lon="3.35006">
        <ele>25.326988</ele>
        <time>2021-06-11T14:52:31.580Z</time>
      </trkpt>
      <trkpt lat="50.62108" lon="3.35014">
        <ele>25.400391</ele>
        <time>2021-06-11T14:52:32.831Z</time>
      </trkpt>
      <trkpt lat="50.62047" lon="3.35127">
        <ele>26.414573</ele>
        <time>2021-06-11T14:52:47.606Z</time>
      </trkpt>
      <trkpt lat="50.62041" lon="3.35137">
        <ele>26.416264</ele>
        <time>2021-06-11T14:52:49.110Z</time>
      </trkpt>
      <trkpt lat="50.6202" lon="3.35176">
        <ele>26.350124</ele>
        <time>2021-06-11T14:52:53.629Z</time>
      </trkpt>
      <trkpt lat="50.61999" lon="3.35214">
        <ele>26.2851</ele>
        <time>2021-06-11T14:52:57.694Z</time>
      </trkpt>
      <trkpt lat="50.61969" lon="3.35283">
        <ele>26.17591</ele>
        <time>2021-06-11T14:53:03.308Z</time>
      </trkpt>
      <trkpt lat="50.61963" lon="3.35295">
        <ele>26.157668</ele>
        <time>2021-06-11T14:53:04.156Z</time>
      </trkpt>
      <trkpt lat="50.61937" lon="3.35352">
        <ele>26.066837</ele>
        <time>2021-06-11T14:53:08.691Z</time>
      </trkpt>
      <trkpt lat="50.61921" lon="3.35401">
        <ele>25.594978</ele>
        <time>2021-06-11T14:53:12.006Z</time>
      </trkpt>
      <trkpt lat="50.6192" lon="3.35409">
        <ele>25.523195</ele>
        <time>2021-06-11T14:53:12.437Z</time>
      </trkpt>
      <trkpt lat="50.61918" lon="3.35432">
        <ele>25.312194</ele>
        <time>2021-06-11T14:53:13.863Z</time>
      </trkpt>
      <trkpt lat="50.61946" lon="3.35839">
        <ele>21.807503</ele>
        <time>2021-06-11T14:53:37.965Z</time>
      </trkpt>
      <trkpt lat="50.61946" lon="3.35841">
        <ele>21.792514</ele>
        <time>2021-06-11T14:53:38.065Z</time>
      </trkpt>
      <trkpt lat="50.61949" lon="3.35894">
        <ele>21.349388</ele>
        <time>2021-06-11T14:53:41.404Z</time>
      </trkpt>
      <trkpt lat="50.61946" lon="3.35955">
        <ele>21.016285</ele>
        <time>2021-06-11T14:53:45.171Z</time>
      </trkpt>
      <trkpt lat="50.61936" lon="3.36">
        <ele>20.804693</ele>
        <time>2021-06-11T14:53:48.218Z</time>
      </trkpt>
      <trkpt lat="50.61841" lon="3.36222">
        <ele>19.945966</ele>
        <time>2021-06-11T14:54:06.050Z</time>
      </trkpt>
      <trkpt lat="50.61836" lon="3.36235">
        <ele>19.943001</ele>
        <time>2021-06-11T14:54:07.186Z</time>
      </trkpt>
      <trkpt lat="50.61826" lon="3.36255">
        <ele>19.938257</ele>
        <time>2021-06-11T14:54:09.725Z</time>
      </trkpt>
      <trkpt lat="50.61822" lon="3.36268">
        <ele>19.935606</ele>
        <time>2021-06-11T14:54:11.198Z</time>
      </trkpt>
      <trkpt lat="50.61805" lon="3.36317">
        <ele>19.925225</ele>
        <time>2021-06-11T14:54:16.942Z</time>
      </trkpt>
      <trkpt lat="50.61789" lon="3.36358">
        <ele>19.916173</ele>
        <time>2021-06-11T14:54:22.040Z</time>
      </trkpt>
      <trkpt lat="50.61643" lon="3.367">
        <ele>21.141618</ele>
        <time>2021-06-11T14:55:09.374Z</time>
      </trkpt>
      <trkpt lat="50.61605" lon="3.36788">
        <ele>21.449692</ele>
        <time>2021-06-11T14:55:21.594Z</time>
      </trkpt>
      <trkpt lat="50.61581" lon="3.36843">
        <ele>21.644944</ele>
        <time>2021-06-11T14:55:29.172Z</time>
      </trkpt>
      <trkpt lat="50.61505" lon="3.37019">
        <ele>21.490832</ele>
        <time>2021-06-11T14:55:50.913Z</time>
      </trkpt>
      <trkpt lat="50.61371" lon="3.37329">
        <ele>20.212785</ele>
        <time>2021-06-11T14:56:25.449Z</time>
      </trkpt>
      <trkpt lat="50.61369" lon="3.37333">
        <ele>20.193384</ele>
        <time>2021-06-11T14:56:25.879Z</time>
      </trkpt>
      <trkpt lat="50.61358" lon="3.37357">
        <ele>20.186275</ele>
        <time>2021-06-11T14:56:28.638Z</time>
      </trkpt>
      <trkpt lat="50.61354" lon="3.37361">
        <ele>20.189052</ele>
        <time>2021-06-11T14:56:29.308Z</time>
      </trkpt>
      <trkpt lat="50.61353" lon="3.37367">
        <ele>20.191556</ele>
        <time>2021-06-11T14:56:29.904Z</time>
      </trkpt>
      <trkpt lat="50.61346" lon="3.37383">
        <ele>20.199198</ele>
        <time>2021-06-11T14:56:31.733Z</time>
      </trkpt>
      <trkpt lat="50.6134" lon="3.37399">
        <ele>20.206504</ele>
        <time>2021-06-11T14:56:33.494Z</time>
      </trkpt>
      <trkpt lat="50.61335" lon="3.37404">
        <ele>20.209851</ele>
        <time>2021-06-11T14:56:34.341Z</time>
      </trkpt>
      <trkpt lat="50.61334" lon="3.37413">
        <ele>20.213656</ele>
        <time>2021-06-11T14:56:35.306Z</time>
      </trkpt>
      <trkpt lat="50.61302" lon="3.37484">
        <ele>20.247639</ele>
        <time>2021-06-11T14:56:44.340Z</time>
      </trkpt>
      <trkpt lat="50.61291" lon="3.37511">
        <ele>20.260136</ele>
        <time>2021-06-11T14:56:47.979Z</time>
      </trkpt>
      <trkpt lat="50.61289" lon="3.37513">
        <ele>20.261597</ele>
        <time>2021-06-11T14:56:48.402Z</time>
      </trkpt>
      <trkpt lat="50.61288" lon="3.37515">
        <ele>20.262688</ele>
        <time>2021-06-11T14:56:48.738Z</time>
      </trkpt>
      <trkpt lat="50.61286" lon="3.37521">
        <ele>20.265204</ele>
        <time>2021-06-11T14:56:49.491Z</time>
      </trkpt>
      <trkpt lat="50.61286" lon="3.37522">
        <ele>20.265973</ele>
        <time>2021-06-11T14:56:49.705Z</time>
      </trkpt>
      <trkpt lat="50.61285" lon="3.37523">
        <ele>20.266421</ele>
        <time>2021-06-11T14:56:49.831Z</time>
      </trkpt>
      <trkpt lat="50.61285" lon="3.37525">
        <ele>20.267008</ele>
        <time>2021-06-11T14:56:50.002Z</time>
      </trkpt>
      <trkpt lat="50.61283" lon="3.3753">
        <ele>20.269363</ele>
        <time>2021-06-11T14:56:50.698Z</time>
      </trkpt>
      <trkpt lat="50.6128" lon="3.37537">
        <ele>20.272883</ele>
        <time>2021-06-11T14:56:51.698Z</time>
      </trkpt>
      <trkpt lat="50.61278" lon="3.37542">
        <ele>20.275033</ele>
        <time>2021-06-11T14:56:52.368Z</time>
      </trkpt>
      <trkpt lat="50.61274" lon="3.3755">
        <ele>20.279239</ele>
        <time>2021-06-11T14:56:53.649Z</time>
      </trkpt>
      <trkpt lat="50.61271" lon="3.37553">
        <ele>20.281242</ele>
        <time>2021-06-11T14:56:54.279Z</time>
      </trkpt>
      <trkpt lat="50.61266" lon="3.37564">
        <ele>20.286434</ele>
        <time>2021-06-11T14:56:55.864Z</time>
      </trkpt>
      <trkpt lat="50.61264" lon="3.37575">
        <ele>20.371518</ele>
        <time>2021-06-11T14:56:57.318Z</time>
      </trkpt>
      <trkpt lat="50.61235" lon="3.37642">
        <ele>20.99622</ele>
        <time>2021-06-11T14:57:06.811Z</time>
      </trkpt>
      <trkpt lat="50.61228" lon="3.37652">
        <ele>21.11097</ele>
        <time>2021-06-11T14:57:08.630Z</time>
      </trkpt>
      <trkpt lat="50.61225" lon="3.3766">
        <ele>21.184878</ele>
        <time>2021-06-11T14:57:09.810Z</time>
      </trkpt>
      <trkpt lat="50.61221" lon="3.37669">
        <ele>21.271228</ele>
        <time>2021-06-11T14:57:11.162Z</time>
      </trkpt>
      <trkpt lat="50.61219" lon="3.37676">
        <ele>21.325662</ele>
        <time>2021-06-11T14:57:11.993Z</time>
      </trkpt>
      <trkpt lat="50.61217" lon="3.37684">
        <ele>21.389844</ele>
        <time>2021-06-11T14:57:13.081Z</time>
      </trkpt>
      <trkpt lat="50.61206" lon="3.37707">
        <ele>21.615052</ele>
        <time>2021-06-11T14:57:16.797Z</time>
      </trkpt>
      <trkpt lat="50.61184" lon="3.37762">
        <ele>22.117181</ele>
        <time>2021-06-11T14:57:25.467Z</time>
      </trkpt>
      <trkpt lat="50.61178" lon="3.37767">
        <ele>22.193471</ele>
        <time>2021-06-11T14:57:26.811Z</time>
      </trkpt>
      <trkpt lat="50.61175" lon="3.3778">
        <ele>22.300713</ele>
        <time>2021-06-11T14:57:28.778Z</time>
      </trkpt>
      <trkpt lat="50.61174" lon="3.37786">
        <ele>22.347777</ele>
        <time>2021-06-11T14:57:29.613Z</time>
      </trkpt>
      <trkpt lat="50.61169" lon="3.37801">
        <ele>22.484907</ele>
        <time>2021-06-11T14:57:32.096Z</time>
      </trkpt>
      <trkpt lat="50.61167" lon="3.37806">
        <ele>22.550928</ele>
        <time>2021-06-11T14:57:32.792Z</time>
      </trkpt>
      <trkpt lat="50.61166" lon="3.37812">
        <ele>22.636469</ele>
        <time>2021-06-11T14:57:33.670Z</time>
      </trkpt>
      <trkpt lat="50.61154" lon="3.37805">
        <ele>22.90027</ele>
        <time>2021-06-11T14:57:35.854Z</time>
      </trkpt>
      <trkpt lat="50.6105" lon="3.37739">
        <ele>25.29885</ele>
        <time>2021-06-11T14:57:56.607Z</time>
      </trkpt>
      <trkpt lat="50.61026" lon="3.37727">
        <ele>25.828672</ele>
        <time>2021-06-11T14:58:01.482Z</time>
      </trkpt>
      <trkpt lat="50.6099" lon="3.37722">
        <ele>26.613314</ele>
        <time>2021-06-11T14:58:08.667Z</time>
      </trkpt>
      <trkpt lat="50.6097" lon="3.37726">
        <ele>27.073095</ele>
        <time>2021-06-11T14:58:12.634Z</time>
      </trkpt>
      <trkpt lat="50.60962" lon="3.37729">
        <ele>27.261677</ele>
        <time>2021-06-11T14:58:14.521Z</time>
      </trkpt>
      <trkpt lat="50.60925" lon="3.37747">
        <ele>28.130841</ele>
        <time>2021-06-11T14:58:22.173Z</time>
      </trkpt>
      <trkpt lat="50.60907" lon="3.37763">
        <ele>28.621383</ele>
        <time>2021-06-11T14:58:26.245Z</time>
      </trkpt>
      <trkpt lat="50.60819" lon="3.37844">
        <ele>30.688922</ele>
        <time>2021-06-11T14:58:45.354Z</time>
      </trkpt>
      <trkpt lat="50.60804" lon="3.37858">
        <ele>30.917294</ele>
        <time>2021-06-11T14:58:48.305Z</time>
      </trkpt>
      <trkpt lat="50.6072" lon="3.37929">
        <ele>32.126645</ele>
        <time>2021-06-11T14:59:02.950Z</time>
      </trkpt>
      <trkpt lat="50.60678" lon="3.37966">
        <ele>32.749973</ele>
        <time>2021-06-11T14:59:10.105Z</time>
      </trkpt>
      <trkpt lat="50.60664" lon="3.37978">
        <ele>32.96428</ele>
        <time>2021-06-11T14:59:12.399Z</time>
      </trkpt>
      <trkpt lat="50.60658" lon="3.37983">
        <ele>33.05102</ele>
        <time>2021-06-11T14:59:13.323Z</time>
      </trkpt>
      <trkpt lat="50.60636" lon="3.38002">
        <ele>33.386142</ele>
        <time>2021-06-11T14:59:16.954Z</time>
      </trkpt>
      <trkpt lat="50.60616" lon="3.38024">
        <ele>33.718641</ele>
        <time>2021-06-11T14:59:20.621Z</time>
      </trkpt>
      <trkpt lat="50.60594" lon="3.38048">
        <ele>34.069005</ele>
        <time>2021-06-11T14:59:24.571Z</time>
      </trkpt>
      <trkpt lat="50.60309" lon="3.38353">
        <ele>40.437814</ele>
        <time>2021-06-11T15:00:26.721Z</time>
      </trkpt>
      <trkpt lat="50.60296" lon="3.38368">
        <ele>40.78196</ele>
        <time>2021-06-11T15:00:30.096Z</time>
      </trkpt>
      <trkpt lat="50.60286" lon="3.38379">
        <ele>41.033578</ele>
        <time>2021-06-11T15:00:32.352Z</time>
      </trkpt>
      <trkpt lat="50.60273" lon="3.38402">
        <ele>41.440593</ele>
        <time>2021-06-11T15:00:36.061Z</time>
      </trkpt>
      <trkpt lat="50.60265" lon="3.38411">
        <ele>41.648972</ele>
        <time>2021-06-11T15:00:38.062Z</time>
      </trkpt>
      <trkpt lat="50.60248" lon="3.38428">
        <ele>42.072259</ele>
        <time>2021-06-11T15:00:41.767Z</time>
      </trkpt>
      <trkpt lat="50.60242" lon="3.3842">
        <ele>42.231555</ele>
        <time>2021-06-11T15:00:43.227Z</time>
      </trkpt>
      <trkpt lat="50.60225" lon="3.38437">
        <ele>42.579104</ele>
        <time>2021-06-11T15:00:47.764Z</time>
      </trkpt>
      <trkpt lat="50.602" lon="3.3846">
        <ele>43.026868</ele>
        <time>2021-06-11T15:00:54.825Z</time>
      </trkpt>
      <trkpt lat="50.60148" lon="3.38504">
        <ele>43.938328</ele>
        <time>2021-06-11T15:01:07.796Z</time>
      </trkpt>
      <trkpt lat="50.60102" lon="3.38565">
        <ele>44.856898</ele>
        <time>2021-06-11T15:01:19.329Z</time>
      </trkpt>
      <trkpt lat="50.60089" lon="3.38588">
        <ele>45.154701</ele>
        <time>2021-06-11T15:01:23.193Z</time>
      </trkpt>
      <trkpt lat="50.60088" lon="3.3859">
        <ele>45.166767</ele>
        <time>2021-06-11T15:01:23.436Z</time>
      </trkpt>
      <trkpt lat="50.60085" lon="3.38598">
        <ele>45.212609</ele>
        <time>2021-06-11T15:01:24.542Z</time>
      </trkpt>
      <trkpt lat="50.60086" lon="3.38612">
        <ele>45.284796</ele>
        <time>2021-06-11T15:01:25.862Z</time>
      </trkpt>
      <trkpt lat="50.6009" lon="3.38623">
        <ele>45.347332</ele>
        <time>2021-06-11T15:01:27.053Z</time>
      </trkpt>
      <trkpt lat="50.60085" lon="3.38639">
        <ele>45.437211</ele>
        <time>2021-06-11T15:01:28.746Z</time>
      </trkpt>
      <trkpt lat="50.60084" lon="3.38642">
        <ele>45.452748</ele>
        <time>2021-06-11T15:01:28.960Z</time>
      </trkpt>
      <trkpt lat="50.6004" lon="3.38768">
        <ele>46.168027</ele>
        <time>2021-06-11T15:01:42.306Z</time>
      </trkpt>
      <trkpt lat="50.60037" lon="3.38777">
        <ele>46.217238</ele>
        <time>2021-06-11T15:01:43.292Z</time>
      </trkpt>
      <trkpt lat="50.60033" lon="3.38791">
        <ele>46.296701</ele>
        <time>2021-06-11T15:01:44.656Z</time>
      </trkpt>
      <trkpt lat="50.60027" lon="3.38791">
        <ele>46.339953</ele>
        <time>2021-06-11T15:01:45.451Z</time>
      </trkpt>
      <trkpt lat="50.6002" lon="3.38792">
        <ele>46.397977</ele>
        <time>2021-06-11T15:01:46.484Z</time>
      </trkpt>
      <trkpt lat="50.60002" lon="3.38794">
        <ele>46.537619</ele>
        <time>2021-06-11T15:01:48.957Z</time>
      </trkpt>
      <trkpt lat="50.59911" lon="3.38802">
        <ele>46.586627</ele>
        <time>2021-06-11T15:02:01.047Z</time>
      </trkpt>
      <trkpt lat="50.59902" lon="3.38803">
        <ele>46.590148</ele>
        <time>2021-06-11T15:02:02.311Z</time>
      </trkpt>
      <trkpt lat="50.59892" lon="3.38804">
        <ele>46.594082</ele>
        <time>2021-06-11T15:02:03.450Z</time>
      </trkpt>
      <trkpt lat="50.59819" lon="3.38813">
        <ele>46.596424</ele>
        <time>2021-06-11T15:02:11.739Z</time>
      </trkpt>
      <trkpt lat="50.59773" lon="3.38818">
        <ele>45.783013</ele>
        <time>2021-06-11T15:02:16.184Z</time>
      </trkpt>
      <trkpt lat="50.59678" lon="3.38833">
        <ele>44.127166</ele>
        <time>2021-06-11T15:02:24.546Z</time>
      </trkpt>
      <trkpt lat="50.59665" lon="3.38831">
        <ele>43.900487</ele>
        <time>2021-06-11T15:02:25.694Z</time>
      </trkpt>
      <trkpt lat="50.5965" lon="3.38829">
        <ele>43.647456</ele>
        <time>2021-06-11T15:02:26.900Z</time>
      </trkpt>
      <trkpt lat="50.59629" lon="3.38815">
        <ele>43.164429</ele>
        <time>2021-06-11T15:02:28.871Z</time>
      </trkpt>
      <trkpt lat="50.59606" lon="3.38777">
        <ele>42.382224</ele>
        <time>2021-06-11T15:02:31.713Z</time>
      </trkpt>
      <trkpt lat="50.59592" lon="3.38749">
        <ele>41.847096</ele>
        <time>2021-06-11T15:02:33.626Z</time>
      </trkpt>
      <trkpt lat="50.5959" lon="3.38745">
        <ele>41.774009</ele>
        <time>2021-06-11T15:02:33.904Z</time>
      </trkpt>
      <trkpt lat="50.59572" lon="3.38708">
        <ele>41.071177</ele>
        <time>2021-06-11T15:02:36.453Z</time>
      </trkpt>
      <trkpt lat="50.5951" lon="3.38787">
        <ele>39.20386</ele>
        <time>2021-06-11T15:02:43.316Z</time>
      </trkpt>
      <trkpt lat="50.595" lon="3.38801">
        <ele>38.867539</ele>
        <time>2021-06-11T15:02:44.492Z</time>
      </trkpt>
      <trkpt lat="50.59491" lon="3.38813">
        <ele>38.575306</ele>
        <time>2021-06-11T15:02:45.489Z</time>
      </trkpt>
      <trkpt lat="50.5948" lon="3.38826">
        <ele>38.23211</ele>
        <time>2021-06-11T15:02:46.668Z</time>
      </trkpt>
      <trkpt lat="50.59451" lon="3.38861">
        <ele>37.318373</ele>
        <time>2021-06-11T15:02:49.807Z</time>
      </trkpt>
      <trkpt lat="50.59418" lon="3.38902">
        <ele>36.273305</ele>
        <time>2021-06-11T15:02:53.368Z</time>
      </trkpt>
      <trkpt lat="50.59405" lon="3.38917">
        <ele>35.861352</ele>
        <time>2021-06-11T15:02:54.763Z</time>
      </trkpt>
      <trkpt lat="50.59389" lon="3.38926">
        <ele>35.449074</ele>
        <time>2021-06-11T15:02:56.140Z</time>
      </trkpt>
      <trkpt lat="50.59362" lon="3.38944">
        <ele>34.706806</ele>
        <time>2021-06-11T15:02:58.570Z</time>
      </trkpt>
      <trkpt lat="50.59236" lon="3.39024">
        <ele>30.811934</ele>
        <time>2021-06-11T15:03:09.686Z</time>
      </trkpt>
      <trkpt lat="50.59211" lon="3.3904">
        <ele>30.031588</ele>
        <time>2021-06-11T15:03:11.940Z</time>
      </trkpt>
      <trkpt lat="50.59092" lon="3.39122">
        <ele>27.827436</ele>
        <time>2021-06-11T15:03:23.184Z</time>
      </trkpt>
      <trkpt lat="50.58909" lon="3.39304">
        <ele>26.934818</ele>
        <time>2021-06-11T15:03:47.058Z</time>
      </trkpt>
      <trkpt lat="50.58904" lon="3.39309">
        <ele>26.938937</ele>
        <time>2021-06-11T15:03:48.070Z</time>
      </trkpt>
      <trkpt lat="50.58887" lon="3.39326">
        <ele>26.952776</ele>
        <time>2021-06-11T15:03:51.016Z</time>
      </trkpt>
      <trkpt lat="50.58668" lon="3.3946">
        <ele>31.384556</ele>
        <time>2021-06-11T15:04:33.291Z</time>
      </trkpt>
      <trkpt lat="50.58533" lon="3.39506">
        <ele>34.759791</ele>
        <time>2021-06-11T15:05:01.228Z</time>
      </trkpt>
      <trkpt lat="50.58484" lon="3.39527">
        <ele>36.251311</ele>
        <time>2021-06-11T15:05:11.832Z</time>
      </trkpt>
      <trkpt lat="50.58438" lon="3.3954">
        <ele>37.609448</ele>
        <time>2021-06-11T15:05:21.453Z</time>
      </trkpt>
      <trkpt lat="50.58257" lon="3.39525">
        <ele>43.40833</ele>
        <time>2021-06-11T15:06:01.423Z</time>
      </trkpt>
      <trkpt lat="50.58256" lon="3.39525">
        <ele>43.472906</ele>
        <time>2021-06-11T15:06:02.392Z</time>
      </trkpt>
      <trkpt lat="50.57849" lon="3.39497">
        <ele>57.541134</ele>
        <time>2021-06-11T15:07:36.387Z</time>
      </trkpt>
      <trkpt lat="50.57822" lon="3.39482">
        <ele>58.43552</ele>
        <time>2021-06-11T15:07:42.777Z</time>
      </trkpt>
      <trkpt lat="50.57736" lon="3.39415">
        <ele>60.684087</ele>
        <time>2021-06-11T15:08:02.470Z</time>
      </trkpt>
      <trkpt lat="50.57696" lon="3.39395">
        <ele>61.649945</ele>
        <time>2021-06-11T15:08:10.141Z</time>
      </trkpt>
      <trkpt lat="50.57647" lon="3.39385">
        <ele>62.489252</ele>
        <time>2021-06-11T15:08:18.587Z</time>
      </trkpt>
      <trkpt lat="50.57541" lon="3.39409">
        <ele>62.889505</ele>
        <time>2021-06-11T15:08:33.088Z</time>
      </trkpt>
      <trkpt lat="50.57506" lon="3.39426">
        <ele>63.02774</ele>
        <time>2021-06-11T15:08:37.208Z</time>
      </trkpt>
      <trkpt lat="50.57486" lon="3.39435">
        <ele>63.096884</ele>
        <time>2021-06-11T15:08:39.335Z</time>
      </trkpt>
      <trkpt lat="50.57308" lon="3.39461">
        <ele>61.592234</ele>
        <time>2021-06-11T15:08:56.947Z</time>
      </trkpt>
      <trkpt lat="50.57273" lon="3.39465">
        <ele>61.327516</ele>
        <time>2021-06-11T15:09:00.479Z</time>
      </trkpt>
      <trkpt lat="50.57268" lon="3.39464">
        <ele>61.288197</ele>
        <time>2021-06-11T15:09:00.987Z</time>
      </trkpt>
      <trkpt lat="50.57131" lon="3.39439">
        <ele>60.271076</ele>
        <time>2021-06-11T15:09:14.931Z</time>
      </trkpt>
      <trkpt lat="50.57021" lon="3.39385">
        <ele>59.670007</ele>
        <time>2021-06-11T15:09:27.303Z</time>
      </trkpt>
      <trkpt lat="50.56984" lon="3.39373">
        <ele>59.472433</ele>
        <time>2021-06-11T15:09:31.428Z</time>
      </trkpt>
      <trkpt lat="50.56864" lon="3.39359">
        <ele>58.631638</ele>
        <time>2021-06-11T15:09:43.943Z</time>
      </trkpt>
      <trkpt lat="50.56801" lon="3.39345">
        <ele>58.14682</ele>
        <time>2021-06-11T15:09:50.360Z</time>
      </trkpt>
      <trkpt lat="50.56771" lon="3.39336">
        <ele>57.890765</ele>
        <time>2021-06-11T15:09:53.354Z</time>
      </trkpt>
      <trkpt lat="50.56588" lon="3.3929">
        <ele>55.62328</ele>
        <time>2021-06-11T15:10:10.764Z</time>
      </trkpt>
      <trkpt lat="50.56572" lon="3.39286">
        <ele>55.533589</ele>
        <time>2021-06-11T15:10:12.292Z</time>
      </trkpt>
      <trkpt lat="50.56566" lon="3.39285">
        <ele>55.49927</ele>
        <time>2021-06-11T15:10:12.886Z</time>
      </trkpt>
      <trkpt lat="50.56528" lon="3.39276">
        <ele>55.292769</ele>
        <time>2021-06-11T15:10:16.588Z</time>
      </trkpt>
      <trkpt lat="50.56405" lon="3.39732">
        <ele>54.571076</ele>
        <time>2021-06-11T15:11:06.581Z</time>
      </trkpt>
      <trkpt lat="50.564" lon="3.39778">
        <ele>54.578119</ele>
        <time>2021-06-11T15:11:11.677Z</time>
      </trkpt>
      <trkpt lat="50.56412" lon="3.40035">
        <ele>54.345799</ele>
        <time>2021-06-11T15:11:38.796Z</time>
      </trkpt>
      <trkpt lat="50.56434" lon="3.40535">
        <ele>51.430335</ele>
        <time>2021-06-11T15:12:23.563Z</time>
      </trkpt>
      <trkpt lat="50.56313" lon="3.40575">
        <ele>48.347936</ele>
        <time>2021-06-11T15:12:38.549Z</time>
      </trkpt>
      <trkpt lat="50.5625" lon="3.4059">
        <ele>46.747351</ele>
        <time>2021-06-11T15:12:45.972Z</time>
      </trkpt>
      <trkpt lat="50.56171" lon="3.40617">
        <ele>44.51894</ele>
        <time>2021-06-11T15:12:55.588Z</time>
      </trkpt>
      <trkpt lat="50.56024" lon="3.40673">
        <ele>40.647768</ele>
        <time>2021-06-11T15:13:13.989Z</time>
      </trkpt>
      <trkpt lat="50.56017" lon="3.40676">
        <ele>40.472431</ele>
        <time>2021-06-11T15:13:14.940Z</time>
      </trkpt>
      <trkpt lat="50.55968" lon="3.40696">
        <ele>39.324401</ele>
        <time>2021-06-11T15:13:21.139Z</time>
      </trkpt>
      <trkpt lat="50.55961" lon="3.40698">
        <ele>39.159026</ele>
        <time>2021-06-11T15:13:22.045Z</time>
      </trkpt>
      <trkpt lat="50.55926" lon="3.40715">
        <ele>38.319907</ele>
        <time>2021-06-11T15:13:26.627Z</time>
      </trkpt>
      <trkpt lat="50.55796" lon="3.40766">
        <ele>35.253904</ele>
        <time>2021-06-11T15:13:43.285Z</time>
      </trkpt>
      <trkpt lat="50.55504" lon="3.40862">
        <ele>28.364783</ele>
        <time>2021-06-11T15:14:19.580Z</time>
      </trkpt>
      <trkpt lat="50.55492" lon="3.40868">
        <ele>28.16759</ele>
        <time>2021-06-11T15:14:21.026Z</time>
      </trkpt>
      <trkpt lat="50.55459" lon="3.40859">
        <ele>27.610236</ele>
        <time>2021-06-11T15:14:25.383Z</time>
      </trkpt>
      <trkpt lat="50.55443" lon="3.40868">
        <ele>27.334526</ele>
        <time>2021-06-11T15:14:27.580Z</time>
      </trkpt>
      <trkpt lat="50.55329" lon="3.40904">
        <ele>26.32806</ele>
        <time>2021-06-11T15:14:44.201Z</time>
      </trkpt>
      <trkpt lat="50.55256" lon="3.40915">
        <ele>26.41706</ele>
        <time>2021-06-11T15:14:56.977Z</time>
      </trkpt>
      <trkpt lat="50.55128" lon="3.40966">
        <ele>26.902811</ele>
        <time>2021-06-11T15:15:21.255Z</time>
      </trkpt>
      <trkpt lat="50.54954" lon="3.41019">
        <ele>27.48955</ele>
        <time>2021-06-11T15:15:52.453Z</time>
      </trkpt>
      <trkpt lat="50.54933" lon="3.41026">
        <ele>27.497528</ele>
        <time>2021-06-11T15:15:56.050Z</time>
      </trkpt>
      <trkpt lat="50.54828" lon="3.4106">
        <ele>27.322947</ele>
        <time>2021-06-11T15:16:12.579Z</time>
      </trkpt>
      <trkpt lat="50.54794" lon="3.41076">
        <ele>27.008133</ele>
        <time>2021-06-11T15:16:17.715Z</time>
      </trkpt>
      <trkpt lat="50.54776" lon="3.41089">
        <ele>26.831544</ele>
        <time>2021-06-11T15:16:20.599Z</time>
      </trkpt>
      <trkpt lat="50.5476" lon="3.41105">
        <ele>26.662394</ele>
        <time>2021-06-11T15:16:23.210Z</time>
      </trkpt>
      <trkpt lat="50.54722" lon="3.41157">
        <ele>26.2185</ele>
        <time>2021-06-11T15:16:30.098Z</time>
      </trkpt>
      <trkpt lat="50.54707" lon="3.41187">
        <ele>26.002844</ele>
        <time>2021-06-11T15:16:33.326Z</time>
      </trkpt>
      <trkpt lat="50.5456" lon="3.4153">
        <ele>22.433493</ele>
        <time>2021-06-11T15:17:08.098Z</time>
      </trkpt>
      <trkpt lat="50.5453" lon="3.41694">
        <ele>21.180953</ele>
        <time>2021-06-11T15:17:23.211Z</time>
      </trkpt>
      <trkpt lat="50.54517" lon="3.41725">
        <ele>21.034318</ele>
        <time>2021-06-11T15:17:26.587Z</time>
      </trkpt>
      <trkpt lat="50.54448" lon="3.41892">
        <ele>20.24259</ele>
        <time>2021-06-11T15:17:45.287Z</time>
      </trkpt>
      <trkpt lat="50.54439" lon="3.41907">
        <ele>20.158148</ele>
        <time>2021-06-11T15:17:47.279Z</time>
      </trkpt>
      <trkpt lat="50.54417" lon="3.41925">
        <ele>20.015096</ele>
        <time>2021-06-11T15:17:50.898Z</time>
      </trkpt>
      <trkpt lat="50.54358" lon="3.41944">
        <ele>19.688743</ele>
        <time>2021-06-11T15:17:59.885Z</time>
      </trkpt>
      <trkpt lat="50.54334" lon="3.4196">
        <ele>19.547747</ele>
        <time>2021-06-11T15:18:03.777Z</time>
      </trkpt>
      <trkpt lat="50.5432" lon="3.41974">
        <ele>19.462005</ele>
        <time>2021-06-11T15:18:06.117Z</time>
      </trkpt>
      <trkpt lat="50.54311" lon="3.41984">
        <ele>19.398628</ele>
        <time>2021-06-11T15:18:07.848Z</time>
      </trkpt>
      <trkpt lat="50.54221" lon="3.42162">
        <ele>18.878883</ele>
        <time>2021-06-11T15:18:29.071Z</time>
      </trkpt>
      <trkpt lat="50.5421" lon="3.42175">
        <ele>18.843965</ele>
        <time>2021-06-11T15:18:31.156Z</time>
      </trkpt>
      <trkpt lat="50.54211" lon="3.42191">
        <ele>18.817748</ele>
        <time>2021-06-11T15:18:32.340Z</time>
      </trkpt>
      <trkpt lat="50.54162" lon="3.42227">
        <ele>18.680001</ele>
        <time>2021-06-11T15:18:41.296Z</time>
      </trkpt>
      <trkpt lat="50.54128" lon="3.42236">
        <ele>18.748923</ele>
        <time>2021-06-11T15:18:47.129Z</time>
      </trkpt>
      <trkpt lat="50.54079" lon="3.4223">
        <ele>18.950478</ele>
        <time>2021-06-11T15:18:55.381Z</time>
      </trkpt>
      <trkpt lat="50.54074" lon="3.4223">
        <ele>18.968422</ele>
        <time>2021-06-11T15:18:56.083Z</time>
      </trkpt>
      <trkpt lat="50.54068" lon="3.42229">
        <ele>18.992488</ele>
        <time>2021-06-11T15:18:57.205Z</time>
      </trkpt>
      <trkpt lat="50.54054" lon="3.42229">
        <ele>19.052284</ele>
        <time>2021-06-11T15:18:59.904Z</time>
      </trkpt>
      <trkpt lat="50.54024" lon="3.4224">
        <ele>19.175989</ele>
        <time>2021-06-11T15:19:05.302Z</time>
      </trkpt>
      <trkpt lat="50.53997" lon="3.42265">
        <ele>19.302955</ele>
        <time>2021-06-11T15:19:10.967Z</time>
      </trkpt>
      <trkpt lat="50.53985" lon="3.4228">
        <ele>19.365455</ele>
        <time>2021-06-11T15:19:13.883Z</time>
      </trkpt>
      <trkpt lat="50.5398" lon="3.423">
        <ele>19.43925</ele>
        <time>2021-06-11T15:19:16.284Z</time>
      </trkpt>
      <trkpt lat="50.53968" lon="3.42348">
        <ele>19.645874</ele>
        <time>2021-06-11T15:19:22.408Z</time>
      </trkpt>
      <trkpt lat="50.53965" lon="3.42346">
        <ele>19.668963</ele>
        <time>2021-06-11T15:19:23.041Z</time>
      </trkpt>
      <trkpt lat="50.53907" lon="3.42331">
        <ele>20.033354</ele>
        <time>2021-06-11T15:19:31.167Z</time>
      </trkpt>
      <trkpt lat="50.53826" lon="3.42315">
        <ele>20.552179</ele>
        <time>2021-06-11T15:19:42.183Z</time>
      </trkpt>
      <trkpt lat="50.53725" lon="3.42291">
        <ele>21.268192</ele>
        <time>2021-06-11T15:19:56.251Z</time>
      </trkpt>
      <trkpt lat="50.53576" lon="3.42263">
        <ele>22.757836</ele>
        <time>2021-06-11T15:20:18.229Z</time>
      </trkpt>
      <trkpt lat="50.53478" lon="3.42237">
        <ele>23.997298</ele>
        <time>2021-06-11T15:20:34.821Z</time>
      </trkpt>
      <trkpt lat="50.53342" lon="3.42208">
        <ele>26.261269</ele>
        <time>2021-06-11T15:20:59.185Z</time>
      </trkpt>
      <trkpt lat="50.53268" lon="3.42193">
        <ele>27.166849</ele>
        <time>2021-06-11T15:21:11.518Z</time>
      </trkpt>
      <trkpt lat="50.53265" lon="3.42192">
        <ele>27.182832</ele>
        <time>2021-06-11T15:21:11.987Z</time>
      </trkpt>
      <trkpt lat="50.53254" lon="3.42189">
        <ele>27.239235</ele>
        <time>2021-06-11T15:21:14.094Z</time>
      </trkpt>
      <trkpt lat="50.5289" lon="3.42111">
        <ele>28.327675</ele>
        <time>2021-06-11T15:22:15.776Z</time>
      </trkpt>
      <trkpt lat="50.52836" lon="3.42099">
        <ele>28.363212</ele>
        <time>2021-06-11T15:22:24.547Z</time>
      </trkpt>
      <trkpt lat="50.52752" lon="3.4208">
        <ele>28.410866</ele>
        <time>2021-06-11T15:22:38.402Z</time>
      </trkpt>
      <trkpt lat="50.52597" lon="3.42045">
        <ele>28.407118</ele>
        <time>2021-06-11T15:23:04.128Z</time>
      </trkpt>
      <trkpt lat="50.52521" lon="3.42029">
        <ele>28.088794</ele>
        <time>2021-06-11T15:23:15.713Z</time>
      </trkpt>
      <trkpt lat="50.52437" lon="3.42011">
        <ele>27.663569</ele>
        <time>2021-06-11T15:23:28.239Z</time>
      </trkpt>
      <trkpt lat="50.52365" lon="3.41989">
        <ele>27.050933</ele>
        <time>2021-06-11T15:23:38.780Z</time>
      </trkpt>
      <trkpt lat="50.52273" lon="3.41971">
        <ele>26.052217</ele>
        <time>2021-06-11T15:23:51.529Z</time>
      </trkpt>
      <trkpt lat="50.52246" lon="3.41966">
        <ele>25.760887</ele>
        <time>2021-06-11T15:23:55.211Z</time>
      </trkpt>
      <trkpt lat="50.52169" lon="3.4195">
        <ele>24.871459</ele>
        <time>2021-06-11T15:24:05.452Z</time>
      </trkpt>
      <trkpt lat="50.52105" lon="3.41935">
        <ele>24.118865</ele>
        <time>2021-06-11T15:24:14.236Z</time>
      </trkpt>
      <trkpt lat="50.52093" lon="3.41932">
        <ele>23.978552</ele>
        <time>2021-06-11T15:24:15.747Z</time>
      </trkpt>
      <trkpt lat="50.52079" lon="3.41929">
        <ele>23.816257</ele>
        <time>2021-06-11T15:24:17.732Z</time>
      </trkpt>
      <trkpt lat="50.52048" lon="3.41921">
        <ele>23.48555</ele>
        <time>2021-06-11T15:24:22.003Z</time>
      </trkpt>
      <trkpt lat="50.52017" lon="3.41913">
        <ele>23.518871</ele>
        <time>2021-06-11T15:24:26.696Z</time>
      </trkpt>
      <trkpt lat="50.51906" lon="3.41912">
        <ele>23.637256</ele>
        <time>2021-06-11T15:24:45.524Z</time>
      </trkpt>
      <trkpt lat="50.51886" lon="3.41916">
        <ele>23.658062</ele>
        <time>2021-06-11T15:24:49.056Z</time>
      </trkpt>
      <trkpt lat="50.5188" lon="3.41917">
        <ele>23.664438</ele>
        <time>2021-06-11T15:24:50.127Z</time>
      </trkpt>
      <trkpt lat="50.51872" lon="3.41918">
        <ele>23.673285</ele>
        <time>2021-06-11T15:24:51.865Z</time>
      </trkpt>
      <trkpt lat="50.51736" lon="3.41927">
        <ele>24.828092</ele>
        <time>2021-06-11T15:25:18.093Z</time>
      </trkpt>
      <trkpt lat="50.51727" lon="3.41926">
        <ele>24.907555</ele>
        <time>2021-06-11T15:25:20.040Z</time>
      </trkpt>
      <trkpt lat="50.51713" lon="3.41925">
        <ele>25.023739</ele>
        <time>2021-06-11T15:25:22.678Z</time>
      </trkpt>
      <trkpt lat="50.5151" lon="3.41926">
        <ele>25.715664</ele>
        <time>2021-06-11T15:25:58.414Z</time>
      </trkpt>
      <trkpt lat="50.51487" lon="3.41945">
        <ele>25.217699</ele>
        <time>2021-06-11T15:26:02.107Z</time>
      </trkpt>
      <trkpt lat="50.51481" lon="3.4195">
        <ele>25.102131</ele>
        <time>2021-06-11T15:26:02.876Z</time>
      </trkpt>
      <trkpt lat="50.51485" lon="3.41966">
        <ele>24.896737</ele>
        <time>2021-06-11T15:26:04.047Z</time>
      </trkpt>
      <trkpt lat="50.51492" lon="3.41986">
        <ele>24.621758</ele>
        <time>2021-06-11T15:26:05.463Z</time>
      </trkpt>
      <trkpt lat="50.51494" lon="3.41991">
        <ele>24.545237</ele>
        <time>2021-06-11T15:26:05.799Z</time>
      </trkpt>
      <trkpt lat="50.51499" lon="3.42004">
        <ele>24.365763</ele>
        <time>2021-06-11T15:26:06.614Z</time>
      </trkpt>
      <trkpt lat="50.51507" lon="3.42024">
        <ele>24.076308</ele>
        <time>2021-06-11T15:26:08.066Z</time>
      </trkpt>
      <trkpt lat="50.51521" lon="3.42059">
        <ele>23.586971</ele>
        <time>2021-06-11T15:26:10.229Z</time>
      </trkpt>
      <trkpt lat="50.51522" lon="3.42067">
        <ele>23.486238</ele>
        <time>2021-06-11T15:26:10.708Z</time>
      </trkpt>
      <trkpt lat="50.51524" lon="3.42076">
        <ele>23.377852</ele>
        <time>2021-06-11T15:26:11.218Z</time>
      </trkpt>
      <trkpt lat="50.51525" lon="3.42082">
        <ele>23.294338</ele>
        <time>2021-06-11T15:26:11.587Z</time>
      </trkpt>
      <trkpt lat="50.51524" lon="3.42085">
        <ele>23.260536</ele>
        <time>2021-06-11T15:26:11.727Z</time>
      </trkpt>
      <trkpt lat="50.51524" lon="3.42087">
        <ele>23.227054</ele>
        <time>2021-06-11T15:26:11.866Z</time>
      </trkpt>
      <trkpt lat="50.51524" lon="3.42091">
        <ele>23.18112</ele>
        <time>2021-06-11T15:26:12.055Z</time>
      </trkpt>
      <trkpt lat="50.51525" lon="3.42095">
        <ele>23.135062</ele>
        <time>2021-06-11T15:26:12.240Z</time>
      </trkpt>
      <trkpt lat="50.51526" lon="3.42098">
        <ele>23.08914</ele>
        <time>2021-06-11T15:26:12.428Z</time>
      </trkpt>
      <trkpt lat="50.51529" lon="3.421">
        <ele>23.033093</ele>
        <time>2021-06-11T15:26:12.675Z</time>
      </trkpt>
      <trkpt lat="50.51531" lon="3.42102">
        <ele>22.976432</ele>
        <time>2021-06-11T15:26:12.929Z</time>
      </trkpt>
      <trkpt lat="50.51537" lon="3.42114">
        <ele>22.793836</ele>
        <time>2021-06-11T15:26:13.755Z</time>
      </trkpt>
      <trkpt lat="50.51541" lon="3.42124">
        <ele>22.650913</ele>
        <time>2021-06-11T15:26:14.405Z</time>
      </trkpt>
      <trkpt lat="50.51546" lon="3.4214">
        <ele>22.430347</ele>
        <time>2021-06-11T15:26:15.294Z</time>
      </trkpt>
      <trkpt lat="50.51559" lon="3.42188">
        <ele>21.545301</ele>
        <time>2021-06-11T15:26:18.010Z</time>
      </trkpt>
      <trkpt lat="50.51577" lon="3.42252">
        <ele>20.287533</ele>
        <time>2021-06-11T15:26:21.620Z</time>
      </trkpt>
      <trkpt lat="50.51598" lon="3.42329">
        <ele>18.787466</ele>
        <time>2021-06-11T15:26:26.019Z</time>
      </trkpt>
      <trkpt lat="50.516" lon="3.4234">
        <ele>18.588685</ele>
        <time>2021-06-11T15:26:26.575Z</time>
      </trkpt>
      <trkpt lat="50.516" lon="3.42352">
        <ele>18.368304</ele>
        <time>2021-06-11T15:26:27.185Z</time>
      </trkpt>
      <trkpt lat="50.51591" lon="3.42429">
        <ele>17.203649</ele>
        <time>2021-06-11T15:26:31.493Z</time>
      </trkpt>
      <trkpt lat="50.5159" lon="3.42448">
        <ele>17.123053</ele>
        <time>2021-06-11T15:26:32.549Z</time>
      </trkpt>
      <trkpt lat="50.51587" lon="3.42484">
        <ele>16.967584</ele>
        <time>2021-06-11T15:26:34.694Z</time>
      </trkpt>
      <trkpt lat="50.51528" lon="3.43112">
        <ele>14.799718</ele>
        <time>2021-06-11T15:27:18.459Z</time>
      </trkpt>
      <trkpt lat="50.51527" lon="3.43125">
        <ele>14.79246</ele>
        <time>2021-06-11T15:27:19.599Z</time>
      </trkpt>
      <trkpt lat="50.51526" lon="3.43141">
        <ele>14.783162</ele>
        <time>2021-06-11T15:27:20.756Z</time>
      </trkpt>
      <trkpt lat="50.51526" lon="3.43216">
        <ele>14.741241</ele>
        <time>2021-06-11T15:27:26.548Z</time>
      </trkpt>
      <trkpt lat="50.51531" lon="3.43248">
        <ele>14.722791</ele>
        <time>2021-06-11T15:27:29.293Z</time>
      </trkpt>
      <trkpt lat="50.51537" lon="3.43274">
        <ele>14.796059</ele>
        <time>2021-06-11T15:27:31.433Z</time>
      </trkpt>
      <trkpt lat="50.51545" lon="3.43295">
        <ele>14.874705</ele>
        <time>2021-06-11T15:27:33.571Z</time>
      </trkpt>
      <trkpt lat="50.51551" lon="3.43317">
        <ele>14.953859</ele>
        <time>2021-06-11T15:27:35.456Z</time>
      </trkpt>
      <trkpt lat="50.51559" lon="3.4334">
        <ele>15.039229</ele>
        <time>2021-06-11T15:27:37.829Z</time>
      </trkpt>
      <trkpt lat="50.51572" lon="3.43377">
        <ele>15.175409</ele>
        <time>2021-06-11T15:27:41.257Z</time>
      </trkpt>
      <trkpt lat="50.51679" lon="3.43556">
        <ele>15.910956</ele>
        <time>2021-06-11T15:28:03.332Z</time>
      </trkpt>
      <trkpt lat="50.51691" lon="3.43575">
        <ele>15.985114</ele>
        <time>2021-06-11T15:28:05.703Z</time>
      </trkpt>
      <trkpt lat="50.51685" lon="3.43587">
        <ele>16.025064</ele>
        <time>2021-06-11T15:28:07.406Z</time>
      </trkpt>
      <trkpt lat="50.51595" lon="3.43711">
        <ele>16.31159</ele>
        <time>2021-06-11T15:28:27.438Z</time>
      </trkpt>
      <trkpt lat="50.51579" lon="3.4378">
        <ele>16.195795</ele>
        <time>2021-06-11T15:28:34.632Z</time>
      </trkpt>
      <trkpt lat="50.51578" lon="3.43822">
        <ele>16.129626</ele>
        <time>2021-06-11T15:28:38.666Z</time>
      </trkpt>
      <trkpt lat="50.51583" lon="3.43897">
        <ele>16.010513</ele>
        <time>2021-06-11T15:28:45.961Z</time>
      </trkpt>
      <trkpt lat="50.51595" lon="3.43999">
        <ele>15.909641</ele>
        <time>2021-06-11T15:28:55.952Z</time>
      </trkpt>
      <trkpt lat="50.51515" lon="3.44047">
        <ele>15.831634</ele>
        <time>2021-06-11T15:29:09.386Z</time>
      </trkpt>
      <trkpt lat="50.51475" lon="3.44086">
        <ele>15.789086</ele>
        <time>2021-06-11T15:29:17.097Z</time>
      </trkpt>
      <trkpt lat="50.51428" lon="3.44162">
        <ele>15.848283</ele>
        <time>2021-06-11T15:29:28.721Z</time>
      </trkpt>
      <trkpt lat="50.51402" lon="3.44214">
        <ele>15.895501</ele>
        <time>2021-06-11T15:29:35.762Z</time>
      </trkpt>
      <trkpt lat="50.51392" lon="3.44233">
        <ele>15.91286</ele>
        <time>2021-06-11T15:29:38.295Z</time>
      </trkpt>
      <trkpt lat="50.51388" lon="3.44241">
        <ele>15.920205</ele>
        <time>2021-06-11T15:29:39.394Z</time>
      </trkpt>
      <trkpt lat="50.5134" lon="3.44349">
        <ele>15.927691</ele>
        <time>2021-06-11T15:29:53.066Z</time>
      </trkpt>
      <trkpt lat="50.51322" lon="3.4435">
        <ele>15.890158</ele>
        <time>2021-06-11T15:29:55.145Z</time>
      </trkpt>
      <trkpt lat="50.5119" lon="3.44403">
        <ele>15.618917</ele>
        <time>2021-06-11T15:30:10.191Z</time>
      </trkpt>
      <trkpt lat="50.51187" lon="3.44406">
        <ele>15.614739</ele>
        <time>2021-06-11T15:30:10.629Z</time>
      </trkpt>
      <trkpt lat="50.51116" lon="3.44468">
        <ele>15.537091</ele>
        <time>2021-06-11T15:30:19.742Z</time>
      </trkpt>
      <trkpt lat="50.51095" lon="3.44486">
        <ele>15.513672</ele>
        <time>2021-06-11T15:30:22.467Z</time>
      </trkpt>
      <trkpt lat="50.50707" lon="3.44823">
        <ele>15.726731</ele>
        <time>2021-06-11T15:31:16.170Z</time>
      </trkpt>
      <trkpt lat="50.50673" lon="3.44871">
        <ele>15.782701</ele>
        <time>2021-06-11T15:31:21.760Z</time>
      </trkpt>
      <trkpt lat="50.50661" lon="3.44894">
        <ele>15.806482</ele>
        <time>2021-06-11T15:31:24.024Z</time>
      </trkpt>
      <trkpt lat="50.50652" lon="3.44916">
        <ele>15.826776</ele>
        <time>2021-06-11T15:31:26.153Z</time>
      </trkpt>
      <trkpt lat="50.50599" lon="3.45026">
        <ele>15.950071</ele>
        <time>2021-06-11T15:31:36.791Z</time>
      </trkpt>
      <trkpt lat="50.50551" lon="3.45111">
        <ele>16.345967</ele>
        <time>2021-06-11T15:31:46.208Z</time>
      </trkpt>
      <trkpt lat="50.50539" lon="3.45133">
        <ele>16.444786</ele>
        <time>2021-06-11T15:31:48.619Z</time>
      </trkpt>
      <trkpt lat="50.50531" lon="3.45152">
        <ele>16.524907</ele>
        <time>2021-06-11T15:31:50.830Z</time>
      </trkpt>
      <trkpt lat="50.50513" lon="3.45201">
        <ele>16.720879</ele>
        <time>2021-06-11T15:31:55.987Z</time>
      </trkpt>
      <trkpt lat="50.50477" lon="3.45312">
        <ele>17.316706</ele>
        <time>2021-06-11T15:32:07.509Z</time>
      </trkpt>
      <trkpt lat="50.50473" lon="3.45332">
        <ele>17.442859</ele>
        <time>2021-06-11T15:32:09.452Z</time>
      </trkpt>
      <trkpt lat="50.50471" lon="3.45343">
        <ele>17.505275</ele>
        <time>2021-06-11T15:32:10.545Z</time>
      </trkpt>
      <trkpt lat="50.50468" lon="3.45372">
        <ele>17.677998</ele>
        <time>2021-06-11T15:32:13.281Z</time>
      </trkpt>
      <trkpt lat="50.50458" lon="3.45443">
        <ele>18.102961</ele>
        <time>2021-06-11T15:32:20.239Z</time>
      </trkpt>
      <trkpt lat="50.50448" lon="3.4547">
        <ele>18.287158</ele>
        <time>2021-06-11T15:32:23.290Z</time>
      </trkpt>
      <trkpt lat="50.50444" lon="3.45482">
        <ele>18.366172</ele>
        <time>2021-06-11T15:32:24.755Z</time>
      </trkpt>
      <trkpt lat="50.50447" lon="3.4549">
        <ele>18.421545</ele>
        <time>2021-06-11T15:32:25.553Z</time>
      </trkpt>
      <trkpt lat="50.50448" lon="3.45508">
        <ele>18.530036</ele>
        <time>2021-06-11T15:32:27.361Z</time>
      </trkpt>
      <trkpt lat="50.50443" lon="3.45552">
        <ele>18.699453</ele>
        <time>2021-06-11T15:32:31.634Z</time>
      </trkpt>
      <trkpt lat="50.50441" lon="3.45568">
        <ele>18.75746</ele>
        <time>2021-06-11T15:32:33.075Z</time>
      </trkpt>
      <trkpt lat="50.50441" lon="3.45573">
        <ele>18.775694</ele>
        <time>2021-06-11T15:32:33.502Z</time>
      </trkpt>
      <trkpt lat="50.5044" lon="3.45588">
        <ele>18.830272</ele>
        <time>2021-06-11T15:32:35.070Z</time>
      </trkpt>
      <trkpt lat="50.50437" lon="3.45631">
        <ele>18.985183</ele>
        <time>2021-06-11T15:32:38.397Z</time>
      </trkpt>
      <trkpt lat="50.50436" lon="3.45642">
        <ele>19.02436</ele>
        <time>2021-06-11T15:32:39.556Z</time>
      </trkpt>
      <trkpt lat="50.50433" lon="3.4572">
        <ele>19.299877</ele>
        <time>2021-06-11T15:32:46.039Z</time>
      </trkpt>
      <trkpt lat="50.50424" lon="3.45772">
        <ele>19.492479</ele>
        <time>2021-06-11T15:32:50.576Z</time>
      </trkpt>
      <trkpt lat="50.5041" lon="3.45851">
        <ele>19.739213</ele>
        <time>2021-06-11T15:32:57.436Z</time>
      </trkpt>
      <trkpt lat="50.50361" lon="3.46074">
        <ele>20.366211</ele>
        <time>2021-06-11T15:33:17.642Z</time>
      </trkpt>
      <trkpt lat="50.50345" lon="3.46155">
        <ele>20.366211</ele>
        <time>2021-06-11T15:33:24.752Z</time>
      </trkpt>
      <trkpt lat="50.50335" lon="3.46236">
        <ele>20.366211</ele>
        <time>2021-06-11T15:33:31.504Z</time>
      </trkpt>
      <trkpt lat="50.50325" lon="3.46304">
        <ele>20.366211</ele>
        <time>2021-06-11T15:33:36.978Z</time>
      </trkpt>
      <trkpt lat="50.50323" lon="3.46324">
        <ele>20.366211</ele>
        <time>2021-06-11T15:33:38.521Z</time>
      </trkpt>
    </trkseg>
  </trk>
</gpx>